<?xml version="1.0" encoding="UTF-8"?>
<gpx  version="1.1"  creator="Verlag Esterbauer" xmlns:xsi="http://www.w3.org/2001/XMLSchema-instance" xmlns="http://www.topografix.com/GPX/1/1"  xsi:schemaLocation="http://www.topografix.com/GPX/1/1 http://www.topografix.com/GPX/1/1/gpx.xsd">
<metadata>
  <time>2016-07-05T13:43:38Z</time>
</metadata>
<trk>
  <name>rhe2#10_1</name>
  <cmt>by Verlag Esterbauer</cmt>
  <trkseg>
    <trkpt lat="49.48418667" lon="8.46094917">
    <ele>98</ele>
    <time>2016-07-01T07:00:00Z</time>
    </trkpt>
    <trkpt lat="49.48432917" lon="8.46106223">
    <ele>98</ele>
    <time>2016-07-01T07:00:04Z</time>
    </trkpt>
    <trkpt lat="49.48445251" lon="8.46115834">
    <ele>98</ele>
    <time>2016-07-01T07:00:07Z</time>
    </trkpt>
    <trkpt lat="49.48470973" lon="8.46138334">
    <ele>98</ele>
    <time>2016-07-01T07:00:14Z</time>
    </trkpt>
    <trkpt lat="49.48473834" lon="8.46135806">
    <ele>98</ele>
    <time>2016-07-01T07:00:15Z</time>
    </trkpt>
    <trkpt lat="49.48492445" lon="8.46146639">
    <ele>99</ele>
    <time>2016-07-01T07:00:19Z</time>
    </trkpt>
    <trkpt lat="49.48518889" lon="8.46153806">
    <ele>99</ele>
    <time>2016-07-01T07:00:26Z</time>
    </trkpt>
    <trkpt lat="49.48522139" lon="8.46158">
    <ele>99</ele>
    <time>2016-07-01T07:00:27Z</time>
    </trkpt>
    <trkpt lat="49.48768528" lon="8.46382945">
    <ele>110</ele>
    <time>2016-07-01T07:01:34Z</time>
    </trkpt>
    <trkpt lat="49.48765056" lon="8.46381001">
    <ele>110</ele>
    <time>2016-07-01T07:01:35Z</time>
    </trkpt>
    <trkpt lat="49.48672639" lon="8.46627778">
    <ele>99</ele>
    <time>2016-07-01T07:02:19Z</time>
    </trkpt>
    <trkpt lat="49.48665584" lon="8.46631334">
    <ele>102</ele>
    <time>2016-07-01T07:02:21Z</time>
    </trkpt>
    <trkpt lat="49.4872525" lon="8.46686667">
    <ele>100</ele>
    <time>2016-07-01T07:02:37Z</time>
    </trkpt>
    <trkpt lat="49.48810556" lon="8.46766417">
    <ele>109</ele>
    <time>2016-07-01T07:03:01Z</time>
    </trkpt>
    <trkpt lat="49.48803417" lon="8.46760278">
    <ele>107</ele>
    <time>2016-07-01T07:03:02Z</time>
    </trkpt>
    <trkpt lat="49.48877556" lon="8.46827639">
    <ele>110</ele>
    <time>2016-07-01T07:03:23Z</time>
    </trkpt>
    <trkpt lat="49.49039528" lon="8.4697775">
    <ele>106</ele>
    <time>2016-07-01T07:04:07Z</time>
    </trkpt>
    <trkpt lat="49.49103056" lon="8.47038723">
    <ele>105</ele>
    <time>2016-07-01T07:04:25Z</time>
    </trkpt>
    <trkpt lat="49.49165612" lon="8.47094139">
    <ele>101</ele>
    <time>2016-07-01T07:04:42Z</time>
    </trkpt>
    <trkpt lat="49.49232584" lon="8.47156167">
    <ele>99</ele>
    <time>2016-07-01T07:05:00Z</time>
    </trkpt>
    <trkpt lat="49.49263612" lon="8.47181834">
    <ele>96</ele>
    <time>2016-07-01T07:05:09Z</time>
    </trkpt>
    <trkpt lat="49.49261806" lon="8.47181834">
    <ele>96</ele>
    <time>2016-07-01T07:05:09Z</time>
    </trkpt>
    <trkpt lat="49.49286306" lon="8.47192112">
    <ele>95</ele>
    <time>2016-07-01T07:05:15Z</time>
    </trkpt>
    <trkpt lat="49.49296362" lon="8.47200889">
    <ele>94</ele>
    <time>2016-07-01T07:05:18Z</time>
    </trkpt>
    <trkpt lat="49.49312473" lon="8.47188195">
    <ele>93</ele>
    <time>2016-07-01T07:05:22Z</time>
    </trkpt>
    <trkpt lat="49.49325473" lon="8.47174362">
    <ele>92</ele>
    <time>2016-07-01T07:05:26Z</time>
    </trkpt>
    <trkpt lat="49.49337223" lon="8.47156862">
    <ele>91</ele>
    <time>2016-07-01T07:05:30Z</time>
    </trkpt>
    <trkpt lat="49.49348778" lon="8.47152417">
    <ele>91</ele>
    <time>2016-07-01T07:05:32Z</time>
    </trkpt>
    <trkpt lat="49.49497556" lon="8.47288139">
    <ele>94</ele>
    <time>2016-07-01T07:06:13Z</time>
    </trkpt>
    <trkpt lat="49.49503362" lon="8.47297195">
    <ele>98</ele>
    <time>2016-07-01T07:06:15Z</time>
    </trkpt>
    <trkpt lat="49.49492251" lon="8.47329667">
    <ele>96</ele>
    <time>2016-07-01T07:06:21Z</time>
    </trkpt>
    <trkpt lat="49.49487501" lon="8.47338667">
    <ele>97</ele>
    <time>2016-07-01T07:06:23Z</time>
    </trkpt>
    <trkpt lat="49.49480473" lon="8.47354751">
    <ele>97</ele>
    <time>2016-07-01T07:06:26Z</time>
    </trkpt>
    <trkpt lat="49.49474667" lon="8.47358028">
    <ele>96</ele>
    <time>2016-07-01T07:06:27Z</time>
    </trkpt>
    <trkpt lat="49.49471751" lon="8.47359334">
    <ele>93</ele>
    <time>2016-07-01T07:06:28Z</time>
    </trkpt>
    <trkpt lat="49.49466362" lon="8.47370278">
    <ele>93</ele>
    <time>2016-07-01T07:06:30Z</time>
    </trkpt>
    <trkpt lat="49.4945725" lon="8.47384806">
    <ele>93</ele>
    <time>2016-07-01T07:06:33Z</time>
    </trkpt>
    <trkpt lat="49.49455362" lon="8.47387389">
    <ele>92</ele>
    <time>2016-07-01T07:06:33Z</time>
    </trkpt>
    <trkpt lat="49.49454306" lon="8.47379056">
    <ele>92</ele>
    <time>2016-07-01T07:06:35Z</time>
    </trkpt>
    <trkpt lat="49.49459251" lon="8.47366528">
    <ele>92</ele>
    <time>2016-07-01T07:06:37Z</time>
    </trkpt>
    <trkpt lat="49.49465834" lon="8.47346917">
    <ele>91</ele>
    <time>2016-07-01T07:06:40Z</time>
    </trkpt>
    <trkpt lat="49.49475723" lon="8.47319917">
    <ele>94</ele>
    <time>2016-07-01T07:06:45Z</time>
    </trkpt>
    <trkpt lat="49.49475528" lon="8.47320862">
    <ele>94</ele>
    <time>2016-07-01T07:06:45Z</time>
    </trkpt>
    <trkpt lat="49.49506862" lon="8.47242667">
    <ele>93</ele>
    <time>2016-07-01T07:06:59Z</time>
    </trkpt>
    <trkpt lat="49.49506084" lon="8.47242528">
    <ele>93</ele>
    <time>2016-07-01T07:07:00Z</time>
    </trkpt>
    <trkpt lat="49.49534306" lon="8.47162973">
    <ele>91</ele>
    <time>2016-07-01T07:07:13Z</time>
    </trkpt>
    <trkpt lat="49.49567223" lon="8.47077639">
    <ele>90</ele>
    <time>2016-07-01T07:07:29Z</time>
    </trkpt>
    <trkpt lat="49.49677834" lon="8.4677975">
    <ele>90</ele>
    <time>2016-07-01T07:08:21Z</time>
    </trkpt>
    <trkpt lat="49.49681389" lon="8.46771473">
    <ele>89</ele>
    <time>2016-07-01T07:08:23Z</time>
    </trkpt>
    <trkpt lat="49.49784917" lon="8.46494389">
    <ele>91</ele>
    <time>2016-07-01T07:09:12Z</time>
    </trkpt>
    <trkpt lat="49.49827028" lon="8.46382334">
    <ele>89</ele>
    <time>2016-07-01T07:09:32Z</time>
    </trkpt>
    <trkpt lat="49.49883945" lon="8.46229473">
    <ele>88</ele>
    <time>2016-07-01T07:09:59Z</time>
    </trkpt>
    <trkpt lat="49.49927584" lon="8.46120862">
    <ele>88</ele>
    <time>2016-07-01T07:10:18Z</time>
    </trkpt>
    <trkpt lat="49.49923417" lon="8.461395">
    <ele>89</ele>
    <time>2016-07-01T07:10:21Z</time>
    </trkpt>
    <trkpt lat="49.49968973" lon="8.46017695">
    <ele>85</ele>
    <time>2016-07-01T07:10:43Z</time>
    </trkpt>
    <trkpt lat="49.49964806" lon="8.46030695">
    <ele>85</ele>
    <time>2016-07-01T07:10:45Z</time>
    </trkpt>
    <trkpt lat="49.49976306" lon="8.45979612">
    <ele>84</ele>
    <time>2016-07-01T07:10:53Z</time>
    </trkpt>
    <trkpt lat="49.49987084" lon="8.45951112">
    <ele>83</ele>
    <time>2016-07-01T07:10:58Z</time>
    </trkpt>
    <trkpt lat="49.49987084" lon="8.45951112">
    <ele>83</ele>
    <time>2016-07-01T07:10:58Z</time>
    </trkpt>
    <trkpt lat="49.50013945" lon="8.45883278">
    <ele>82</ele>
    <time>2016-07-01T07:11:10Z</time>
    </trkpt>
    <trkpt lat="49.50042195" lon="8.45817167">
    <ele>83</ele>
    <time>2016-07-01T07:11:23Z</time>
    </trkpt>
    <trkpt lat="49.50068639" lon="8.45744334">
    <ele>84</ele>
    <time>2016-07-01T07:11:35Z</time>
    </trkpt>
    <trkpt lat="49.50071639" lon="8.45747001">
    <ele>84</ele>
    <time>2016-07-01T07:11:36Z</time>
    </trkpt>
    <trkpt lat="49.50098834" lon="8.45698528">
    <ele>85</ele>
    <time>2016-07-01T07:11:46Z</time>
    </trkpt>
    <trkpt lat="49.50111806" lon="8.45690334">
    <ele>86</ele>
    <time>2016-07-01T07:11:49Z</time>
    </trkpt>
    <trkpt lat="49.50110334" lon="8.45693917">
    <ele>85</ele>
    <time>2016-07-01T07:11:50Z</time>
    </trkpt>
    <trkpt lat="49.50120778" lon="8.4565825">
    <ele>85</ele>
    <time>2016-07-01T07:11:56Z</time>
    </trkpt>
    <trkpt lat="49.50165362" lon="8.45566389">
    <ele>85</ele>
    <time>2016-07-01T07:12:14Z</time>
    </trkpt>
    <trkpt lat="49.50180723" lon="8.45541556">
    <ele>86</ele>
    <time>2016-07-01T07:12:19Z</time>
    </trkpt>
    <trkpt lat="49.50206334" lon="8.45485556">
    <ele>86</ele>
    <time>2016-07-01T07:12:29Z</time>
    </trkpt>
    <trkpt lat="49.50249695" lon="8.45400973">
    <ele>86</ele>
    <time>2016-07-01T07:12:46Z</time>
    </trkpt>
    <trkpt lat="49.503265" lon="8.45262556">
    <ele>87</ele>
    <time>2016-07-01T07:13:14Z</time>
    </trkpt>
    <trkpt lat="49.50439667" lon="8.45056528">
    <ele>85</ele>
    <time>2016-07-01T07:13:55Z</time>
    </trkpt>
    <trkpt lat="49.50502973" lon="8.44939973">
    <ele>85</ele>
    <time>2016-07-01T07:14:18Z</time>
    </trkpt>
    <trkpt lat="49.50587278" lon="8.44803389">
    <ele>87</ele>
    <time>2016-07-01T07:14:47Z</time>
    </trkpt>
    <trkpt lat="49.50658862" lon="8.44690695">
    <ele>86</ele>
    <time>2016-07-01T07:15:11Z</time>
    </trkpt>
    <trkpt lat="49.50694223" lon="8.44651306">
    <ele>85</ele>
    <time>2016-07-01T07:15:22Z</time>
    </trkpt>
    <trkpt lat="49.50701306" lon="8.44742528">
    <ele>89</ele>
    <time>2016-07-01T07:15:36Z</time>
    </trkpt>
    <trkpt lat="49.50708112" lon="8.44826612">
    <ele>90</ele>
    <time>2016-07-01T07:15:49Z</time>
    </trkpt>
    <trkpt lat="49.50704417" lon="8.44834584">
    <ele>90</ele>
    <time>2016-07-01T07:15:50Z</time>
    </trkpt>
    <trkpt lat="49.50742056" lon="8.44828973">
    <ele>88</ele>
    <time>2016-07-01T07:15:59Z</time>
    </trkpt>
    <trkpt lat="49.50755667" lon="8.44820306">
    <ele>88</ele>
    <time>2016-07-01T07:16:03Z</time>
    </trkpt>
    <trkpt lat="49.50753056" lon="8.44770362">
    <ele>89</ele>
    <time>2016-07-01T07:16:10Z</time>
    </trkpt>
    <trkpt lat="49.50745362" lon="8.44605195">
    <ele>84</ele>
    <time>2016-07-01T07:16:36Z</time>
    </trkpt>
    <trkpt lat="49.50745362" lon="8.44605195">
    <ele>84</ele>
    <time>2016-07-01T07:16:36Z</time>
    </trkpt>
    <trkpt lat="49.50753945" lon="8.44538473">
    <ele>83</ele>
    <time>2016-07-01T07:16:46Z</time>
    </trkpt>
    <trkpt lat="49.50881473" lon="8.44338112">
    <ele>81</ele>
    <time>2016-07-01T07:17:29Z</time>
    </trkpt>
    <trkpt lat="49.51076584" lon="8.44047556">
    <ele>82</ele>
    <time>2016-07-01T07:18:33Z</time>
    </trkpt>
    <trkpt lat="49.51144223" lon="8.43946223">
    <ele>82</ele>
    <time>2016-07-01T07:18:55Z</time>
    </trkpt>
    <trkpt lat="49.5121225" lon="8.43854723">
    <ele>79</ele>
    <time>2016-07-01T07:19:17Z</time>
    </trkpt>
    <trkpt lat="49.51246556" lon="8.43822612">
    <ele>78</ele>
    <time>2016-07-01T07:19:26Z</time>
    </trkpt>
    <trkpt lat="49.51301667" lon="8.43776278">
    <ele>77</ele>
    <time>2016-07-01T07:19:41Z</time>
    </trkpt>
    <trkpt lat="49.51365167" lon="8.43740834">
    <ele>76</ele>
    <time>2016-07-01T07:19:57Z</time>
    </trkpt>
    <trkpt lat="49.51473251" lon="8.43695723">
    <ele>76</ele>
    <time>2016-07-01T07:20:23Z</time>
    </trkpt>
    <trkpt lat="49.51474723" lon="8.43697084">
    <ele>76</ele>
    <time>2016-07-01T07:20:24Z</time>
    </trkpt>
    <trkpt lat="49.51635334" lon="8.43623473">
    <ele>74</ele>
    <time>2016-07-01T07:21:03Z</time>
    </trkpt>
    <trkpt lat="49.51938834" lon="8.43496028">
    <ele>75</ele>
    <time>2016-07-01T07:22:17Z</time>
    </trkpt>
    <trkpt lat="49.52022917" lon="8.43457667">
    <ele>74</ele>
    <time>2016-07-01T07:22:38Z</time>
    </trkpt>
    <trkpt lat="49.52053389" lon="8.4344775">
    <ele>74</ele>
    <time>2016-07-01T07:22:45Z</time>
    </trkpt>
    <trkpt lat="49.52084945" lon="8.43449223">
    <ele>76</ele>
    <time>2016-07-01T07:22:53Z</time>
    </trkpt>
    <trkpt lat="49.52129917" lon="8.43428028">
    <ele>74</ele>
    <time>2016-07-01T07:23:04Z</time>
    </trkpt>
    <trkpt lat="49.52144834" lon="8.43409223">
    <ele>73</ele>
    <time>2016-07-01T07:23:08Z</time>
    </trkpt>
    <trkpt lat="49.52185806" lon="8.43389556">
    <ele>73</ele>
    <time>2016-07-01T07:23:18Z</time>
    </trkpt>
    <trkpt lat="49.52257056" lon="8.43360389">
    <ele>73</ele>
    <time>2016-07-01T07:23:36Z</time>
    </trkpt>
    <trkpt lat="49.52283806" lon="8.43353584">
    <ele>74</ele>
    <time>2016-07-01T07:23:42Z</time>
    </trkpt>
    <trkpt lat="49.52283806" lon="8.43353584">
    <ele>74</ele>
    <time>2016-07-01T07:23:42Z</time>
    </trkpt>
    <trkpt lat="49.52360778" lon="8.43641667">
    <ele>80</ele>
    <time>2016-07-01T07:24:30Z</time>
    </trkpt>
    <trkpt lat="49.52376612" lon="8.43717639">
    <ele>76</ele>
    <time>2016-07-01T07:24:42Z</time>
    </trkpt>
    <trkpt lat="49.52345834" lon="8.43745112">
    <ele>74</ele>
    <time>2016-07-01T07:24:50Z</time>
    </trkpt>
    <trkpt lat="49.52348834" lon="8.43756056">
    <ele>74</ele>
    <time>2016-07-01T07:24:52Z</time>
    </trkpt>
    <trkpt lat="49.52345417" lon="8.43773389">
    <ele>74</ele>
    <time>2016-07-01T07:24:55Z</time>
    </trkpt>
    <trkpt lat="49.52348389" lon="8.43768056">
    <ele>74</ele>
    <time>2016-07-01T07:24:56Z</time>
    </trkpt>
    <trkpt lat="49.52598834" lon="8.43659778">
    <ele>76</ele>
    <time>2016-07-01T07:25:57Z</time>
    </trkpt>
    <trkpt lat="49.52762778" lon="8.43591334">
    <ele>77</ele>
    <time>2016-07-01T07:26:37Z</time>
    </trkpt>
    <trkpt lat="49.53031862" lon="8.43474806">
    <ele>80</ele>
    <time>2016-07-01T07:27:43Z</time>
    </trkpt>
    <trkpt lat="49.53108973" lon="8.43441973">
    <ele>77</ele>
    <time>2016-07-01T07:28:02Z</time>
    </trkpt>
    <trkpt lat="49.53185584" lon="8.43409112">
    <ele>77</ele>
    <time>2016-07-01T07:28:21Z</time>
    </trkpt>
    <trkpt lat="49.53241334" lon="8.43381945">
    <ele>80</ele>
    <time>2016-07-01T07:28:34Z</time>
    </trkpt>
    <trkpt lat="49.53293251" lon="8.43368112">
    <ele>85</ele>
    <time>2016-07-01T07:28:47Z</time>
    </trkpt>
    <trkpt lat="49.53309167" lon="8.43376584">
    <ele>86</ele>
    <time>2016-07-01T07:28:51Z</time>
    </trkpt>
    <trkpt lat="49.5333075" lon="8.43410167">
    <ele>87</ele>
    <time>2016-07-01T07:28:58Z</time>
    </trkpt>
    <trkpt lat="49.53358306" lon="8.4344825">
    <ele>90</ele>
    <time>2016-07-01T07:29:07Z</time>
    </trkpt>
    <trkpt lat="49.53464389" lon="8.43580639">
    <ele>90</ele>
    <time>2016-07-01T07:29:39Z</time>
    </trkpt>
    <trkpt lat="49.53512501" lon="8.43636334">
    <ele>89</ele>
    <time>2016-07-01T07:29:53Z</time>
    </trkpt>
    <trkpt lat="49.53509556" lon="8.43641167">
    <ele>89</ele>
    <time>2016-07-01T07:29:54Z</time>
    </trkpt>
    <trkpt lat="49.53633" lon="8.43737278">
    <ele>83</ele>
    <time>2016-07-01T07:30:27Z</time>
    </trkpt>
    <trkpt lat="49.53625334" lon="8.43742806">
    <ele>84</ele>
    <time>2016-07-01T07:30:29Z</time>
    </trkpt>
    <trkpt lat="49.53679084" lon="8.43772334">
    <ele>87</ele>
    <time>2016-07-01T07:30:42Z</time>
    </trkpt>
    <trkpt lat="49.53784195" lon="8.43851945">
    <ele>90</ele>
    <time>2016-07-01T07:31:10Z</time>
    </trkpt>
    <trkpt lat="49.53784195" lon="8.43851945">
    <ele>90</ele>
    <time>2016-07-01T07:31:10Z</time>
    </trkpt>
    <trkpt lat="49.53807695" lon="8.43844473">
    <ele>90</ele>
    <time>2016-07-01T07:31:15Z</time>
    </trkpt>
    <trkpt lat="49.53835723" lon="8.43823556">
    <ele>89</ele>
    <time>2016-07-01T07:31:23Z</time>
    </trkpt>
    <trkpt lat="49.53842528" lon="8.43808889">
    <ele>89</ele>
    <time>2016-07-01T07:31:26Z</time>
    </trkpt>
    <trkpt lat="49.53842528" lon="8.43808889">
    <ele>89</ele>
    <time>2016-07-01T07:31:26Z</time>
    </trkpt>
    <trkpt lat="49.53849389" lon="8.43795139">
    <ele>89</ele>
    <time>2016-07-01T07:31:28Z</time>
    </trkpt>
    <trkpt lat="49.53885473" lon="8.43691501">
    <ele>88</ele>
    <time>2016-07-01T07:31:46Z</time>
    </trkpt>
    <trkpt lat="49.53948167" lon="8.43547306">
    <ele>86</ele>
    <time>2016-07-01T07:32:13Z</time>
    </trkpt>
    <trkpt lat="49.53970306" lon="8.43506112">
    <ele>86</ele>
    <time>2016-07-01T07:32:21Z</time>
    </trkpt>
    <trkpt lat="49.54013417" lon="8.43442528">
    <ele>86</ele>
    <time>2016-07-01T07:32:35Z</time>
    </trkpt>
    <trkpt lat="49.54039389" lon="8.43399251">
    <ele>87</ele>
    <time>2016-07-01T07:32:44Z</time>
    </trkpt>
    <trkpt lat="49.54055862" lon="8.43358806">
    <ele>87</ele>
    <time>2016-07-01T07:32:51Z</time>
    </trkpt>
    <trkpt lat="49.54068251" lon="8.43294723">
    <ele>87</ele>
    <time>2016-07-01T07:33:02Z</time>
    </trkpt>
    <trkpt lat="49.54089334" lon="8.43171084">
    <ele>88</ele>
    <time>2016-07-01T07:33:21Z</time>
    </trkpt>
    <trkpt lat="49.54107" lon="8.43109528">
    <ele>86</ele>
    <time>2016-07-01T07:33:32Z</time>
    </trkpt>
    <trkpt lat="49.54171639" lon="8.42966389">
    <ele>79</ele>
    <time>2016-07-01T07:33:58Z</time>
    </trkpt>
    <trkpt lat="49.54218389" lon="8.42893334">
    <ele>79</ele>
    <time>2016-07-01T07:34:14Z</time>
    </trkpt>
    <trkpt lat="49.54254473" lon="8.42850834">
    <ele>81</ele>
    <time>2016-07-01T07:34:25Z</time>
    </trkpt>
    <trkpt lat="49.54325528" lon="8.42776862">
    <ele>84</ele>
    <time>2016-07-01T07:34:45Z</time>
    </trkpt>
    <trkpt lat="49.54333834" lon="8.42771278">
    <ele>84</ele>
    <time>2016-07-01T07:34:47Z</time>
    </trkpt>
    <trkpt lat="49.54330834" lon="8.42766751">
    <ele>84</ele>
    <time>2016-07-01T07:34:48Z</time>
    </trkpt>
    <trkpt lat="49.54399584" lon="8.42710139">
    <ele>84</ele>
    <time>2016-07-01T07:35:06Z</time>
    </trkpt>
    <trkpt lat="49.54453501" lon="8.42667473">
    <ele>84</ele>
    <time>2016-07-01T07:35:21Z</time>
    </trkpt>
    <trkpt lat="49.54517556" lon="8.42626473">
    <ele>84</ele>
    <time>2016-07-01T07:35:37Z</time>
    </trkpt>
    <trkpt lat="49.54615445" lon="8.42565889">
    <ele>82</ele>
    <time>2016-07-01T07:36:02Z</time>
    </trkpt>
    <trkpt lat="49.54684973" lon="8.42524473">
    <ele>83</ele>
    <time>2016-07-01T07:36:19Z</time>
    </trkpt>
    <trkpt lat="49.54778028" lon="8.42469778">
    <ele>81</ele>
    <time>2016-07-01T07:36:43Z</time>
    </trkpt>
    <trkpt lat="49.5490675" lon="8.42392389">
    <ele>84</ele>
    <time>2016-07-01T07:37:15Z</time>
    </trkpt>
    <trkpt lat="49.54961334" lon="8.42356973">
    <ele>86</ele>
    <time>2016-07-01T07:37:29Z</time>
    </trkpt>
    <trkpt lat="49.54973778" lon="8.42348584">
    <ele>87</ele>
    <time>2016-07-01T07:37:33Z</time>
    </trkpt>
    <trkpt lat="49.54972445" lon="8.42347195">
    <ele>87</ele>
    <time>2016-07-01T07:37:33Z</time>
    </trkpt>
    <trkpt lat="49.55003973" lon="8.42318056">
    <ele>88</ele>
    <time>2016-07-01T07:37:42Z</time>
    </trkpt>
    <trkpt lat="49.55039584" lon="8.42300251">
    <ele>88</ele>
    <time>2016-07-01T07:37:50Z</time>
    </trkpt>
    <trkpt lat="49.5507875" lon="8.42282417">
    <ele>87</ele>
    <time>2016-07-01T07:38:00Z</time>
    </trkpt>
    <trkpt lat="49.55084417" lon="8.42282251">
    <ele>86</ele>
    <time>2016-07-01T07:38:01Z</time>
    </trkpt>
    <trkpt lat="49.55204334" lon="8.42233695">
    <ele>81</ele>
    <time>2016-07-01T07:38:31Z</time>
    </trkpt>
    <trkpt lat="49.55451112" lon="8.42152306">
    <ele>88</ele>
    <time>2016-07-01T07:39:30Z</time>
    </trkpt>
    <trkpt lat="49.55568473" lon="8.42112612">
    <ele>89</ele>
    <time>2016-07-01T07:39:58Z</time>
    </trkpt>
    <trkpt lat="49.55613389" lon="8.42099584">
    <ele>87</ele>
    <time>2016-07-01T07:40:09Z</time>
    </trkpt>
    <trkpt lat="49.55640112" lon="8.42089195">
    <ele>87</ele>
    <time>2016-07-01T07:40:16Z</time>
    </trkpt>
    <trkpt lat="49.55720973" lon="8.42075195">
    <ele>86</ele>
    <time>2016-07-01T07:40:35Z</time>
    </trkpt>
    <trkpt lat="49.55793528" lon="8.42068195">
    <ele>84</ele>
    <time>2016-07-01T07:40:52Z</time>
    </trkpt>
    <trkpt lat="49.55900639" lon="8.42069667">
    <ele>84</ele>
    <time>2016-07-01T07:41:17Z</time>
    </trkpt>
    <trkpt lat="49.55977167" lon="8.42079167">
    <ele>88</ele>
    <time>2016-07-01T07:41:35Z</time>
    </trkpt>
    <trkpt lat="49.56051889" lon="8.42093473">
    <ele>87</ele>
    <time>2016-07-01T07:41:53Z</time>
    </trkpt>
    <trkpt lat="49.56222306" lon="8.42138112">
    <ele>85</ele>
    <time>2016-07-01T07:42:34Z</time>
    </trkpt>
    <trkpt lat="49.56325417" lon="8.42172695">
    <ele>85</ele>
    <time>2016-07-01T07:42:58Z</time>
    </trkpt>
    <trkpt lat="49.56426223" lon="8.42218973">
    <ele>86</ele>
    <time>2016-07-01T07:43:23Z</time>
    </trkpt>
    <trkpt lat="49.56539473" lon="8.42270917">
    <ele>84</ele>
    <time>2016-07-01T07:43:51Z</time>
    </trkpt>
    <trkpt lat="49.56710778" lon="8.42366556">
    <ele>85</ele>
    <time>2016-07-01T07:44:34Z</time>
    </trkpt>
    <trkpt lat="49.56822417" lon="8.42432528">
    <ele>86</ele>
    <time>2016-07-01T07:45:02Z</time>
    </trkpt>
    <trkpt lat="49.56894584" lon="8.42474195">
    <ele>89</ele>
    <time>2016-07-01T07:45:20Z</time>
    </trkpt>
    <trkpt lat="49.56946528" lon="8.4250925">
    <ele>90</ele>
    <time>2016-07-01T07:45:34Z</time>
    </trkpt>
    <trkpt lat="49.56976362" lon="8.42523556">
    <ele>91</ele>
    <time>2016-07-01T07:45:41Z</time>
    </trkpt>
    <trkpt lat="49.57038445" lon="8.42562278">
    <ele>91</ele>
    <time>2016-07-01T07:45:57Z</time>
    </trkpt>
    <trkpt lat="49.57069417" lon="8.42570028">
    <ele>90</ele>
    <time>2016-07-01T07:46:04Z</time>
    </trkpt>
    <trkpt lat="49.57242501" lon="8.42652139">
    <ele>90</ele>
    <time>2016-07-01T07:46:47Z</time>
    </trkpt>
    <trkpt lat="49.57405056" lon="8.42727639">
    <ele>89</ele>
    <time>2016-07-01T07:47:27Z</time>
    </trkpt>
    <trkpt lat="49.57553723" lon="8.42802278">
    <ele>87</ele>
    <time>2016-07-01T07:48:04Z</time>
    </trkpt>
    <trkpt lat="49.57611" lon="8.42829056">
    <ele>85</ele>
    <time>2016-07-01T07:48:18Z</time>
    </trkpt>
    <trkpt lat="49.57641389" lon="8.42843334">
    <ele>81</ele>
    <time>2016-07-01T07:48:25Z</time>
    </trkpt>
    <trkpt lat="49.57656917" lon="8.42872001">
    <ele>82</ele>
    <time>2016-07-01T07:48:31Z</time>
    </trkpt>
    <trkpt lat="49.57670473" lon="8.42895473">
    <ele>82</ele>
    <time>2016-07-01T07:48:36Z</time>
    </trkpt>
    <trkpt lat="49.57666223" lon="8.42888473">
    <ele>82</ele>
    <time>2016-07-01T07:48:37Z</time>
    </trkpt>
    <trkpt lat="49.57683362" lon="8.4290325">
    <ele>82</ele>
    <time>2016-07-01T07:48:42Z</time>
    </trkpt>
    <trkpt lat="49.57709112" lon="8.42943195">
    <ele>82</ele>
    <time>2016-07-01T07:48:50Z</time>
    </trkpt>
    <trkpt lat="49.57757139" lon="8.42996084">
    <ele>83</ele>
    <time>2016-07-01T07:49:04Z</time>
    </trkpt>
    <trkpt lat="49.57801362" lon="8.43057445">
    <ele>84</ele>
    <time>2016-07-01T07:49:18Z</time>
    </trkpt>
    <trkpt lat="49.57862889" lon="8.43166695">
    <ele>84</ele>
    <time>2016-07-01T07:49:40Z</time>
    </trkpt>
    <trkpt lat="49.57957556" lon="8.43483">
    <ele>85</ele>
    <time>2016-07-01T07:50:34Z</time>
    </trkpt>
    <trkpt lat="49.58010445" lon="8.43657695">
    <ele>87</ele>
    <time>2016-07-01T07:51:03Z</time>
    </trkpt>
    <trkpt lat="49.58091612" lon="8.43929112">
    <ele>89</ele>
    <time>2016-07-01T07:51:49Z</time>
    </trkpt>
    <trkpt lat="49.58118362" lon="8.44007334">
    <ele>91</ele>
    <time>2016-07-01T07:52:03Z</time>
    </trkpt>
    <trkpt lat="49.58149612" lon="8.44071945">
    <ele>91</ele>
    <time>2016-07-01T07:52:15Z</time>
    </trkpt>
    <trkpt lat="49.58196695" lon="8.44140195">
    <ele>90</ele>
    <time>2016-07-01T07:52:30Z</time>
    </trkpt>
    <trkpt lat="49.58225112" lon="8.44180917">
    <ele>89</ele>
    <time>2016-07-01T07:52:39Z</time>
    </trkpt>
    <trkpt lat="49.58237056" lon="8.44187195">
    <ele>90</ele>
    <time>2016-07-01T07:52:42Z</time>
    </trkpt>
    <trkpt lat="49.58287306" lon="8.44244251">
    <ele>89</ele>
    <time>2016-07-01T07:52:57Z</time>
    </trkpt>
    <trkpt lat="49.58304389" lon="8.44271612">
    <ele>88</ele>
    <time>2016-07-01T07:53:03Z</time>
    </trkpt>
    <trkpt lat="49.58349556" lon="8.44311306">
    <ele>86</ele>
    <time>2016-07-01T07:53:15Z</time>
    </trkpt>
    <trkpt lat="49.58416945" lon="8.44352612">
    <ele>84</ele>
    <time>2016-07-01T07:53:32Z</time>
    </trkpt>
    <trkpt lat="49.58528834" lon="8.44421612">
    <ele>86</ele>
    <time>2016-07-01T07:54:00Z</time>
    </trkpt>
    <trkpt lat="49.58585806" lon="8.44446806">
    <ele>84</ele>
    <time>2016-07-01T07:54:14Z</time>
    </trkpt>
    <trkpt lat="49.58629695" lon="8.44448473">
    <ele>84</ele>
    <time>2016-07-01T07:54:25Z</time>
    </trkpt>
    <trkpt lat="49.58704667" lon="8.44420723">
    <ele>85</ele>
    <time>2016-07-01T07:54:43Z</time>
    </trkpt>
    <trkpt lat="49.58811528" lon="8.44367">
    <ele>85</ele>
    <time>2016-07-01T07:55:09Z</time>
    </trkpt>
    <trkpt lat="49.58898501" lon="8.44337695">
    <ele>86</ele>
    <time>2016-07-01T07:55:30Z</time>
    </trkpt>
    <trkpt lat="49.59005612" lon="8.44330639">
    <ele>82</ele>
    <time>2016-07-01T07:55:56Z</time>
    </trkpt>
    <trkpt lat="49.590315" lon="8.44327306">
    <ele>82</ele>
    <time>2016-07-01T07:56:02Z</time>
    </trkpt>
    <trkpt lat="49.59049112" lon="8.44338251">
    <ele>82</ele>
    <time>2016-07-01T07:56:06Z</time>
    </trkpt>
    <trkpt lat="49.59130334" lon="8.44455667">
    <ele>90</ele>
    <time>2016-07-01T07:56:32Z</time>
    </trkpt>
    <trkpt lat="49.59192056" lon="8.4455525">
    <ele>93</ele>
    <time>2016-07-01T07:56:54Z</time>
    </trkpt>
    <trkpt lat="49.59253806" lon="8.44650667">
    <ele>89</ele>
    <time>2016-07-01T07:57:14Z</time>
    </trkpt>
    <trkpt lat="49.59306528" lon="8.44728778">
    <ele>85</ele>
    <time>2016-07-01T07:57:31Z</time>
    </trkpt>
    <trkpt lat="49.59314445" lon="8.44761639">
    <ele>85</ele>
    <time>2016-07-01T07:57:37Z</time>
    </trkpt>
    <trkpt lat="49.59315251" lon="8.44744834">
    <ele>85</ele>
    <time>2016-07-01T07:57:39Z</time>
    </trkpt>
    <trkpt lat="49.59386278" lon="8.44852389">
    <ele>82</ele>
    <time>2016-07-01T07:58:03Z</time>
    </trkpt>
    <trkpt lat="49.59511973" lon="8.45025501">
    <ele>83</ele>
    <time>2016-07-01T07:58:43Z</time>
    </trkpt>
    <trkpt lat="49.59538362" lon="8.45056639">
    <ele>85</ele>
    <time>2016-07-01T07:58:50Z</time>
    </trkpt>
    <trkpt lat="49.59552084" lon="8.45064723">
    <ele>86</ele>
    <time>2016-07-01T07:58:54Z</time>
    </trkpt>
    <trkpt lat="49.59567612" lon="8.45076445">
    <ele>86</ele>
    <time>2016-07-01T07:58:58Z</time>
    </trkpt>
    <trkpt lat="49.59620723" lon="8.45106973">
    <ele>84</ele>
    <time>2016-07-01T07:59:11Z</time>
    </trkpt>
    <trkpt lat="49.59679806" lon="8.45143834">
    <ele>83</ele>
    <time>2016-07-01T07:59:26Z</time>
    </trkpt>
    <trkpt lat="49.59744862" lon="8.45184306">
    <ele>85</ele>
    <time>2016-07-01T07:59:43Z</time>
    </trkpt>
    <trkpt lat="49.59766362" lon="8.45205112">
    <ele>86</ele>
    <time>2016-07-01T07:59:49Z</time>
    </trkpt>
    <trkpt lat="49.5979975" lon="8.45217556">
    <ele>88</ele>
    <time>2016-07-01T07:59:57Z</time>
    </trkpt>
    <trkpt lat="49.59836778" lon="8.45243695">
    <ele>88</ele>
    <time>2016-07-01T08:00:06Z</time>
    </trkpt>
    <trkpt lat="49.598875" lon="8.45275167">
    <ele>86</ele>
    <time>2016-07-01T08:00:19Z</time>
    </trkpt>
    <trkpt lat="49.59892889" lon="8.45280612">
    <ele>87</ele>
    <time>2016-07-01T08:00:21Z</time>
    </trkpt>
    <trkpt lat="49.59892278" lon="8.45278778">
    <ele>87</ele>
    <time>2016-07-01T08:00:21Z</time>
    </trkpt>
    <trkpt lat="49.59899445" lon="8.45282362">
    <ele>87</ele>
    <time>2016-07-01T08:00:23Z</time>
    </trkpt>
    <trkpt lat="49.59925028" lon="8.45282084">
    <ele>87</ele>
    <time>2016-07-01T08:00:29Z</time>
    </trkpt>
    <trkpt lat="49.59960723" lon="8.45280751">
    <ele>87</ele>
    <time>2016-07-01T08:00:37Z</time>
    </trkpt>
    <trkpt lat="49.59998251" lon="8.452895">
    <ele>87</ele>
    <time>2016-07-01T08:00:46Z</time>
    </trkpt>
    <trkpt lat="49.60042362" lon="8.45308223">
    <ele>87</ele>
    <time>2016-07-01T08:00:57Z</time>
    </trkpt>
    <trkpt lat="49.60122862" lon="8.45323">
    <ele>85</ele>
    <time>2016-07-01T08:01:16Z</time>
    </trkpt>
    <trkpt lat="49.60226389" lon="8.45340973">
    <ele>83</ele>
    <time>2016-07-01T08:01:41Z</time>
    </trkpt>
    <trkpt lat="49.60315528" lon="8.45336223">
    <ele>84</ele>
    <time>2016-07-01T08:02:02Z</time>
    </trkpt>
    <trkpt lat="49.60474584" lon="8.45328639">
    <ele>87</ele>
    <time>2016-07-01T08:02:39Z</time>
    </trkpt>
    <trkpt lat="49.60596389" lon="8.45319417">
    <ele>88</ele>
    <time>2016-07-01T08:03:08Z</time>
    </trkpt>
    <trkpt lat="49.60628612" lon="8.45317084">
    <ele>88</ele>
    <time>2016-07-01T08:03:15Z</time>
    </trkpt>
    <trkpt lat="49.60631473" lon="8.45315362">
    <ele>88</ele>
    <time>2016-07-01T08:03:16Z</time>
    </trkpt>
    <trkpt lat="49.60636806" lon="8.45313473">
    <ele>88</ele>
    <time>2016-07-01T08:03:18Z</time>
    </trkpt>
    <trkpt lat="49.60654612" lon="8.45300473">
    <ele>89</ele>
    <time>2016-07-01T08:03:22Z</time>
    </trkpt>
    <trkpt lat="49.60668917" lon="8.45305806">
    <ele>90</ele>
    <time>2016-07-01T08:03:26Z</time>
    </trkpt>
    <trkpt lat="49.60684528" lon="8.45333084">
    <ele>90</ele>
    <time>2016-07-01T08:03:31Z</time>
    </trkpt>
    <trkpt lat="49.60703001" lon="8.45339306">
    <ele>89</ele>
    <time>2016-07-01T08:03:36Z</time>
    </trkpt>
    <trkpt lat="49.60711917" lon="8.45336445">
    <ele>89</ele>
    <time>2016-07-01T08:03:38Z</time>
    </trkpt>
    <trkpt lat="49.60719528" lon="8.45314389">
    <ele>89</ele>
    <time>2016-07-01T08:03:42Z</time>
    </trkpt>
    <trkpt lat="49.60723584" lon="8.45289612">
    <ele>89</ele>
    <time>2016-07-01T08:03:45Z</time>
    </trkpt>
    <trkpt lat="49.60727723" lon="8.45281334">
    <ele>89</ele>
    <time>2016-07-01T08:03:47Z</time>
    </trkpt>
    <trkpt lat="49.6072825" lon="8.45269417">
    <ele>89</ele>
    <time>2016-07-01T08:03:49Z</time>
    </trkpt>
    <trkpt lat="49.60735778" lon="8.45227223">
    <ele>89</ele>
    <time>2016-07-01T08:03:56Z</time>
    </trkpt>
    <trkpt lat="49.60758167" lon="8.45180278">
    <ele>87</ele>
    <time>2016-07-01T08:04:05Z</time>
    </trkpt>
    <trkpt lat="49.60816084" lon="8.45095389">
    <ele>85</ele>
    <time>2016-07-01T08:04:23Z</time>
    </trkpt>
    <trkpt lat="49.60907334" lon="8.44961112">
    <ele>85</ele>
    <time>2016-07-01T08:04:53Z</time>
    </trkpt>
    <trkpt lat="49.61010223" lon="8.44822945">
    <ele>86</ele>
    <time>2016-07-01T08:05:25Z</time>
    </trkpt>
    <trkpt lat="49.61077973" lon="8.44712195">
    <ele>90</ele>
    <time>2016-07-01T08:05:49Z</time>
    </trkpt>
    <trkpt lat="49.61158723" lon="8.44573223">
    <ele>90</ele>
    <time>2016-07-01T08:06:17Z</time>
    </trkpt>
    <trkpt lat="49.61244917" lon="8.44433056">
    <ele>90</ele>
    <time>2016-07-01T08:06:47Z</time>
    </trkpt>
    <trkpt lat="49.61307528" lon="8.44328528">
    <ele>87</ele>
    <time>2016-07-01T08:07:08Z</time>
    </trkpt>
    <trkpt lat="49.61429334" lon="8.44126945">
    <ele>85</ele>
    <time>2016-07-01T08:07:50Z</time>
    </trkpt>
    <trkpt lat="49.61549556" lon="8.43936889">
    <ele>85</ele>
    <time>2016-07-01T08:08:31Z</time>
    </trkpt>
    <trkpt lat="49.61621889" lon="8.43817862">
    <ele>86</ele>
    <time>2016-07-01T08:08:56Z</time>
    </trkpt>
    <trkpt lat="49.61702473" lon="8.43689695">
    <ele>89</ele>
    <time>2016-07-01T08:09:23Z</time>
    </trkpt>
    <trkpt lat="49.61730223" lon="8.43647251">
    <ele>89</ele>
    <time>2016-07-01T08:09:32Z</time>
    </trkpt>
    <trkpt lat="49.61750389" lon="8.43634195">
    <ele>89</ele>
    <time>2016-07-01T08:09:38Z</time>
    </trkpt>
    <trkpt lat="49.61772389" lon="8.43626612">
    <ele>89</ele>
    <time>2016-07-01T08:09:43Z</time>
    </trkpt>
    <trkpt lat="49.61794334" lon="8.43612639">
    <ele>90</ele>
    <time>2016-07-01T08:09:49Z</time>
    </trkpt>
    <trkpt lat="49.61804889" lon="8.43582278">
    <ele>90</ele>
    <time>2016-07-01T08:09:54Z</time>
    </trkpt>
    <trkpt lat="49.61822028" lon="8.43557362">
    <ele>90</ele>
    <time>2016-07-01T08:09:59Z</time>
    </trkpt>
    <trkpt lat="49.61830917" lon="8.43548112">
    <ele>90</ele>
    <time>2016-07-01T08:10:02Z</time>
    </trkpt>
    <trkpt lat="49.61830889" lon="8.43545362">
    <ele>90</ele>
    <time>2016-07-01T08:10:02Z</time>
    </trkpt>
    <trkpt lat="49.61838528" lon="8.43523278">
    <ele>91</ele>
    <time>2016-07-01T08:10:06Z</time>
    </trkpt>
    <trkpt lat="49.61863278" lon="8.43473556">
    <ele>91</ele>
    <time>2016-07-01T08:10:16Z</time>
    </trkpt>
    <trkpt lat="49.61890945" lon="8.43410945">
    <ele>91</ele>
    <time>2016-07-01T08:10:27Z</time>
    </trkpt>
    <trkpt lat="49.61902639" lon="8.43372334">
    <ele>92</ele>
    <time>2016-07-01T08:10:34Z</time>
    </trkpt>
    <trkpt lat="49.61904278" lon="8.43341195">
    <ele>91</ele>
    <time>2016-07-01T08:10:39Z</time>
    </trkpt>
    <trkpt lat="49.61896389" lon="8.43308306">
    <ele>90</ele>
    <time>2016-07-01T08:10:44Z</time>
    </trkpt>
    <trkpt lat="49.61882612" lon="8.43294723">
    <ele>88</ele>
    <time>2016-07-01T08:10:48Z</time>
    </trkpt>
    <trkpt lat="49.61863556" lon="8.43291278">
    <ele>87</ele>
    <time>2016-07-01T08:10:52Z</time>
    </trkpt>
    <trkpt lat="49.61851112" lon="8.4329875">
    <ele>87</ele>
    <time>2016-07-01T08:10:55Z</time>
    </trkpt>
    <trkpt lat="49.61838028" lon="8.43300751">
    <ele>86</ele>
    <time>2016-07-01T08:10:59Z</time>
    </trkpt>
    <trkpt lat="49.61817917" lon="8.43326612">
    <ele>86</ele>
    <time>2016-07-01T08:11:05Z</time>
    </trkpt>
    <trkpt lat="49.61772389" lon="8.43383001">
    <ele>85</ele>
    <time>2016-07-01T08:11:18Z</time>
    </trkpt>
    <trkpt lat="49.61748167" lon="8.43417167">
    <ele>86</ele>
    <time>2016-07-01T08:11:26Z</time>
    </trkpt>
    <trkpt lat="49.6173575" lon="8.43429112">
    <ele>86</ele>
    <time>2016-07-01T08:11:30Z</time>
    </trkpt>
    <trkpt lat="49.61722945" lon="8.43395306">
    <ele>86</ele>
    <time>2016-07-01T08:11:36Z</time>
    </trkpt>
    <trkpt lat="49.616425" lon="8.43141056">
    <ele>88</ele>
    <time>2016-07-01T08:12:19Z</time>
    </trkpt>
    <trkpt lat="49.61643306" lon="8.43146389">
    <ele>88</ele>
    <time>2016-07-01T08:12:20Z</time>
    </trkpt>
    <trkpt lat="49.61666973" lon="8.43120473">
    <ele>85</ele>
    <time>2016-07-01T08:12:27Z</time>
    </trkpt>
    <trkpt lat="49.61719667" lon="8.43070417">
    <ele>83</ele>
    <time>2016-07-01T08:12:41Z</time>
    </trkpt>
    <trkpt lat="49.61752334" lon="8.43054445">
    <ele>83</ele>
    <time>2016-07-01T08:12:49Z</time>
    </trkpt>
    <trkpt lat="49.6179625" lon="8.43034695">
    <ele>83</ele>
    <time>2016-07-01T08:13:00Z</time>
    </trkpt>
    <trkpt lat="49.61841389" lon="8.43015862">
    <ele>84</ele>
    <time>2016-07-01T08:13:11Z</time>
    </trkpt>
    <trkpt lat="49.61917389" lon="8.42983834">
    <ele>84</ele>
    <time>2016-07-01T08:13:30Z</time>
    </trkpt>
    <trkpt lat="49.619465" lon="8.42973417">
    <ele>84</ele>
    <time>2016-07-01T08:13:37Z</time>
    </trkpt>
    <trkpt lat="49.61946417" lon="8.42957862">
    <ele>85</ele>
    <time>2016-07-01T08:13:39Z</time>
    </trkpt>
    <trkpt lat="49.61933778" lon="8.42927778">
    <ele>85</ele>
    <time>2016-07-01T08:13:44Z</time>
    </trkpt>
    <trkpt lat="49.61914473" lon="8.42875806">
    <ele>85</ele>
    <time>2016-07-01T08:13:54Z</time>
    </trkpt>
    <trkpt lat="49.61895167" lon="8.42817417">
    <ele>84</ele>
    <time>2016-07-01T08:14:04Z</time>
    </trkpt>
    <trkpt lat="49.61890334" lon="8.42802806">
    <ele>84</ele>
    <time>2016-07-01T08:14:06Z</time>
    </trkpt>
    <trkpt lat="49.61878389" lon="8.42675667">
    <ele>86</ele>
    <time>2016-07-01T08:14:26Z</time>
    </trkpt>
    <trkpt lat="49.61865889" lon="8.42554">
    <ele>85</ele>
    <time>2016-07-01T08:14:45Z</time>
    </trkpt>
    <trkpt lat="49.61858195" lon="8.42441417">
    <ele>84</ele>
    <time>2016-07-01T08:15:02Z</time>
    </trkpt>
    <trkpt lat="49.61856167" lon="8.42321501">
    <ele>85</ele>
    <time>2016-07-01T08:15:20Z</time>
    </trkpt>
    <trkpt lat="49.61865806" lon="8.42144612">
    <ele>85</ele>
    <time>2016-07-01T08:15:47Z</time>
    </trkpt>
    <trkpt lat="49.61891862" lon="8.41911639">
    <ele>85</ele>
    <time>2016-07-01T08:16:24Z</time>
    </trkpt>
    <trkpt lat="49.61922334" lon="8.416075">
    <ele>87</ele>
    <time>2016-07-01T08:17:11Z</time>
    </trkpt>
    <trkpt lat="49.61950973" lon="8.41300445">
    <ele>82</ele>
    <time>2016-07-01T08:17:58Z</time>
    </trkpt>
    <trkpt lat="49.61960195" lon="8.41191889">
    <ele>82</ele>
    <time>2016-07-01T08:18:15Z</time>
    </trkpt>
    <trkpt lat="49.61964056" lon="8.41094556">
    <ele>83</ele>
    <time>2016-07-01T08:18:30Z</time>
    </trkpt>
    <trkpt lat="49.61967084" lon="8.40906973">
    <ele>86</ele>
    <time>2016-07-01T08:18:59Z</time>
    </trkpt>
    <trkpt lat="49.61972445" lon="8.40863139">
    <ele>85</ele>
    <time>2016-07-01T08:19:05Z</time>
    </trkpt>
    <trkpt lat="49.61989973" lon="8.40844501">
    <ele>84</ele>
    <time>2016-07-01T08:19:10Z</time>
    </trkpt>
    <trkpt lat="49.62110639" lon="8.40746612">
    <ele>87</ele>
    <time>2016-07-01T08:19:43Z</time>
    </trkpt>
    <trkpt lat="49.62327528" lon="8.40572334">
    <ele>83</ele>
    <time>2016-07-01T08:20:40Z</time>
    </trkpt>
    <trkpt lat="49.62480195" lon="8.40461417">
    <ele>84</ele>
    <time>2016-07-01T08:21:20Z</time>
    </trkpt>
    <trkpt lat="49.62561056" lon="8.40416445">
    <ele>84</ele>
    <time>2016-07-01T08:21:40Z</time>
    </trkpt>
    <trkpt lat="49.62754306" lon="8.40334639">
    <ele>82</ele>
    <time>2016-07-01T08:22:27Z</time>
    </trkpt>
    <trkpt lat="49.6280125" lon="8.40316112">
    <ele>81</ele>
    <time>2016-07-01T08:22:39Z</time>
    </trkpt>
    <trkpt lat="49.62970612" lon="8.402235">
    <ele>81</ele>
    <time>2016-07-01T08:23:21Z</time>
    </trkpt>
    <trkpt lat="49.62991389" lon="8.40202723">
    <ele>82</ele>
    <time>2016-07-01T08:23:27Z</time>
    </trkpt>
    <trkpt lat="49.63070417" lon="8.40082695">
    <ele>84</ele>
    <time>2016-07-01T08:23:53Z</time>
    </trkpt>
    <trkpt lat="49.63115584" lon="8.39997139">
    <ele>84</ele>
    <time>2016-07-01T08:24:10Z</time>
    </trkpt>
    <trkpt lat="49.63147362" lon="8.39932612">
    <ele>84</ele>
    <time>2016-07-01T08:24:22Z</time>
    </trkpt>
    <trkpt lat="49.63165001" lon="8.39892084">
    <ele>83</ele>
    <time>2016-07-01T08:24:30Z</time>
    </trkpt>
    <trkpt lat="49.63176139" lon="8.39858056">
    <ele>83</ele>
    <time>2016-07-01T08:24:36Z</time>
    </trkpt>
    <trkpt lat="49.63197278" lon="8.3980375">
    <ele>82</ele>
    <time>2016-07-01T08:24:45Z</time>
    </trkpt>
    <trkpt lat="49.63250862" lon="8.39696834">
    <ele>83</ele>
    <time>2016-07-01T08:25:06Z</time>
    </trkpt>
    <trkpt lat="49.63297973" lon="8.39600056">
    <ele>82</ele>
    <time>2016-07-01T08:25:24Z</time>
    </trkpt>
    <trkpt lat="49.63353306" lon="8.39489417">
    <ele>84</ele>
    <time>2016-07-01T08:25:46Z</time>
    </trkpt>
    <trkpt lat="49.63405112" lon="8.39384334">
    <ele>85</ele>
    <time>2016-07-01T08:26:06Z</time>
    </trkpt>
    <trkpt lat="49.63406889" lon="8.39381584">
    <ele>85</ele>
    <time>2016-07-01T08:26:07Z</time>
    </trkpt>
    <trkpt lat="49.63394695" lon="8.39325834">
    <ele>83</ele>
    <time>2016-07-01T08:26:16Z</time>
    </trkpt>
    <trkpt lat="49.63401723" lon="8.39301028">
    <ele>82</ele>
    <time>2016-07-01T08:26:20Z</time>
    </trkpt>
    <trkpt lat="49.63426473" lon="8.39256723">
    <ele>83</ele>
    <time>2016-07-01T08:26:29Z</time>
    </trkpt>
    <trkpt lat="49.63436834" lon="8.39239223">
    <ele>82</ele>
    <time>2016-07-01T08:26:32Z</time>
    </trkpt>
    <trkpt lat="49.63448112" lon="8.39235945">
    <ele>83</ele>
    <time>2016-07-01T08:26:35Z</time>
    </trkpt>
    <trkpt lat="49.63454389" lon="8.39247223">
    <ele>83</ele>
    <time>2016-07-01T08:26:37Z</time>
    </trkpt>
    <trkpt lat="49.63463862" lon="8.39242556">
    <ele>84</ele>
    <time>2016-07-01T08:26:40Z</time>
    </trkpt>
    <trkpt lat="49.63465139" lon="8.39242056">
    <ele>84</ele>
    <time>2016-07-01T08:26:40Z</time>
    </trkpt>
    <trkpt lat="49.63487639" lon="8.39220056">
    <ele>84</ele>
    <time>2016-07-01T08:26:46Z</time>
    </trkpt>
    <trkpt lat="49.63541362" lon="8.39121528">
    <ele>84</ele>
    <time>2016-07-01T08:27:06Z</time>
    </trkpt>
    <trkpt lat="49.63542389" lon="8.39120612">
    <ele>84</ele>
    <time>2016-07-01T08:27:06Z</time>
    </trkpt>
    <trkpt lat="49.63649584" lon="8.38912223">
    <ele>83</ele>
    <time>2016-07-01T08:27:47Z</time>
    </trkpt>
    <trkpt lat="49.63777056" lon="8.38651">
    <ele>81</ele>
    <time>2016-07-01T08:28:37Z</time>
    </trkpt>
    <trkpt lat="49.63812862" lon="8.38586306">
    <ele>82</ele>
    <time>2016-07-01T08:28:50Z</time>
    </trkpt>
    <trkpt lat="49.63814473" lon="8.38590389">
    <ele>82</ele>
    <time>2016-07-01T08:28:51Z</time>
    </trkpt>
    <trkpt lat="49.63896473" lon="8.38569195">
    <ele>80</ele>
    <time>2016-07-01T08:29:10Z</time>
    </trkpt>
    <trkpt lat="49.64007028" lon="8.38545834">
    <ele>79</ele>
    <time>2016-07-01T08:29:36Z</time>
    </trkpt>
    <trkpt lat="49.6405025" lon="8.38534612">
    <ele>81</ele>
    <time>2016-07-01T08:29:47Z</time>
    </trkpt>
    <trkpt lat="49.64085528" lon="8.38471195">
    <ele>85</ele>
    <time>2016-07-01T08:29:59Z</time>
    </trkpt>
    <trkpt lat="49.64121167" lon="8.38411528">
    <ele>85</ele>
    <time>2016-07-01T08:30:12Z</time>
    </trkpt>
    <trkpt lat="49.64120945" lon="8.38410278">
    <ele>85</ele>
    <time>2016-07-01T08:30:12Z</time>
    </trkpt>
    <trkpt lat="49.64260195" lon="8.38596695">
    <ele>80</ele>
    <time>2016-07-01T08:30:56Z</time>
    </trkpt>
    <trkpt lat="49.64398362" lon="8.38780278">
    <ele>80</ele>
    <time>2016-07-01T08:31:38Z</time>
    </trkpt>
    <trkpt lat="49.64401889" lon="8.38782112">
    <ele>81</ele>
    <time>2016-07-01T08:31:39Z</time>
    </trkpt>
    <trkpt lat="49.64512473" lon="8.38594445">
    <ele>77</ele>
    <time>2016-07-01T08:32:18Z</time>
    </trkpt>
    <trkpt lat="49.64564306" lon="8.3850375">
    <ele>80</ele>
    <time>2016-07-01T08:32:37Z</time>
    </trkpt>
    <trkpt lat="49.64604445" lon="8.38435667">
    <ele>84</ele>
    <time>2016-07-01T08:32:51Z</time>
    </trkpt>
    <trkpt lat="49.64616834" lon="8.3842325">
    <ele>85</ele>
    <time>2016-07-01T08:32:54Z</time>
    </trkpt>
    <trkpt lat="49.64665195" lon="8.38426306">
    <ele>83</ele>
    <time>2016-07-01T08:33:06Z</time>
    </trkpt>
    <trkpt lat="49.6484075" lon="8.38448278">
    <ele>74</ele>
    <time>2016-07-01T08:33:47Z</time>
    </trkpt>
    <trkpt lat="49.64927723" lon="8.38461028">
    <ele>73</ele>
    <time>2016-07-01T08:34:08Z</time>
    </trkpt>
    <trkpt lat="49.64947334" lon="8.38461584">
    <ele>70</ele>
    <time>2016-07-01T08:34:12Z</time>
    </trkpt>
    <trkpt lat="49.65019889" lon="8.38454251">
    <ele>78</ele>
    <time>2016-07-01T08:34:29Z</time>
    </trkpt>
    <trkpt lat="49.65138306" lon="8.38453667">
    <ele>82</ele>
    <time>2016-07-01T08:34:57Z</time>
    </trkpt>
    <trkpt lat="49.651365" lon="8.38452528">
    <ele>82</ele>
    <time>2016-07-01T08:34:58Z</time>
    </trkpt>
    <trkpt lat="49.65200473" lon="8.38450889">
    <ele>84</ele>
    <time>2016-07-01T08:35:13Z</time>
    </trkpt>
    <trkpt lat="49.65193028" lon="8.38453">
    <ele>84</ele>
    <time>2016-07-01T08:35:15Z</time>
    </trkpt>
    <trkpt lat="49.65240667" lon="8.38461556">
    <ele>82</ele>
    <time>2016-07-01T08:35:26Z</time>
    </trkpt>
    <trkpt lat="49.65283695" lon="8.38493084">
    <ele>83</ele>
    <time>2016-07-01T08:35:37Z</time>
    </trkpt>
    <trkpt lat="49.65357167" lon="8.38548056">
    <ele>89</ele>
    <time>2016-07-01T08:35:56Z</time>
    </trkpt>
    <trkpt lat="49.65479028" lon="8.38636362">
    <ele>104</ele>
    <time>2016-07-01T08:36:28Z</time>
    </trkpt>
    <trkpt lat="49.65568167" lon="8.38703389">
    <ele>85</ele>
    <time>2016-07-01T08:36:51Z</time>
    </trkpt>
    <trkpt lat="49.65705862" lon="8.38812028">
    <ele>80</ele>
    <time>2016-07-01T08:37:28Z</time>
    </trkpt>
    <trkpt lat="49.65734723" lon="8.38833862">
    <ele>79</ele>
    <time>2016-07-01T08:37:35Z</time>
    </trkpt>
    <trkpt lat="49.65787001" lon="8.38837889">
    <ele>80</ele>
    <time>2016-07-01T08:37:48Z</time>
    </trkpt>
    <trkpt lat="49.65945473" lon="8.38851389">
    <ele>86</ele>
    <time>2016-07-01T08:38:25Z</time>
    </trkpt>
    <trkpt lat="49.66047556" lon="8.38862056">
    <ele>84</ele>
    <time>2016-07-01T08:38:49Z</time>
    </trkpt>
    <trkpt lat="49.66076445" lon="8.38866251">
    <ele>82</ele>
    <time>2016-07-01T08:38:56Z</time>
    </trkpt>
    <trkpt lat="49.6611275" lon="8.38875751">
    <ele>80</ele>
    <time>2016-07-01T08:39:05Z</time>
    </trkpt>
    <trkpt lat="49.66169417" lon="8.38889834">
    <ele>80</ele>
    <time>2016-07-01T08:39:18Z</time>
    </trkpt>
    <trkpt lat="49.66169417" lon="8.38889834">
    <ele>80</ele>
    <time>2016-07-01T08:39:18Z</time>
    </trkpt>
    <trkpt lat="49.66280917" lon="8.38937945">
    <ele>80</ele>
    <time>2016-07-01T08:39:45Z</time>
    </trkpt>
    <trkpt lat="49.66346501" lon="8.38960945">
    <ele>80</ele>
    <time>2016-07-01T08:40:01Z</time>
    </trkpt>
    <trkpt lat="49.66414445" lon="8.38983945">
    <ele>81</ele>
    <time>2016-07-01T08:40:18Z</time>
    </trkpt>
    <trkpt lat="49.66476445" lon="8.3900425">
    <ele>85</ele>
    <time>2016-07-01T08:40:33Z</time>
    </trkpt>
    <trkpt lat="49.66477639" lon="8.39004223">
    <ele>85</ele>
    <time>2016-07-01T08:40:33Z</time>
    </trkpt>
    <trkpt lat="49.66505223" lon="8.38936056">
    <ele>87</ele>
    <time>2016-07-01T08:40:45Z</time>
    </trkpt>
    <trkpt lat="49.66542223" lon="8.38843">
    <ele>87</ele>
    <time>2016-07-01T08:41:02Z</time>
    </trkpt>
    <trkpt lat="49.66598" lon="8.38700195">
    <ele>90</ele>
    <time>2016-07-01T08:41:27Z</time>
    </trkpt>
    <trkpt lat="49.66640862" lon="8.38589639">
    <ele>97</ele>
    <time>2016-07-01T08:41:47Z</time>
    </trkpt>
    <trkpt lat="49.66681306" lon="8.38478223">
    <ele>86</ele>
    <time>2016-07-01T08:42:07Z</time>
    </trkpt>
    <trkpt lat="49.66703389" lon="8.38442889">
    <ele>82</ele>
    <time>2016-07-01T08:42:14Z</time>
    </trkpt>
    <trkpt lat="49.66832001" lon="8.38276223">
    <ele>79</ele>
    <time>2016-07-01T08:42:54Z</time>
    </trkpt>
    <trkpt lat="49.67000362" lon="8.38072028">
    <ele>80</ele>
    <time>2016-07-01T08:43:44Z</time>
    </trkpt>
    <trkpt lat="49.67145889" lon="8.37892001">
    <ele>82</ele>
    <time>2016-07-01T08:44:28Z</time>
    </trkpt>
    <trkpt lat="49.6718525" lon="8.37855806">
    <ele>87</ele>
    <time>2016-07-01T08:44:39Z</time>
    </trkpt>
    <trkpt lat="49.67212389" lon="8.37865473">
    <ele>93</ele>
    <time>2016-07-01T08:44:45Z</time>
    </trkpt>
    <trkpt lat="49.67212389" lon="8.37865473">
    <ele>93</ele>
    <time>2016-07-01T08:44:45Z</time>
    </trkpt>
    <trkpt lat="49.67250945" lon="8.37879139">
    <ele>96</ele>
    <time>2016-07-01T08:44:55Z</time>
    </trkpt>
    <trkpt lat="49.67273417" lon="8.37817945">
    <ele>94</ele>
    <time>2016-07-01T08:45:05Z</time>
    </trkpt>
    <trkpt lat="49.67295306" lon="8.37754251">
    <ele>91</ele>
    <time>2016-07-01T08:45:16Z</time>
    </trkpt>
    <trkpt lat="49.67252889" lon="8.37700528">
    <ele>87</ele>
    <time>2016-07-01T08:45:29Z</time>
    </trkpt>
    <trkpt lat="49.67248917" lon="8.37688973">
    <ele>84</ele>
    <time>2016-07-01T08:45:31Z</time>
    </trkpt>
    <trkpt lat="49.67275945" lon="8.37618028">
    <ele>82</ele>
    <time>2016-07-01T08:45:44Z</time>
    </trkpt>
    <trkpt lat="49.67292639" lon="8.37569973">
    <ele>80</ele>
    <time>2016-07-01T08:45:52Z</time>
    </trkpt>
    <trkpt lat="49.67331695" lon="8.37533334">
    <ele>81</ele>
    <time>2016-07-01T08:46:03Z</time>
    </trkpt>
    <trkpt lat="49.67363556" lon="8.37466056">
    <ele>81</ele>
    <time>2016-07-01T08:46:16Z</time>
    </trkpt>
    <trkpt lat="49.6738875" lon="8.37411251">
    <ele>81</ele>
    <time>2016-07-01T08:46:26Z</time>
    </trkpt>
    <trkpt lat="49.67439362" lon="8.37344778">
    <ele>83</ele>
    <time>2016-07-01T08:46:42Z</time>
    </trkpt>
    <trkpt lat="49.67484723" lon="8.37280667">
    <ele>87</ele>
    <time>2016-07-01T08:46:56Z</time>
    </trkpt>
    <trkpt lat="49.67517723" lon="8.37225139">
    <ele>86</ele>
    <time>2016-07-01T08:47:08Z</time>
    </trkpt>
    <trkpt lat="49.67633945" lon="8.37147639">
    <ele>85</ele>
    <time>2016-07-01T08:47:37Z</time>
    </trkpt>
    <trkpt lat="49.67727695" lon="8.37089417">
    <ele>85</ele>
    <time>2016-07-01T08:48:01Z</time>
    </trkpt>
    <trkpt lat="49.67845084" lon="8.37019306">
    <ele>79</ele>
    <time>2016-07-01T08:48:31Z</time>
    </trkpt>
    <trkpt lat="49.67922695" lon="8.36969889">
    <ele>78</ele>
    <time>2016-07-01T08:48:51Z</time>
    </trkpt>
    <trkpt lat="49.67955778" lon="8.36927501">
    <ele>79</ele>
    <time>2016-07-01T08:49:01Z</time>
    </trkpt>
    <trkpt lat="49.68031445" lon="8.36820639">
    <ele>78</ele>
    <time>2016-07-01T08:49:25Z</time>
    </trkpt>
    <trkpt lat="49.68084584" lon="8.36746584">
    <ele>79</ele>
    <time>2016-07-01T08:49:42Z</time>
    </trkpt>
    <trkpt lat="49.68127056" lon="8.36680028">
    <ele>79</ele>
    <time>2016-07-01T08:49:56Z</time>
    </trkpt>
    <trkpt lat="49.68147945" lon="8.36644417">
    <ele>81</ele>
    <time>2016-07-01T08:50:03Z</time>
    </trkpt>
    <trkpt lat="49.68174917" lon="8.36613362">
    <ele>85</ele>
    <time>2016-07-01T08:50:11Z</time>
    </trkpt>
    <trkpt lat="49.68197362" lon="8.36587389">
    <ele>88</ele>
    <time>2016-07-01T08:50:18Z</time>
    </trkpt>
    <trkpt lat="49.68210445" lon="8.36585389">
    <ele>88</ele>
    <time>2016-07-01T08:50:21Z</time>
    </trkpt>
    <trkpt lat="49.68220028" lon="8.36596278">
    <ele>88</ele>
    <time>2016-07-01T08:50:24Z</time>
    </trkpt>
    <trkpt lat="49.68223667" lon="8.36609056">
    <ele>88</ele>
    <time>2016-07-01T08:50:26Z</time>
    </trkpt>
    <trkpt lat="49.68233251" lon="8.36618112">
    <ele>88</ele>
    <time>2016-07-01T08:50:29Z</time>
    </trkpt>
    <trkpt lat="49.68243945" lon="8.36618889">
    <ele>88</ele>
    <time>2016-07-01T08:50:31Z</time>
    </trkpt>
    <trkpt lat="49.6824575" lon="8.36618862">
    <ele>88</ele>
    <time>2016-07-01T08:50:32Z</time>
    </trkpt>
    <trkpt lat="49.68254612" lon="8.36609584">
    <ele>90</ele>
    <time>2016-07-01T08:50:34Z</time>
    </trkpt>
    <trkpt lat="49.68258084" lon="8.36590278">
    <ele>91</ele>
    <time>2016-07-01T08:50:37Z</time>
    </trkpt>
    <trkpt lat="49.68253834" lon="8.36573834">
    <ele>91</ele>
    <time>2016-07-01T08:50:40Z</time>
    </trkpt>
    <trkpt lat="49.68254362" lon="8.36560973">
    <ele>91</ele>
    <time>2016-07-01T08:50:42Z</time>
    </trkpt>
    <trkpt lat="49.68257806" lon="8.36538917">
    <ele>93</ele>
    <time>2016-07-01T08:50:45Z</time>
    </trkpt>
    <trkpt lat="49.68258862" lon="8.36515973">
    <ele>95</ele>
    <time>2016-07-01T08:50:49Z</time>
    </trkpt>
    <trkpt lat="49.68256862" lon="8.364775">
    <ele>97</ele>
    <time>2016-07-01T08:50:55Z</time>
    </trkpt>
    <trkpt lat="49.68258556" lon="8.36460973">
    <ele>94</ele>
    <time>2016-07-01T08:50:57Z</time>
    </trkpt>
    <trkpt lat="49.68265084" lon="8.36455389">
    <ele>94</ele>
    <time>2016-07-01T08:50:59Z</time>
    </trkpt>
    <trkpt lat="49.68300028" lon="8.3642925">
    <ele>90</ele>
    <time>2016-07-01T08:51:08Z</time>
    </trkpt>
    <trkpt lat="49.68365195" lon="8.36382056">
    <ele>81</ele>
    <time>2016-07-01T08:51:25Z</time>
    </trkpt>
    <trkpt lat="49.68463556" lon="8.36318556">
    <ele>79</ele>
    <time>2016-07-01T08:51:50Z</time>
    </trkpt>
    <trkpt lat="49.68555584" lon="8.36262667">
    <ele>74</ele>
    <time>2016-07-01T08:52:14Z</time>
    </trkpt>
    <trkpt lat="49.68597112" lon="8.36240112">
    <ele>72</ele>
    <time>2016-07-01T08:52:24Z</time>
    </trkpt>
    <trkpt lat="49.68622028" lon="8.36229695">
    <ele>73</ele>
    <time>2016-07-01T08:52:30Z</time>
    </trkpt>
    <trkpt lat="49.68638084" lon="8.36225806">
    <ele>73</ele>
    <time>2016-07-01T08:52:34Z</time>
    </trkpt>
    <trkpt lat="49.68668973" lon="8.36215334">
    <ele>76</ele>
    <time>2016-07-01T08:52:41Z</time>
    </trkpt>
    <trkpt lat="49.6870225" lon="8.36205723">
    <ele>79</ele>
    <time>2016-07-01T08:52:49Z</time>
    </trkpt>
    <trkpt lat="49.68706889" lon="8.36205862">
    <ele>80</ele>
    <time>2016-07-01T08:52:50Z</time>
    </trkpt>
    <trkpt lat="49.68831167" lon="8.36202028">
    <ele>86</ele>
    <time>2016-07-01T08:53:20Z</time>
    </trkpt>
    <trkpt lat="49.68917084" lon="8.36215751">
    <ele>84</ele>
    <time>2016-07-01T08:53:40Z</time>
    </trkpt>
    <trkpt lat="49.69024917" lon="8.36233751">
    <ele>94</ele>
    <time>2016-07-01T08:54:06Z</time>
    </trkpt>
    <trkpt lat="49.69098695" lon="8.36264056">
    <ele>105</ele>
    <time>2016-07-01T08:54:24Z</time>
    </trkpt>
    <trkpt lat="49.69187501" lon="8.36321806">
    <ele>94</ele>
    <time>2016-07-01T08:54:46Z</time>
    </trkpt>
    <trkpt lat="49.69226112" lon="8.36358473">
    <ele>96</ele>
    <time>2016-07-01T08:54:57Z</time>
    </trkpt>
    <trkpt lat="49.69282334" lon="8.36410917">
    <ele>91</ele>
    <time>2016-07-01T08:55:12Z</time>
    </trkpt>
    <trkpt lat="49.69348723" lon="8.36473362">
    <ele>91</ele>
    <time>2016-07-01T08:55:31Z</time>
    </trkpt>
    <trkpt lat="49.69397139" lon="8.36516751">
    <ele>90</ele>
    <time>2016-07-01T08:55:44Z</time>
    </trkpt>
    <trkpt lat="49.69410973" lon="8.36543167">
    <ele>89</ele>
    <time>2016-07-01T08:55:49Z</time>
    </trkpt>
    <trkpt lat="49.69431973" lon="8.36572251">
    <ele>88</ele>
    <time>2016-07-01T08:55:56Z</time>
    </trkpt>
    <trkpt lat="49.69431362" lon="8.36569501">
    <ele>88</ele>
    <time>2016-07-01T08:55:56Z</time>
    </trkpt>
    <trkpt lat="49.69449278" lon="8.36583028">
    <ele>91</ele>
    <time>2016-07-01T08:56:01Z</time>
    </trkpt>
    <trkpt lat="49.6947075" lon="8.36590084">
    <ele>92</ele>
    <time>2016-07-01T08:56:06Z</time>
    </trkpt>
    <trkpt lat="49.69493334" lon="8.36587056">
    <ele>95</ele>
    <time>2016-07-01T08:56:11Z</time>
    </trkpt>
    <trkpt lat="49.69531389" lon="8.36584723">
    <ele>95</ele>
    <time>2016-07-01T08:56:20Z</time>
    </trkpt>
    <trkpt lat="49.69551639" lon="8.36586278">
    <ele>95</ele>
    <time>2016-07-01T08:56:25Z</time>
    </trkpt>
    <trkpt lat="49.69563612" lon="8.36600806">
    <ele>97</ele>
    <time>2016-07-01T08:56:29Z</time>
    </trkpt>
    <trkpt lat="49.69602723" lon="8.36653723">
    <ele>105</ele>
    <time>2016-07-01T08:56:41Z</time>
    </trkpt>
    <trkpt lat="49.69750556" lon="8.36845723">
    <ele>119</ele>
    <time>2016-07-01T08:57:26Z</time>
    </trkpt>
    <trkpt lat="49.69898639" lon="8.37042278">
    <ele>115</ele>
    <time>2016-07-01T08:58:12Z</time>
    </trkpt>
    <trkpt lat="49.69973556" lon="8.37151584">
    <ele>107</ele>
    <time>2016-07-01T08:58:37Z</time>
    </trkpt>
    <trkpt lat="49.69976417" lon="8.37182306">
    <ele>109</ele>
    <time>2016-07-01T08:58:41Z</time>
    </trkpt>
    <trkpt lat="49.69979834" lon="8.37198112">
    <ele>110</ele>
    <time>2016-07-01T08:58:44Z</time>
    </trkpt>
    <trkpt lat="49.69989362" lon="8.37202584">
    <ele>109</ele>
    <time>2016-07-01T08:58:46Z</time>
    </trkpt>
    <trkpt lat="49.70005362" lon="8.37201612">
    <ele>107</ele>
    <time>2016-07-01T08:58:50Z</time>
    </trkpt>
    <trkpt lat="49.70019806" lon="8.37219612">
    <ele>106</ele>
    <time>2016-07-01T08:58:55Z</time>
    </trkpt>
    <trkpt lat="49.70053751" lon="8.37272139">
    <ele>106</ele>
    <time>2016-07-01T08:59:06Z</time>
    </trkpt>
    <trkpt lat="49.70118917" lon="8.37393556">
    <ele>110</ele>
    <time>2016-07-01T08:59:30Z</time>
    </trkpt>
    <trkpt lat="49.70183973" lon="8.37510556">
    <ele>108</ele>
    <time>2016-07-01T08:59:53Z</time>
    </trkpt>
    <trkpt lat="49.70186334" lon="8.37534">
    <ele>108</ele>
    <time>2016-07-01T08:59:57Z</time>
    </trkpt>
    <trkpt lat="49.70193528" lon="8.37551167">
    <ele>107</ele>
    <time>2016-07-01T09:00:00Z</time>
    </trkpt>
    <trkpt lat="49.70207084" lon="8.37559084">
    <ele>106</ele>
    <time>2016-07-01T09:00:04Z</time>
    </trkpt>
    <trkpt lat="49.70230334" lon="8.37642584">
    <ele>102</ele>
    <time>2016-07-01T09:00:17Z</time>
    </trkpt>
    <trkpt lat="49.70274056" lon="8.37803528">
    <ele>103</ele>
    <time>2016-07-01T09:00:44Z</time>
    </trkpt>
    <trkpt lat="49.70300528" lon="8.37945945">
    <ele>99</ele>
    <time>2016-07-01T09:01:07Z</time>
    </trkpt>
    <trkpt lat="49.70292834" lon="8.3798125">
    <ele>101</ele>
    <time>2016-07-01T09:01:12Z</time>
    </trkpt>
    <trkpt lat="49.70292056" lon="8.37998751">
    <ele>102</ele>
    <time>2016-07-01T09:01:15Z</time>
    </trkpt>
    <trkpt lat="49.70308473" lon="8.38029362">
    <ele>105</ele>
    <time>2016-07-01T09:01:21Z</time>
    </trkpt>
    <trkpt lat="49.70314723" lon="8.38064445">
    <ele>107</ele>
    <time>2016-07-01T09:01:27Z</time>
    </trkpt>
    <trkpt lat="49.70323612" lon="8.38171667">
    <ele>104</ele>
    <time>2016-07-01T09:01:43Z</time>
    </trkpt>
    <trkpt lat="49.70336945" lon="8.38319501">
    <ele>101</ele>
    <time>2016-07-01T09:02:06Z</time>
    </trkpt>
    <trkpt lat="49.70328778" lon="8.38353278">
    <ele>101</ele>
    <time>2016-07-01T09:02:12Z</time>
    </trkpt>
    <trkpt lat="49.70332751" lon="8.38381612">
    <ele>101</ele>
    <time>2016-07-01T09:02:16Z</time>
    </trkpt>
    <trkpt lat="49.70345084" lon="8.38398945">
    <ele>100</ele>
    <time>2016-07-01T09:02:20Z</time>
    </trkpt>
    <trkpt lat="49.70347389" lon="8.38410639">
    <ele>100</ele>
    <time>2016-07-01T09:02:22Z</time>
    </trkpt>
    <trkpt lat="49.70352639" lon="8.38478667">
    <ele>102</ele>
    <time>2016-07-01T09:02:32Z</time>
    </trkpt>
    <trkpt lat="49.70360806" lon="8.38564806">
    <ele>103</ele>
    <time>2016-07-01T09:02:46Z</time>
    </trkpt>
    <trkpt lat="49.70372612" lon="8.38703945">
    <ele>99</ele>
    <time>2016-07-01T09:03:07Z</time>
    </trkpt>
    <trkpt lat="49.70367028" lon="8.38734528">
    <ele>98</ele>
    <time>2016-07-01T09:03:12Z</time>
    </trkpt>
    <trkpt lat="49.70368973" lon="8.38756445">
    <ele>96</ele>
    <time>2016-07-01T09:03:15Z</time>
    </trkpt>
    <trkpt lat="49.70379195" lon="8.38773751">
    <ele>95</ele>
    <time>2016-07-01T09:03:19Z</time>
    </trkpt>
    <trkpt lat="49.70384056" lon="8.38794778">
    <ele>93</ele>
    <time>2016-07-01T09:03:22Z</time>
    </trkpt>
    <trkpt lat="49.70376445" lon="8.38851834">
    <ele>93</ele>
    <time>2016-07-01T09:03:31Z</time>
    </trkpt>
    <trkpt lat="49.70384473" lon="8.38873695">
    <ele>94</ele>
    <time>2016-07-01T09:03:35Z</time>
    </trkpt>
    <trkpt lat="49.70394639" lon="8.38882723">
    <ele>95</ele>
    <time>2016-07-01T09:03:38Z</time>
    </trkpt>
    <trkpt lat="49.70423306" lon="8.38944612">
    <ele>105</ele>
    <time>2016-07-01T09:03:49Z</time>
    </trkpt>
    <trkpt lat="49.70444639" lon="8.38997695">
    <ele>109</ele>
    <time>2016-07-01T09:03:59Z</time>
    </trkpt>
    <trkpt lat="49.70454389" lon="8.39044389">
    <ele>107</ele>
    <time>2016-07-01T09:04:06Z</time>
    </trkpt>
    <trkpt lat="49.70460973" lon="8.39078251">
    <ele>103</ele>
    <time>2016-07-01T09:04:12Z</time>
    </trkpt>
    <trkpt lat="49.70464806" lon="8.39119362">
    <ele>95</ele>
    <time>2016-07-01T09:04:18Z</time>
    </trkpt>
    <trkpt lat="49.70463306" lon="8.39153445">
    <ele>90</ele>
    <time>2016-07-01T09:04:23Z</time>
    </trkpt>
    <trkpt lat="49.70451028" lon="8.39198556">
    <ele>86</ele>
    <time>2016-07-01T09:04:31Z</time>
    </trkpt>
    <trkpt lat="49.70456445" lon="8.39208584">
    <ele>85</ele>
    <time>2016-07-01T09:04:33Z</time>
    </trkpt>
    <trkpt lat="49.70464473" lon="8.39222778">
    <ele>84</ele>
    <time>2016-07-01T09:04:36Z</time>
    </trkpt>
    <trkpt lat="49.70480445" lon="8.39244056">
    <ele>85</ele>
    <time>2016-07-01T09:04:41Z</time>
    </trkpt>
    <trkpt lat="49.7048875" lon="8.39243945">
    <ele>86</ele>
    <time>2016-07-01T09:04:42Z</time>
    </trkpt>
    <trkpt lat="49.70497056" lon="8.39230612">
    <ele>86</ele>
    <time>2016-07-01T09:04:45Z</time>
    </trkpt>
    <trkpt lat="49.70518806" lon="8.39186695">
    <ele>84</ele>
    <time>2016-07-01T09:04:54Z</time>
    </trkpt>
    <trkpt lat="49.70527667" lon="8.39169167">
    <ele>84</ele>
    <time>2016-07-01T09:04:57Z</time>
    </trkpt>
    <trkpt lat="49.70535945" lon="8.39163556">
    <ele>84</ele>
    <time>2016-07-01T09:04:59Z</time>
    </trkpt>
    <trkpt lat="49.70545473" lon="8.39166167">
    <ele>83</ele>
    <time>2016-07-01T09:05:02Z</time>
    </trkpt>
    <trkpt lat="49.70557445" lon="8.39182528">
    <ele>84</ele>
    <time>2016-07-01T09:05:05Z</time>
    </trkpt>
    <trkpt lat="49.70587445" lon="8.39224389">
    <ele>89</ele>
    <time>2016-07-01T09:05:15Z</time>
    </trkpt>
    <trkpt lat="49.70596" lon="8.39252917">
    <ele>91</ele>
    <time>2016-07-01T09:05:20Z</time>
    </trkpt>
    <trkpt lat="49.70600223" lon="8.39278362">
    <ele>93</ele>
    <time>2016-07-01T09:05:24Z</time>
    </trkpt>
    <trkpt lat="49.70630862" lon="8.39436834">
    <ele>97</ele>
    <time>2016-07-01T09:05:49Z</time>
    </trkpt>
    <trkpt lat="49.70641806" lon="8.39493445">
    <ele>97</ele>
    <time>2016-07-01T09:05:58Z</time>
    </trkpt>
    <trkpt lat="49.70688167" lon="8.39711556">
    <ele>99</ele>
    <time>2016-07-01T09:06:33Z</time>
    </trkpt>
    <trkpt lat="49.70798056" lon="8.39985501">
    <ele>97</ele>
    <time>2016-07-01T09:07:22Z</time>
    </trkpt>
    <trkpt lat="49.70821362" lon="8.40037167">
    <ele>95</ele>
    <time>2016-07-01T09:07:32Z</time>
    </trkpt>
    <trkpt lat="49.70835778" lon="8.40074389">
    <ele>93</ele>
    <time>2016-07-01T09:07:38Z</time>
    </trkpt>
    <trkpt lat="49.70834612" lon="8.40071862">
    <ele>93</ele>
    <time>2016-07-01T09:07:39Z</time>
    </trkpt>
    <trkpt lat="49.70849695" lon="8.40109278">
    <ele>91</ele>
    <time>2016-07-01T09:07:46Z</time>
    </trkpt>
    <trkpt lat="49.70864112" lon="8.40132973">
    <ele>90</ele>
    <time>2016-07-01T09:07:51Z</time>
    </trkpt>
    <trkpt lat="49.70884556" lon="8.40178584">
    <ele>89</ele>
    <time>2016-07-01T09:07:59Z</time>
    </trkpt>
    <trkpt lat="49.70899612" lon="8.40210528">
    <ele>90</ele>
    <time>2016-07-01T09:08:05Z</time>
    </trkpt>
    <trkpt lat="49.70910501" lon="8.40244334">
    <ele>89</ele>
    <time>2016-07-01T09:08:11Z</time>
    </trkpt>
    <trkpt lat="49.70920223" lon="8.40283667">
    <ele>90</ele>
    <time>2016-07-01T09:08:17Z</time>
    </trkpt>
    <trkpt lat="49.70956723" lon="8.40441056">
    <ele>91</ele>
    <time>2016-07-01T09:08:43Z</time>
    </trkpt>
    <trkpt lat="49.70997056" lon="8.40625251">
    <ele>89</ele>
    <time>2016-07-01T09:09:12Z</time>
    </trkpt>
    <trkpt lat="49.71052084" lon="8.4085925">
    <ele>87</ele>
    <time>2016-07-01T09:09:50Z</time>
    </trkpt>
    <trkpt lat="49.71069112" lon="8.40896223">
    <ele>88</ele>
    <time>2016-07-01T09:09:57Z</time>
    </trkpt>
    <trkpt lat="49.71107584" lon="8.41063167">
    <ele>90</ele>
    <time>2016-07-01T09:10:24Z</time>
    </trkpt>
    <trkpt lat="49.71143889" lon="8.41236806">
    <ele>88</ele>
    <time>2016-07-01T09:10:52Z</time>
    </trkpt>
    <trkpt lat="49.71142528" lon="8.41287556">
    <ele>85</ele>
    <time>2016-07-01T09:11:00Z</time>
    </trkpt>
    <trkpt lat="49.71142639" lon="8.41311417">
    <ele>84</ele>
    <time>2016-07-01T09:11:04Z</time>
    </trkpt>
    <trkpt lat="49.71148806" lon="8.41355389">
    <ele>83</ele>
    <time>2016-07-01T09:11:11Z</time>
    </trkpt>
    <trkpt lat="49.71149084" lon="8.41409528">
    <ele>82</ele>
    <time>2016-07-01T09:11:19Z</time>
    </trkpt>
    <trkpt lat="49.71148806" lon="8.41470084">
    <ele>84</ele>
    <time>2016-07-01T09:11:28Z</time>
    </trkpt>
    <trkpt lat="49.71162306" lon="8.41550695">
    <ele>85</ele>
    <time>2016-07-01T09:11:41Z</time>
    </trkpt>
    <trkpt lat="49.71173362" lon="8.41621195">
    <ele>83</ele>
    <time>2016-07-01T09:11:52Z</time>
    </trkpt>
    <trkpt lat="49.71191445" lon="8.41665028">
    <ele>84</ele>
    <time>2016-07-01T09:12:00Z</time>
    </trkpt>
    <trkpt lat="49.71224001" lon="8.41749973">
    <ele>84</ele>
    <time>2016-07-01T09:12:15Z</time>
    </trkpt>
    <trkpt lat="49.71224806" lon="8.41794">
    <ele>84</ele>
    <time>2016-07-01T09:12:22Z</time>
    </trkpt>
    <trkpt lat="49.712315" lon="8.41820556">
    <ele>84</ele>
    <time>2016-07-01T09:12:26Z</time>
    </trkpt>
    <trkpt lat="49.71242639" lon="8.41906667">
    <ele>84</ele>
    <time>2016-07-01T09:12:39Z</time>
    </trkpt>
    <trkpt lat="49.71260556" lon="8.42042278">
    <ele>85</ele>
    <time>2016-07-01T09:13:00Z</time>
    </trkpt>
    <trkpt lat="49.71264889" lon="8.42073417">
    <ele>85</ele>
    <time>2016-07-01T09:13:05Z</time>
    </trkpt>
    <trkpt lat="49.71266028" lon="8.42185362">
    <ele>89</ele>
    <time>2016-07-01T09:13:22Z</time>
    </trkpt>
    <trkpt lat="49.71265028" lon="8.42178667">
    <ele>89</ele>
    <time>2016-07-01T09:13:23Z</time>
    </trkpt>
    <trkpt lat="49.71270223" lon="8.42481612">
    <ele>84</ele>
    <time>2016-07-01T09:14:10Z</time>
    </trkpt>
    <trkpt lat="49.71263" lon="8.42532251">
    <ele>84</ele>
    <time>2016-07-01T09:14:18Z</time>
    </trkpt>
    <trkpt lat="49.71256806" lon="8.42602056">
    <ele>83</ele>
    <time>2016-07-01T09:14:28Z</time>
    </trkpt>
    <trkpt lat="49.71251723" lon="8.42658084">
    <ele>82</ele>
    <time>2016-07-01T09:14:37Z</time>
    </trkpt>
    <trkpt lat="49.71251362" lon="8.42705806">
    <ele>81</ele>
    <time>2016-07-01T09:14:44Z</time>
    </trkpt>
    <trkpt lat="49.71251945" lon="8.42704889">
    <ele>81</ele>
    <time>2016-07-01T09:14:45Z</time>
    </trkpt>
    <trkpt lat="49.71251723" lon="8.42783806">
    <ele>81</ele>
    <time>2016-07-01T09:14:57Z</time>
    </trkpt>
    <trkpt lat="49.71255445" lon="8.42810362">
    <ele>81</ele>
    <time>2016-07-01T09:15:01Z</time>
    </trkpt>
    <trkpt lat="49.71262639" lon="8.42821278">
    <ele>81</ele>
    <time>2016-07-01T09:15:03Z</time>
    </trkpt>
    <trkpt lat="49.71280556" lon="8.42833001">
    <ele>81</ele>
    <time>2016-07-01T09:15:08Z</time>
    </trkpt>
    <trkpt lat="49.71300195" lon="8.42839195">
    <ele>82</ele>
    <time>2016-07-01T09:15:12Z</time>
    </trkpt>
    <trkpt lat="49.71319306" lon="8.42849973">
    <ele>83</ele>
    <time>2016-07-01T09:15:17Z</time>
    </trkpt>
    <trkpt lat="49.71320584" lon="8.42866501">
    <ele>84</ele>
    <time>2016-07-01T09:15:20Z</time>
    </trkpt>
    <trkpt lat="49.71313139" lon="8.42928056">
    <ele>83</ele>
    <time>2016-07-01T09:15:29Z</time>
    </trkpt>
    <trkpt lat="49.71302334" lon="8.43026362">
    <ele>82</ele>
    <time>2016-07-01T09:15:45Z</time>
    </trkpt>
    <trkpt lat="49.71285778" lon="8.43171556">
    <ele>81</ele>
    <time>2016-07-01T09:16:07Z</time>
    </trkpt>
    <trkpt lat="49.71261723" lon="8.43384445">
    <ele>80</ele>
    <time>2016-07-01T09:16:40Z</time>
    </trkpt>
    <trkpt lat="49.71211028" lon="8.43891167">
    <ele>84</ele>
    <time>2016-07-01T09:17:58Z</time>
    </trkpt>
    <trkpt lat="49.71206223" lon="8.44165917">
    <ele>86</ele>
    <time>2016-07-01T09:18:40Z</time>
    </trkpt>
    <trkpt lat="49.71221" lon="8.44288112">
    <ele>85</ele>
    <time>2016-07-01T09:18:59Z</time>
    </trkpt>
    <trkpt lat="49.71239028" lon="8.44368056">
    <ele>84</ele>
    <time>2016-07-01T09:19:12Z</time>
    </trkpt>
    <trkpt lat="49.71250167" lon="8.44415334">
    <ele>84</ele>
    <time>2016-07-01T09:19:20Z</time>
    </trkpt>
    <trkpt lat="49.71247723" lon="8.44432917">
    <ele>83</ele>
    <time>2016-07-01T09:19:23Z</time>
    </trkpt>
    <trkpt lat="49.71238695" lon="8.44447362">
    <ele>82</ele>
    <time>2016-07-01T09:19:26Z</time>
    </trkpt>
    <trkpt lat="49.71226056" lon="8.44472501">
    <ele>81</ele>
    <time>2016-07-01T09:19:31Z</time>
    </trkpt>
    <trkpt lat="49.71224973" lon="8.44499139">
    <ele>81</ele>
    <time>2016-07-01T09:19:35Z</time>
    </trkpt>
    <trkpt lat="49.71232195" lon="8.44517501">
    <ele>80</ele>
    <time>2016-07-01T09:19:38Z</time>
    </trkpt>
    <trkpt lat="49.71244612" lon="8.44538806">
    <ele>80</ele>
    <time>2016-07-01T09:19:42Z</time>
    </trkpt>
    <trkpt lat="49.71273695" lon="8.44548223">
    <ele>81</ele>
    <time>2016-07-01T09:19:49Z</time>
    </trkpt>
    <trkpt lat="49.71282945" lon="8.44551695">
    <ele>83</ele>
    <time>2016-07-01T09:19:52Z</time>
    </trkpt>
    <trkpt lat="49.71294139" lon="8.44567806">
    <ele>84</ele>
    <time>2016-07-01T09:19:55Z</time>
    </trkpt>
    <trkpt lat="49.71350112" lon="8.44711639">
    <ele>86</ele>
    <time>2016-07-01T09:20:21Z</time>
    </trkpt>
    <trkpt lat="49.71404778" lon="8.44785639">
    <ele>81</ele>
    <time>2016-07-01T09:20:38Z</time>
    </trkpt>
    <trkpt lat="49.71474973" lon="8.44821695">
    <ele>82</ele>
    <time>2016-07-01T09:20:55Z</time>
    </trkpt>
    <trkpt lat="49.71539251" lon="8.44892889">
    <ele>83</ele>
    <time>2016-07-01T09:21:14Z</time>
    </trkpt>
    <trkpt lat="49.71599028" lon="8.44953723">
    <ele>81</ele>
    <time>2016-07-01T09:21:31Z</time>
    </trkpt>
    <trkpt lat="49.71701334" lon="8.45068195">
    <ele>81</ele>
    <time>2016-07-01T09:22:01Z</time>
    </trkpt>
    <trkpt lat="49.71707389" lon="8.45090139">
    <ele>82</ele>
    <time>2016-07-01T09:22:04Z</time>
    </trkpt>
    <trkpt lat="49.71707778" lon="8.45118556">
    <ele>83</ele>
    <time>2016-07-01T09:22:09Z</time>
    </trkpt>
    <trkpt lat="49.71710778" lon="8.45151723">
    <ele>83</ele>
    <time>2016-07-01T09:22:14Z</time>
    </trkpt>
    <trkpt lat="49.71715528" lon="8.45177223">
    <ele>83</ele>
    <time>2016-07-01T09:22:18Z</time>
    </trkpt>
    <trkpt lat="49.71723501" lon="8.45189001">
    <ele>84</ele>
    <time>2016-07-01T09:22:20Z</time>
    </trkpt>
    <trkpt lat="49.71748362" lon="8.45183417">
    <ele>85</ele>
    <time>2016-07-01T09:22:26Z</time>
    </trkpt>
    <trkpt lat="49.71772639" lon="8.45173834">
    <ele>86</ele>
    <time>2016-07-01T09:22:32Z</time>
    </trkpt>
    <trkpt lat="49.71793389" lon="8.45157084">
    <ele>88</ele>
    <time>2016-07-01T09:22:38Z</time>
    </trkpt>
    <trkpt lat="49.71800112" lon="8.45157195">
    <ele>88</ele>
    <time>2016-07-01T09:22:39Z</time>
    </trkpt>
    <trkpt lat="49.71806501" lon="8.45160612">
    <ele>88</ele>
    <time>2016-07-01T09:22:41Z</time>
    </trkpt>
    <trkpt lat="49.71883612" lon="8.45235917">
    <ele>82</ele>
    <time>2016-07-01T09:23:02Z</time>
    </trkpt>
    <trkpt lat="49.71944612" lon="8.45294445">
    <ele>76</ele>
    <time>2016-07-01T09:23:19Z</time>
    </trkpt>
    <trkpt lat="49.72033528" lon="8.45348667">
    <ele>74</ele>
    <time>2016-07-01T09:23:42Z</time>
    </trkpt>
    <trkpt lat="49.72134528" lon="8.45386862">
    <ele>74</ele>
    <time>2016-07-01T09:24:06Z</time>
    </trkpt>
    <trkpt lat="49.72234251" lon="8.45423445">
    <ele>79</ele>
    <time>2016-07-01T09:24:30Z</time>
    </trkpt>
    <trkpt lat="49.72361084" lon="8.45521639">
    <ele>81</ele>
    <time>2016-07-01T09:25:04Z</time>
    </trkpt>
    <trkpt lat="49.72408695" lon="8.45591667">
    <ele>84</ele>
    <time>2016-07-01T09:25:19Z</time>
    </trkpt>
    <trkpt lat="49.72452084" lon="8.4566275">
    <ele>81</ele>
    <time>2016-07-01T09:25:34Z</time>
    </trkpt>
    <trkpt lat="49.7248825" lon="8.45731917">
    <ele>80</ele>
    <time>2016-07-01T09:25:48Z</time>
    </trkpt>
    <trkpt lat="49.72510556" lon="8.45773695">
    <ele>80</ele>
    <time>2016-07-01T09:25:56Z</time>
    </trkpt>
    <trkpt lat="49.72514584" lon="8.45794223">
    <ele>80</ele>
    <time>2016-07-01T09:25:59Z</time>
    </trkpt>
    <trkpt lat="49.7251225" lon="8.45805251">
    <ele>81</ele>
    <time>2016-07-01T09:26:01Z</time>
    </trkpt>
    <trkpt lat="49.72504556" lon="8.45836556">
    <ele>81</ele>
    <time>2016-07-01T09:26:06Z</time>
    </trkpt>
    <trkpt lat="49.72502778" lon="8.45862084">
    <ele>81</ele>
    <time>2016-07-01T09:26:10Z</time>
    </trkpt>
    <trkpt lat="49.72507806" lon="8.45875056">
    <ele>81</ele>
    <time>2016-07-01T09:26:12Z</time>
    </trkpt>
    <trkpt lat="49.72503639" lon="8.45871445">
    <ele>81</ele>
    <time>2016-07-01T09:26:14Z</time>
    </trkpt>
    <trkpt lat="49.72512612" lon="8.45882362">
    <ele>81</ele>
    <time>2016-07-01T09:26:16Z</time>
    </trkpt>
    <trkpt lat="49.72525139" lon="8.45891389">
    <ele>81</ele>
    <time>2016-07-01T09:26:19Z</time>
    </trkpt>
    <trkpt lat="49.72545973" lon="8.45892084">
    <ele>82</ele>
    <time>2016-07-01T09:26:24Z</time>
    </trkpt>
    <trkpt lat="49.72562639" lon="8.45892806">
    <ele>82</ele>
    <time>2016-07-01T09:26:28Z</time>
    </trkpt>
    <trkpt lat="49.72574001" lon="8.45908278">
    <ele>82</ele>
    <time>2016-07-01T09:26:32Z</time>
    </trkpt>
    <trkpt lat="49.72590973" lon="8.45972362">
    <ele>83</ele>
    <time>2016-07-01T09:26:42Z</time>
    </trkpt>
    <trkpt lat="49.72607945" lon="8.46041917">
    <ele>84</ele>
    <time>2016-07-01T09:26:54Z</time>
    </trkpt>
    <trkpt lat="49.72628473" lon="8.46105028">
    <ele>84</ele>
    <time>2016-07-01T09:27:05Z</time>
    </trkpt>
    <trkpt lat="49.72659223" lon="8.46189139">
    <ele>84</ele>
    <time>2016-07-01T09:27:19Z</time>
    </trkpt>
    <trkpt lat="49.72688251" lon="8.46293445">
    <ele>84</ele>
    <time>2016-07-01T09:27:37Z</time>
    </trkpt>
    <trkpt lat="49.72741445" lon="8.46472778">
    <ele>85</ele>
    <time>2016-07-01T09:28:07Z</time>
    </trkpt>
    <trkpt lat="49.72782167" lon="8.46600723">
    <ele>87</ele>
    <time>2016-07-01T09:28:29Z</time>
    </trkpt>
    <trkpt lat="49.7284375" lon="8.4677025">
    <ele>85</ele>
    <time>2016-07-01T09:28:58Z</time>
    </trkpt>
    <trkpt lat="49.72907473" lon="8.46861084">
    <ele>82</ele>
    <time>2016-07-01T09:29:19Z</time>
    </trkpt>
    <trkpt lat="49.72944834" lon="8.46921112">
    <ele>80</ele>
    <time>2016-07-01T09:29:31Z</time>
    </trkpt>
    <trkpt lat="49.72948278" lon="8.46937723">
    <ele>80</ele>
    <time>2016-07-01T09:29:34Z</time>
    </trkpt>
    <trkpt lat="49.72945973" lon="8.46953362">
    <ele>81</ele>
    <time>2016-07-01T09:29:36Z</time>
    </trkpt>
    <trkpt lat="49.72925001" lon="8.47001695">
    <ele>80</ele>
    <time>2016-07-01T09:29:45Z</time>
    </trkpt>
    <trkpt lat="49.72881223" lon="8.47107362">
    <ele>78</ele>
    <time>2016-07-01T09:30:04Z</time>
    </trkpt>
    <trkpt lat="49.72832862" lon="8.47204945">
    <ele>78</ele>
    <time>2016-07-01T09:30:23Z</time>
    </trkpt>
    <trkpt lat="49.72815778" lon="8.47242084">
    <ele>79</ele>
    <time>2016-07-01T09:30:30Z</time>
    </trkpt>
    <trkpt lat="49.72818612" lon="8.47276806">
    <ele>80</ele>
    <time>2016-07-01T09:30:35Z</time>
    </trkpt>
    <trkpt lat="49.72836889" lon="8.47299695">
    <ele>83</ele>
    <time>2016-07-01T09:30:41Z</time>
    </trkpt>
    <trkpt lat="49.72929639" lon="8.47379889">
    <ele>78</ele>
    <time>2016-07-01T09:31:06Z</time>
    </trkpt>
    <trkpt lat="49.72932528" lon="8.47399612">
    <ele>78</ele>
    <time>2016-07-01T09:31:09Z</time>
    </trkpt>
    <trkpt lat="49.72911834" lon="8.47516389">
    <ele>79</ele>
    <time>2016-07-01T09:31:28Z</time>
    </trkpt>
    <trkpt lat="49.72879" lon="8.47664556">
    <ele>80</ele>
    <time>2016-07-01T09:31:52Z</time>
    </trkpt>
    <trkpt lat="49.72839612" lon="8.47819445">
    <ele>83</ele>
    <time>2016-07-01T09:32:17Z</time>
    </trkpt>
    <trkpt lat="49.72809973" lon="8.47926001">
    <ele>84</ele>
    <time>2016-07-01T09:32:35Z</time>
    </trkpt>
    <trkpt lat="49.72791723" lon="8.47986862">
    <ele>82</ele>
    <time>2016-07-01T09:32:45Z</time>
    </trkpt>
    <trkpt lat="49.72760473" lon="8.48056362">
    <ele>81</ele>
    <time>2016-07-01T09:32:58Z</time>
    </trkpt>
    <trkpt lat="49.72725806" lon="8.48133417">
    <ele>83</ele>
    <time>2016-07-01T09:33:12Z</time>
    </trkpt>
    <trkpt lat="49.72685084" lon="8.48210028">
    <ele>78</ele>
    <time>2016-07-01T09:33:27Z</time>
    </trkpt>
    <trkpt lat="49.72642334" lon="8.48275028">
    <ele>76</ele>
    <time>2016-07-01T09:33:41Z</time>
    </trkpt>
    <trkpt lat="49.72607084" lon="8.48327445">
    <ele>77</ele>
    <time>2016-07-01T09:33:53Z</time>
    </trkpt>
    <trkpt lat="49.72503806" lon="8.48476862">
    <ele>82</ele>
    <time>2016-07-01T09:34:26Z</time>
    </trkpt>
    <trkpt lat="49.7248775" lon="8.48522362">
    <ele>82</ele>
    <time>2016-07-01T09:34:34Z</time>
    </trkpt>
    <trkpt lat="49.72471167" lon="8.4859175">
    <ele>83</ele>
    <time>2016-07-01T09:34:45Z</time>
    </trkpt>
    <trkpt lat="49.72473862" lon="8.48594528">
    <ele>83</ele>
    <time>2016-07-01T09:34:46Z</time>
    </trkpt>
    <trkpt lat="49.72514362" lon="8.48618223">
    <ele>81</ele>
    <time>2016-07-01T09:34:56Z</time>
    </trkpt>
    <trkpt lat="49.72512278" lon="8.48615473">
    <ele>81</ele>
    <time>2016-07-01T09:34:57Z</time>
    </trkpt>
    <trkpt lat="49.72592639" lon="8.48659584">
    <ele>81</ele>
    <time>2016-07-01T09:35:17Z</time>
    </trkpt>
    <trkpt lat="49.72589056" lon="8.48655695">
    <ele>81</ele>
    <time>2016-07-01T09:35:18Z</time>
    </trkpt>
    <trkpt lat="49.72621084" lon="8.48665973">
    <ele>81</ele>
    <time>2016-07-01T09:35:26Z</time>
    </trkpt>
    <trkpt lat="49.72650195" lon="8.48659251">
    <ele>80</ele>
    <time>2016-07-01T09:35:33Z</time>
    </trkpt>
    <trkpt lat="49.72655612" lon="8.48674806">
    <ele>81</ele>
    <time>2016-07-01T09:35:35Z</time>
    </trkpt>
    <trkpt lat="49.72672389" lon="8.48699389">
    <ele>82</ele>
    <time>2016-07-01T09:35:41Z</time>
    </trkpt>
    <trkpt lat="49.72758806" lon="8.48753028">
    <ele>82</ele>
    <time>2016-07-01T09:36:03Z</time>
    </trkpt>
    <trkpt lat="49.73039251" lon="8.48901889">
    <ele>84</ele>
    <time>2016-07-01T09:37:13Z</time>
    </trkpt>
    <trkpt lat="49.73198445" lon="8.48990473">
    <ele>84</ele>
    <time>2016-07-01T09:37:53Z</time>
    </trkpt>
    <trkpt lat="49.73270056" lon="8.49029112">
    <ele>86</ele>
    <time>2016-07-01T09:38:10Z</time>
    </trkpt>
    <trkpt lat="49.73307806" lon="8.49038695">
    <ele>87</ele>
    <time>2016-07-01T09:38:19Z</time>
    </trkpt>
    <trkpt lat="49.73343278" lon="8.49033834">
    <ele>87</ele>
    <time>2016-07-01T09:38:28Z</time>
    </trkpt>
    <trkpt lat="49.734215" lon="8.49011806">
    <ele>86</ele>
    <time>2016-07-01T09:38:47Z</time>
    </trkpt>
    <trkpt lat="49.73721167" lon="8.48927473">
    <ele>81</ele>
    <time>2016-07-01T09:39:58Z</time>
    </trkpt>
    <trkpt lat="49.73846695" lon="8.48891167">
    <ele>80</ele>
    <time>2016-07-01T09:40:28Z</time>
    </trkpt>
    <trkpt lat="49.73972723" lon="8.48843501">
    <ele>79</ele>
    <time>2016-07-01T09:40:59Z</time>
    </trkpt>
    <trkpt lat="49.74117056" lon="8.48788362">
    <ele>80</ele>
    <time>2016-07-01T09:41:34Z</time>
    </trkpt>
    <trkpt lat="49.74250445" lon="8.48737056">
    <ele>79</ele>
    <time>2016-07-01T09:42:06Z</time>
    </trkpt>
    <trkpt lat="49.74336167" lon="8.48699389">
    <ele>80</ele>
    <time>2016-07-01T09:42:27Z</time>
    </trkpt>
    <trkpt lat="49.74385528" lon="8.48664139">
    <ele>84</ele>
    <time>2016-07-01T09:42:40Z</time>
    </trkpt>
    <trkpt lat="49.74385334" lon="8.48670334">
    <ele>83</ele>
    <time>2016-07-01T09:42:41Z</time>
    </trkpt>
    <trkpt lat="49.74372056" lon="8.48627306">
    <ele>84</ele>
    <time>2016-07-01T09:42:48Z</time>
    </trkpt>
    <trkpt lat="49.74344945" lon="8.48553223">
    <ele>85</ele>
    <time>2016-07-01T09:43:01Z</time>
    </trkpt>
    <trkpt lat="49.74331028" lon="8.48501028">
    <ele>85</ele>
    <time>2016-07-01T09:43:10Z</time>
    </trkpt>
    <trkpt lat="49.74323028" lon="8.48441445">
    <ele>85</ele>
    <time>2016-07-01T09:43:19Z</time>
    </trkpt>
    <trkpt lat="49.74312139" lon="8.48401139">
    <ele>83</ele>
    <time>2016-07-01T09:43:26Z</time>
    </trkpt>
    <trkpt lat="49.74310862" lon="8.48379139">
    <ele>83</ele>
    <time>2016-07-01T09:43:29Z</time>
    </trkpt>
    <trkpt lat="49.74371417" lon="8.48352778">
    <ele>84</ele>
    <time>2016-07-01T09:43:44Z</time>
    </trkpt>
    <trkpt lat="49.74464139" lon="8.48325167">
    <ele>85</ele>
    <time>2016-07-01T09:44:06Z</time>
    </trkpt>
    <trkpt lat="49.74513778" lon="8.48290556">
    <ele>85</ele>
    <time>2016-07-01T09:44:19Z</time>
    </trkpt>
    <trkpt lat="49.74539362" lon="8.48249084">
    <ele>85</ele>
    <time>2016-07-01T09:44:28Z</time>
    </trkpt>
    <trkpt lat="49.74604445" lon="8.48144778">
    <ele>82</ele>
    <time>2016-07-01T09:44:50Z</time>
    </trkpt>
    <trkpt lat="49.74637556" lon="8.48117639">
    <ele>82</ele>
    <time>2016-07-01T09:44:59Z</time>
    </trkpt>
    <trkpt lat="49.74670639" lon="8.48106056">
    <ele>81</ele>
    <time>2016-07-01T09:45:07Z</time>
    </trkpt>
    <trkpt lat="49.74745723" lon="8.48094445">
    <ele>83</ele>
    <time>2016-07-01T09:45:25Z</time>
    </trkpt>
    <trkpt lat="49.74776084" lon="8.48082973">
    <ele>85</ele>
    <time>2016-07-01T09:45:32Z</time>
    </trkpt>
    <trkpt lat="49.74783195" lon="8.48087028">
    <ele>86</ele>
    <time>2016-07-01T09:45:34Z</time>
    </trkpt>
    <trkpt lat="49.74817334" lon="8.48042139">
    <ele>85</ele>
    <time>2016-07-01T09:45:44Z</time>
    </trkpt>
    <trkpt lat="49.74835195" lon="8.48039">
    <ele>85</ele>
    <time>2016-07-01T09:45:48Z</time>
    </trkpt>
    <trkpt lat="49.74849417" lon="8.48025612">
    <ele>84</ele>
    <time>2016-07-01T09:45:52Z</time>
    </trkpt>
    <trkpt lat="49.74853278" lon="8.48024139">
    <ele>84</ele>
    <time>2016-07-01T09:45:53Z</time>
    </trkpt>
    <trkpt lat="49.74922334" lon="8.47970778">
    <ele>82</ele>
    <time>2016-07-01T09:46:12Z</time>
    </trkpt>
    <trkpt lat="49.75042889" lon="8.47932251">
    <ele>83</ele>
    <time>2016-07-01T09:46:41Z</time>
    </trkpt>
    <trkpt lat="49.75093639" lon="8.47920834">
    <ele>83</ele>
    <time>2016-07-01T09:46:53Z</time>
    </trkpt>
    <trkpt lat="49.75124723" lon="8.47919167">
    <ele>84</ele>
    <time>2016-07-01T09:47:00Z</time>
    </trkpt>
    <trkpt lat="49.75144223" lon="8.47923056">
    <ele>84</ele>
    <time>2016-07-01T09:47:05Z</time>
    </trkpt>
    <trkpt lat="49.75199167" lon="8.47957112">
    <ele>89</ele>
    <time>2016-07-01T09:47:18Z</time>
    </trkpt>
    <trkpt lat="49.75196806" lon="8.47955251">
    <ele>89</ele>
    <time>2016-07-01T09:47:19Z</time>
    </trkpt>
    <trkpt lat="49.75221112" lon="8.47960778">
    <ele>89</ele>
    <time>2016-07-01T09:47:25Z</time>
    </trkpt>
    <trkpt lat="49.75240612" lon="8.47974778">
    <ele>91</ele>
    <time>2016-07-01T09:47:30Z</time>
    </trkpt>
    <trkpt lat="49.75346695" lon="8.48045695">
    <ele>92</ele>
    <time>2016-07-01T09:47:57Z</time>
    </trkpt>
    <trkpt lat="49.75364056" lon="8.48071389">
    <ele>93</ele>
    <time>2016-07-01T09:48:03Z</time>
    </trkpt>
    <trkpt lat="49.75388973" lon="8.48102278">
    <ele>94</ele>
    <time>2016-07-01T09:48:10Z</time>
    </trkpt>
    <trkpt lat="49.75400973" lon="8.48126945">
    <ele>93</ele>
    <time>2016-07-01T09:48:15Z</time>
    </trkpt>
    <trkpt lat="49.75403139" lon="8.48128112">
    <ele>93</ele>
    <time>2016-07-01T09:48:16Z</time>
    </trkpt>
    <trkpt lat="49.75463556" lon="8.48162889">
    <ele>90</ele>
    <time>2016-07-01T09:48:31Z</time>
    </trkpt>
    <trkpt lat="49.75637778" lon="8.4825325">
    <ele>87</ele>
    <time>2016-07-01T09:49:14Z</time>
    </trkpt>
    <trkpt lat="49.75699723" lon="8.48269778">
    <ele>87</ele>
    <time>2016-07-01T09:49:29Z</time>
    </trkpt>
    <trkpt lat="49.75738139" lon="8.48273306">
    <ele>88</ele>
    <time>2016-07-01T09:49:38Z</time>
    </trkpt>
    <trkpt lat="49.75985223" lon="8.48307278">
    <ele>76</ele>
    <time>2016-07-01T09:50:36Z</time>
    </trkpt>
    <trkpt lat="49.76029556" lon="8.48308528">
    <ele>75</ele>
    <time>2016-07-01T09:50:47Z</time>
    </trkpt>
    <trkpt lat="49.76090751" lon="8.48294084">
    <ele>70</ele>
    <time>2016-07-01T09:51:01Z</time>
    </trkpt>
    <trkpt lat="49.76209945" lon="8.48264139">
    <ele>72</ele>
    <time>2016-07-01T09:51:30Z</time>
    </trkpt>
    <trkpt lat="49.76402778" lon="8.48209945">
    <ele>79</ele>
    <time>2016-07-01T09:52:16Z</time>
    </trkpt>
    <trkpt lat="49.76480139" lon="8.48184223">
    <ele>81</ele>
    <time>2016-07-01T09:52:35Z</time>
    </trkpt>
    <trkpt lat="49.76668417" lon="8.48019806">
    <ele>80</ele>
    <time>2016-07-01T09:53:26Z</time>
    </trkpt>
    <trkpt lat="49.7677275" lon="8.47920306">
    <ele>82</ele>
    <time>2016-07-01T09:53:54Z</time>
    </trkpt>
    <trkpt lat="49.76824362" lon="8.47866889">
    <ele>84</ele>
    <time>2016-07-01T09:54:09Z</time>
    </trkpt>
    <trkpt lat="49.7700725" lon="8.47632112">
    <ele>85</ele>
    <time>2016-07-01T09:55:05Z</time>
    </trkpt>
    <trkpt lat="49.77007334" lon="8.47624389">
    <ele>85</ele>
    <time>2016-07-01T09:55:06Z</time>
    </trkpt>
    <trkpt lat="49.77005084" lon="8.47586167">
    <ele>83</ele>
    <time>2016-07-01T09:55:12Z</time>
    </trkpt>
    <trkpt lat="49.77008112" lon="8.47528584">
    <ele>84</ele>
    <time>2016-07-01T09:55:21Z</time>
    </trkpt>
    <trkpt lat="49.77040223" lon="8.47223167">
    <ele>84</ele>
    <time>2016-07-01T09:56:08Z</time>
    </trkpt>
    <trkpt lat="49.77039612" lon="8.47225917">
    <ele>84</ele>
    <time>2016-07-01T09:56:09Z</time>
    </trkpt>
    <trkpt lat="49.77050806" lon="8.47110723">
    <ele>85</ele>
    <time>2016-07-01T09:56:26Z</time>
    </trkpt>
    <trkpt lat="49.77066223" lon="8.47034362">
    <ele>85</ele>
    <time>2016-07-01T09:56:39Z</time>
    </trkpt>
    <trkpt lat="49.77066223" lon="8.47034362">
    <ele>85</ele>
    <time>2016-07-01T09:56:39Z</time>
    </trkpt>
    <trkpt lat="49.77064389" lon="8.46955112">
    <ele>84</ele>
    <time>2016-07-01T09:56:51Z</time>
    </trkpt>
    <trkpt lat="49.77070723" lon="8.46838528">
    <ele>84</ele>
    <time>2016-07-01T09:57:08Z</time>
    </trkpt>
    <trkpt lat="49.77070389" lon="8.46547251">
    <ele>87</ele>
    <time>2016-07-01T09:57:53Z</time>
    </trkpt>
    <trkpt lat="49.77067612" lon="8.46358889">
    <ele>80</ele>
    <time>2016-07-01T09:58:22Z</time>
    </trkpt>
    <trkpt lat="49.77004001" lon="8.46139167">
    <ele>83</ele>
    <time>2016-07-01T09:58:58Z</time>
    </trkpt>
    <trkpt lat="49.76986084" lon="8.46037417">
    <ele>85</ele>
    <time>2016-07-01T09:59:14Z</time>
    </trkpt>
    <trkpt lat="49.76951667" lon="8.45841445">
    <ele>85</ele>
    <time>2016-07-01T09:59:45Z</time>
    </trkpt>
    <trkpt lat="49.76933639" lon="8.45763334">
    <ele>84</ele>
    <time>2016-07-01T09:59:58Z</time>
    </trkpt>
    <trkpt lat="49.76902084" lon="8.45635056">
    <ele>82</ele>
    <time>2016-07-01T10:00:19Z</time>
    </trkpt>
    <trkpt lat="49.76873139" lon="8.45512723">
    <ele>83</ele>
    <time>2016-07-01T10:00:39Z</time>
    </trkpt>
    <trkpt lat="49.76866" lon="8.4542875">
    <ele>83</ele>
    <time>2016-07-01T10:00:52Z</time>
    </trkpt>
    <trkpt lat="49.76857806" lon="8.45297723">
    <ele>81</ele>
    <time>2016-07-01T10:01:12Z</time>
    </trkpt>
    <trkpt lat="49.76845501" lon="8.45083584">
    <ele>81</ele>
    <time>2016-07-01T10:01:45Z</time>
    </trkpt>
    <trkpt lat="49.76822889" lon="8.44742084">
    <ele>81</ele>
    <time>2016-07-01T10:02:37Z</time>
    </trkpt>
    <trkpt lat="49.76814417" lon="8.44586917">
    <ele>83</ele>
    <time>2016-07-01T10:03:01Z</time>
    </trkpt>
    <trkpt lat="49.76802167" lon="8.44402195">
    <ele>83</ele>
    <time>2016-07-01T10:03:29Z</time>
    </trkpt>
    <trkpt lat="49.76777917" lon="8.44046251">
    <ele>81</ele>
    <time>2016-07-01T10:04:24Z</time>
    </trkpt>
    <trkpt lat="49.76775112" lon="8.43958084">
    <ele>79</ele>
    <time>2016-07-01T10:04:37Z</time>
    </trkpt>
    <trkpt lat="49.76777889" lon="8.43919473">
    <ele>79</ele>
    <time>2016-07-01T10:04:43Z</time>
    </trkpt>
    <trkpt lat="49.76782806" lon="8.43709028">
    <ele>79</ele>
    <time>2016-07-01T10:05:15Z</time>
    </trkpt>
    <trkpt lat="49.76784528" lon="8.43571223">
    <ele>77</ele>
    <time>2016-07-01T10:05:36Z</time>
    </trkpt>
    <trkpt lat="49.76782945" lon="8.43490389">
    <ele>79</ele>
    <time>2016-07-01T10:05:49Z</time>
    </trkpt>
    <trkpt lat="49.76774639" lon="8.43376584">
    <ele>81</ele>
    <time>2016-07-01T10:06:06Z</time>
    </trkpt>
    <trkpt lat="49.76772223" lon="8.43246139">
    <ele>83</ele>
    <time>2016-07-01T10:06:26Z</time>
    </trkpt>
    <trkpt lat="49.76771056" lon="8.43248">
    <ele>83</ele>
    <time>2016-07-01T10:06:26Z</time>
    </trkpt>
    <trkpt lat="49.76771028" lon="8.43178695">
    <ele>83</ele>
    <time>2016-07-01T10:06:37Z</time>
    </trkpt>
    <trkpt lat="49.76775806" lon="8.43127612">
    <ele>81</ele>
    <time>2016-07-01T10:06:45Z</time>
    </trkpt>
    <trkpt lat="49.76780334" lon="8.43076084">
    <ele>80</ele>
    <time>2016-07-01T10:06:53Z</time>
    </trkpt>
    <trkpt lat="49.76792945" lon="8.42980417">
    <ele>79</ele>
    <time>2016-07-01T10:07:08Z</time>
    </trkpt>
    <trkpt lat="49.76814723" lon="8.42884112">
    <ele>81</ele>
    <time>2016-07-01T10:07:23Z</time>
    </trkpt>
    <trkpt lat="49.76823139" lon="8.4279625">
    <ele>80</ele>
    <time>2016-07-01T10:07:37Z</time>
    </trkpt>
    <trkpt lat="49.76824139" lon="8.42791723">
    <ele>80</ele>
    <time>2016-07-01T10:07:37Z</time>
    </trkpt>
    <trkpt lat="49.76873195" lon="8.426065">
    <ele>73</ele>
    <time>2016-07-01T10:08:08Z</time>
    </trkpt>
    <trkpt lat="49.76900889" lon="8.42546445">
    <ele>73</ele>
    <time>2016-07-01T10:08:19Z</time>
    </trkpt>
    <trkpt lat="49.76942028" lon="8.42443056">
    <ele>74</ele>
    <time>2016-07-01T10:08:38Z</time>
    </trkpt>
    <trkpt lat="49.77002195" lon="8.42340389">
    <ele>74</ele>
    <time>2016-07-01T10:08:59Z</time>
    </trkpt>
    <trkpt lat="49.77063612" lon="8.42247778">
    <ele>71</ele>
    <time>2016-07-01T10:09:19Z</time>
    </trkpt>
    <trkpt lat="49.77148806" lon="8.42146639">
    <ele>70</ele>
    <time>2016-07-01T10:09:44Z</time>
    </trkpt>
    <trkpt lat="49.77250056" lon="8.42050778">
    <ele>70</ele>
    <time>2016-07-01T10:10:12Z</time>
    </trkpt>
    <trkpt lat="49.77359056" lon="8.41954862">
    <ele>70</ele>
    <time>2016-07-01T10:10:42Z</time>
    </trkpt>
    <trkpt lat="49.77431945" lon="8.41895195">
    <ele>69</ele>
    <time>2016-07-01T10:11:01Z</time>
    </trkpt>
    <trkpt lat="49.77433167" lon="8.41901612">
    <ele>70</ele>
    <time>2016-07-01T10:11:02Z</time>
    </trkpt>
    <trkpt lat="49.77417056" lon="8.42007445">
    <ele>71</ele>
    <time>2016-07-01T10:11:19Z</time>
    </trkpt>
    <trkpt lat="49.77410806" lon="8.42067251">
    <ele>73</ele>
    <time>2016-07-01T10:11:28Z</time>
    </trkpt>
    <trkpt lat="49.77415778" lon="8.42109445">
    <ele>75</ele>
    <time>2016-07-01T10:11:35Z</time>
    </trkpt>
    <trkpt lat="49.77423639" lon="8.4213875">
    <ele>77</ele>
    <time>2016-07-01T10:11:40Z</time>
    </trkpt>
    <trkpt lat="49.77453112" lon="8.42199973">
    <ele>80</ele>
    <time>2016-07-01T10:11:51Z</time>
    </trkpt>
    <trkpt lat="49.77502417" lon="8.42303195">
    <ele>77</ele>
    <time>2016-07-01T10:12:11Z</time>
    </trkpt>
    <trkpt lat="49.77619556" lon="8.42524167">
    <ele>77</ele>
    <time>2016-07-01T10:12:54Z</time>
    </trkpt>
    <trkpt lat="49.77730362" lon="8.42735028">
    <ele>81</ele>
    <time>2016-07-01T10:13:36Z</time>
    </trkpt>
    <trkpt lat="49.77776945" lon="8.42827362">
    <ele>83</ele>
    <time>2016-07-01T10:13:54Z</time>
    </trkpt>
    <trkpt lat="49.77819556" lon="8.42904056">
    <ele>80</ele>
    <time>2016-07-01T10:14:09Z</time>
    </trkpt>
    <trkpt lat="49.7782925" lon="8.42937945">
    <ele>81</ele>
    <time>2016-07-01T10:14:15Z</time>
    </trkpt>
    <trkpt lat="49.77830251" lon="8.42939834">
    <ele>81</ele>
    <time>2016-07-01T10:14:15Z</time>
    </trkpt>
    <trkpt lat="49.77857223" lon="8.43062139">
    <ele>83</ele>
    <time>2016-07-01T10:14:35Z</time>
    </trkpt>
    <trkpt lat="49.77938223" lon="8.43438362">
    <ele>83</ele>
    <time>2016-07-01T10:15:35Z</time>
    </trkpt>
    <trkpt lat="49.77980223" lon="8.43636362">
    <ele>84</ele>
    <time>2016-07-01T10:16:07Z</time>
    </trkpt>
    <trkpt lat="49.78016001" lon="8.43801028">
    <ele>85</ele>
    <time>2016-07-01T10:16:33Z</time>
    </trkpt>
    <trkpt lat="49.78040501" lon="8.43910973">
    <ele>79</ele>
    <time>2016-07-01T10:16:51Z</time>
    </trkpt>
    <trkpt lat="49.78044612" lon="8.43900806">
    <ele>79</ele>
    <time>2016-07-01T10:16:53Z</time>
    </trkpt>
    <trkpt lat="49.78130112" lon="8.43850223">
    <ele>74</ele>
    <time>2016-07-01T10:17:14Z</time>
    </trkpt>
    <trkpt lat="49.78312139" lon="8.43733584">
    <ele>77</ele>
    <time>2016-07-01T10:18:01Z</time>
    </trkpt>
    <trkpt lat="49.78406417" lon="8.43674112">
    <ele>81</ele>
    <time>2016-07-01T10:18:25Z</time>
    </trkpt>
    <trkpt lat="49.7843525" lon="8.43656751">
    <ele>79</ele>
    <time>2016-07-01T10:18:32Z</time>
    </trkpt>
    <trkpt lat="49.78460362" lon="8.43653112">
    <ele>76</ele>
    <time>2016-07-01T10:18:38Z</time>
    </trkpt>
    <trkpt lat="49.78528278" lon="8.43647362">
    <ele>73</ele>
    <time>2016-07-01T10:18:54Z</time>
    </trkpt>
    <trkpt lat="49.78587695" lon="8.43626556">
    <ele>77</ele>
    <time>2016-07-01T10:19:08Z</time>
    </trkpt>
    <trkpt lat="49.78643001" lon="8.43622223">
    <ele>77</ele>
    <time>2016-07-01T10:19:22Z</time>
    </trkpt>
    <trkpt lat="49.78766528" lon="8.43614889">
    <ele>83</ele>
    <time>2016-07-01T10:19:51Z</time>
    </trkpt>
    <trkpt lat="49.78778028" lon="8.43613306">
    <ele>82</ele>
    <time>2016-07-01T10:19:53Z</time>
    </trkpt>
    <trkpt lat="49.78812473" lon="8.43597278">
    <ele>82</ele>
    <time>2016-07-01T10:20:02Z</time>
    </trkpt>
    <trkpt lat="49.78848" lon="8.43561028">
    <ele>83</ele>
    <time>2016-07-01T10:20:12Z</time>
    </trkpt>
    <trkpt lat="49.78920167" lon="8.43478389">
    <ele>84</ele>
    <time>2016-07-01T10:20:33Z</time>
    </trkpt>
    <trkpt lat="49.78980556" lon="8.43417028">
    <ele>85</ele>
    <time>2016-07-01T10:20:50Z</time>
    </trkpt>
    <trkpt lat="49.78981167" lon="8.43416084">
    <ele>84</ele>
    <time>2016-07-01T10:20:50Z</time>
    </trkpt>
    <trkpt lat="49.79012862" lon="8.43447889">
    <ele>85</ele>
    <time>2016-07-01T10:20:59Z</time>
    </trkpt>
    <trkpt lat="49.79058362" lon="8.43506195">
    <ele>84</ele>
    <time>2016-07-01T10:21:13Z</time>
    </trkpt>
    <trkpt lat="49.79112306" lon="8.43587362">
    <ele>87</ele>
    <time>2016-07-01T10:21:31Z</time>
    </trkpt>
    <trkpt lat="49.79183028" lon="8.43691334">
    <ele>87</ele>
    <time>2016-07-01T10:21:54Z</time>
    </trkpt>
    <trkpt lat="49.79220945" lon="8.43744223">
    <ele>82</ele>
    <time>2016-07-01T10:22:06Z</time>
    </trkpt>
    <trkpt lat="49.79250862" lon="8.43814612">
    <ele>81</ele>
    <time>2016-07-01T10:22:19Z</time>
    </trkpt>
    <trkpt lat="49.79302167" lon="8.43924973">
    <ele>85</ele>
    <time>2016-07-01T10:22:39Z</time>
    </trkpt>
    <trkpt lat="49.79345667" lon="8.43980806">
    <ele>84</ele>
    <time>2016-07-01T10:22:53Z</time>
    </trkpt>
    <trkpt lat="49.79372417" lon="8.44039389">
    <ele>86</ele>
    <time>2016-07-01T10:23:04Z</time>
    </trkpt>
    <trkpt lat="49.79430251" lon="8.44177167">
    <ele>91</ele>
    <time>2016-07-01T10:23:29Z</time>
    </trkpt>
    <trkpt lat="49.79447362" lon="8.44204445">
    <ele>91</ele>
    <time>2016-07-01T10:23:34Z</time>
    </trkpt>
    <trkpt lat="49.79524139" lon="8.44297306">
    <ele>88</ele>
    <time>2016-07-01T10:23:57Z</time>
    </trkpt>
    <trkpt lat="49.79664889" lon="8.44451917">
    <ele>76</ele>
    <time>2016-07-01T10:24:38Z</time>
    </trkpt>
    <trkpt lat="49.79826556" lon="8.44624251">
    <ele>78</ele>
    <time>2016-07-01T10:25:24Z</time>
    </trkpt>
    <trkpt lat="49.79908167" lon="8.44708473">
    <ele>79</ele>
    <time>2016-07-01T10:25:47Z</time>
    </trkpt>
    <trkpt lat="49.79941389" lon="8.44748862">
    <ele>79</ele>
    <time>2016-07-01T10:25:57Z</time>
    </trkpt>
    <trkpt lat="49.79949167" lon="8.44758889">
    <ele>83</ele>
    <time>2016-07-01T10:26:00Z</time>
    </trkpt>
    <trkpt lat="49.79936445" lon="8.44786778">
    <ele>82</ele>
    <time>2016-07-01T10:26:05Z</time>
    </trkpt>
    <trkpt lat="49.79850917" lon="8.44977334">
    <ele>79</ele>
    <time>2016-07-01T10:26:40Z</time>
    </trkpt>
    <trkpt lat="49.79817306" lon="8.45052306">
    <ele>78</ele>
    <time>2016-07-01T10:26:54Z</time>
    </trkpt>
    <trkpt lat="49.79822695" lon="8.45061834">
    <ele>78</ele>
    <time>2016-07-01T10:26:56Z</time>
    </trkpt>
    <trkpt lat="49.79835251" lon="8.450755">
    <ele>81</ele>
    <time>2016-07-01T10:27:00Z</time>
    </trkpt>
    <trkpt lat="49.79982973" lon="8.45236528">
    <ele>81</ele>
    <time>2016-07-01T10:27:42Z</time>
    </trkpt>
    <trkpt lat="49.80102001" lon="8.45368473">
    <ele>75</ele>
    <time>2016-07-01T10:28:17Z</time>
    </trkpt>
    <trkpt lat="49.80131306" lon="8.45395723">
    <ele>75</ele>
    <time>2016-07-01T10:28:25Z</time>
    </trkpt>
    <trkpt lat="49.80131889" lon="8.45395723">
    <ele>75</ele>
    <time>2016-07-01T10:28:25Z</time>
    </trkpt>
    <trkpt lat="49.80161112" lon="8.45411028">
    <ele>76</ele>
    <time>2016-07-01T10:28:32Z</time>
    </trkpt>
    <trkpt lat="49.80180778" lon="8.45419084">
    <ele>75</ele>
    <time>2016-07-01T10:28:37Z</time>
    </trkpt>
    <trkpt lat="49.8022425" lon="8.45421334">
    <ele>75</ele>
    <time>2016-07-01T10:28:47Z</time>
    </trkpt>
    <trkpt lat="49.80261167" lon="8.45428278">
    <ele>75</ele>
    <time>2016-07-01T10:28:56Z</time>
    </trkpt>
    <trkpt lat="49.80284889" lon="8.45414223">
    <ele>75</ele>
    <time>2016-07-01T10:29:02Z</time>
    </trkpt>
    <trkpt lat="49.80322334" lon="8.45403695">
    <ele>76</ele>
    <time>2016-07-01T10:29:11Z</time>
    </trkpt>
    <trkpt lat="49.80331806" lon="8.45394389">
    <ele>76</ele>
    <time>2016-07-01T10:29:14Z</time>
    </trkpt>
    <trkpt lat="49.80369167" lon="8.45367306">
    <ele>78</ele>
    <time>2016-07-01T10:29:23Z</time>
    </trkpt>
    <trkpt lat="49.80407695" lon="8.45334001">
    <ele>78</ele>
    <time>2016-07-01T10:29:34Z</time>
    </trkpt>
    <trkpt lat="49.80437389" lon="8.45322">
    <ele>78</ele>
    <time>2016-07-01T10:29:41Z</time>
    </trkpt>
    <trkpt lat="49.80468556" lon="8.45314362">
    <ele>80</ele>
    <time>2016-07-01T10:29:48Z</time>
    </trkpt>
    <trkpt lat="49.80467112" lon="8.45313112">
    <ele>80</ele>
    <time>2016-07-01T10:29:49Z</time>
    </trkpt>
    <trkpt lat="49.80469278" lon="8.45339584">
    <ele>81</ele>
    <time>2016-07-01T10:29:53Z</time>
    </trkpt>
    <trkpt lat="49.80478056" lon="8.45386584">
    <ele>83</ele>
    <time>2016-07-01T10:30:00Z</time>
    </trkpt>
    <trkpt lat="49.80556389" lon="8.45494167">
    <ele>79</ele>
    <time>2016-07-01T10:30:25Z</time>
    </trkpt>
    <trkpt lat="49.80557195" lon="8.45492973">
    <ele>79</ele>
    <time>2016-07-01T10:30:25Z</time>
    </trkpt>
    <trkpt lat="49.80568556" lon="8.45509417">
    <ele>79</ele>
    <time>2016-07-01T10:30:29Z</time>
    </trkpt>
    <trkpt lat="49.80577001" lon="8.45533223">
    <ele>79</ele>
    <time>2016-07-01T10:30:33Z</time>
    </trkpt>
    <trkpt lat="49.80601056" lon="8.45584445">
    <ele>81</ele>
    <time>2016-07-01T10:30:43Z</time>
    </trkpt>
    <trkpt lat="49.80629862" lon="8.45639278">
    <ele>85</ele>
    <time>2016-07-01T10:30:54Z</time>
    </trkpt>
    <trkpt lat="49.80656834" lon="8.45677584">
    <ele>86</ele>
    <time>2016-07-01T10:31:02Z</time>
    </trkpt>
    <trkpt lat="49.80704695" lon="8.45743084">
    <ele>84</ele>
    <time>2016-07-01T10:31:17Z</time>
    </trkpt>
    <trkpt lat="49.8081775" lon="8.45897639">
    <ele>81</ele>
    <time>2016-07-01T10:31:53Z</time>
    </trkpt>
    <trkpt lat="49.80933723" lon="8.46020417">
    <ele>83</ele>
    <time>2016-07-01T10:32:26Z</time>
    </trkpt>
    <trkpt lat="49.80987584" lon="8.46086556">
    <ele>80</ele>
    <time>2016-07-01T10:32:42Z</time>
    </trkpt>
    <trkpt lat="49.8100075" lon="8.46105084">
    <ele>82</ele>
    <time>2016-07-01T10:32:46Z</time>
    </trkpt>
    <trkpt lat="49.81001139" lon="8.46105751">
    <ele>82</ele>
    <time>2016-07-01T10:32:46Z</time>
    </trkpt>
    <trkpt lat="49.81042306" lon="8.46167945">
    <ele>84</ele>
    <time>2016-07-01T10:33:00Z</time>
    </trkpt>
    <trkpt lat="49.81077362" lon="8.46228306">
    <ele>80</ele>
    <time>2016-07-01T10:33:12Z</time>
    </trkpt>
    <trkpt lat="49.81089751" lon="8.46262139">
    <ele>80</ele>
    <time>2016-07-01T10:33:18Z</time>
    </trkpt>
    <trkpt lat="49.81098973" lon="8.46296945">
    <ele>81</ele>
    <time>2016-07-01T10:33:24Z</time>
    </trkpt>
    <trkpt lat="49.81102084" lon="8.46356695">
    <ele>82</ele>
    <time>2016-07-01T10:33:33Z</time>
    </trkpt>
    <trkpt lat="49.81119973" lon="8.46424723">
    <ele>86</ele>
    <time>2016-07-01T10:33:44Z</time>
    </trkpt>
    <trkpt lat="49.81158639" lon="8.46552112">
    <ele>84</ele>
    <time>2016-07-01T10:34:06Z</time>
    </trkpt>
    <trkpt lat="49.81155362" lon="8.46551945">
    <ele>84</ele>
    <time>2016-07-01T10:34:06Z</time>
    </trkpt>
    <trkpt lat="49.81190334" lon="8.46524917">
    <ele>81</ele>
    <time>2016-07-01T10:34:16Z</time>
    </trkpt>
    <trkpt lat="49.81218778" lon="8.46502528">
    <ele>79</ele>
    <time>2016-07-01T10:34:23Z</time>
    </trkpt>
    <trkpt lat="49.81248362" lon="8.46464501">
    <ele>79</ele>
    <time>2016-07-01T10:34:32Z</time>
    </trkpt>
    <trkpt lat="49.81278195" lon="8.46426889">
    <ele>81</ele>
    <time>2016-07-01T10:34:41Z</time>
    </trkpt>
    <trkpt lat="49.81296195" lon="8.46384917">
    <ele>80</ele>
    <time>2016-07-01T10:34:49Z</time>
    </trkpt>
    <trkpt lat="49.812985" lon="8.46371084">
    <ele>80</ele>
    <time>2016-07-01T10:34:51Z</time>
    </trkpt>
    <trkpt lat="49.81297945" lon="8.46376612">
    <ele>80</ele>
    <time>2016-07-01T10:34:52Z</time>
    </trkpt>
    <trkpt lat="49.81300139" lon="8.46337945">
    <ele>79</ele>
    <time>2016-07-01T10:34:58Z</time>
    </trkpt>
    <trkpt lat="49.81303473" lon="8.46289195">
    <ele>77</ele>
    <time>2016-07-01T10:35:05Z</time>
    </trkpt>
    <trkpt lat="49.81311084" lon="8.462615">
    <ele>76</ele>
    <time>2016-07-01T10:35:10Z</time>
    </trkpt>
    <trkpt lat="49.81332389" lon="8.46238278">
    <ele>76</ele>
    <time>2016-07-01T10:35:16Z</time>
    </trkpt>
    <trkpt lat="49.81358167" lon="8.46232251">
    <ele>76</ele>
    <time>2016-07-01T10:35:22Z</time>
    </trkpt>
    <trkpt lat="49.81401834" lon="8.46224806">
    <ele>77</ele>
    <time>2016-07-01T10:35:33Z</time>
    </trkpt>
    <trkpt lat="49.81481862" lon="8.46215639">
    <ele>80</ele>
    <time>2016-07-01T10:35:52Z</time>
    </trkpt>
    <trkpt lat="49.81481056" lon="8.46216417">
    <ele>80</ele>
    <time>2016-07-01T10:35:52Z</time>
    </trkpt>
    <trkpt lat="49.81540528" lon="8.46209306">
    <ele>86</ele>
    <time>2016-07-01T10:36:06Z</time>
    </trkpt>
    <trkpt lat="49.81608306" lon="8.46200278">
    <ele>94</ele>
    <time>2016-07-01T10:36:22Z</time>
    </trkpt>
    <trkpt lat="49.8164575" lon="8.46192528">
    <ele>92</ele>
    <time>2016-07-01T10:36:31Z</time>
    </trkpt>
    <trkpt lat="49.81673639" lon="8.46174723">
    <ele>88</ele>
    <time>2016-07-01T10:36:38Z</time>
    </trkpt>
    <trkpt lat="49.81688445" lon="8.46161695">
    <ele>86</ele>
    <time>2016-07-01T10:36:42Z</time>
    </trkpt>
    <trkpt lat="49.81710834" lon="8.46114556">
    <ele>82</ele>
    <time>2016-07-01T10:36:51Z</time>
    </trkpt>
    <trkpt lat="49.81717806" lon="8.46074917">
    <ele>80</ele>
    <time>2016-07-01T10:36:57Z</time>
    </trkpt>
    <trkpt lat="49.81723417" lon="8.46002223">
    <ele>78</ele>
    <time>2016-07-01T10:37:08Z</time>
    </trkpt>
    <trkpt lat="49.81727973" lon="8.45926834">
    <ele>78</ele>
    <time>2016-07-01T10:37:20Z</time>
    </trkpt>
    <trkpt lat="49.81740501" lon="8.45839417">
    <ele>79</ele>
    <time>2016-07-01T10:37:33Z</time>
    </trkpt>
    <trkpt lat="49.81763084" lon="8.45789639">
    <ele>80</ele>
    <time>2016-07-01T10:37:43Z</time>
    </trkpt>
    <trkpt lat="49.81821556" lon="8.45738112">
    <ele>77</ele>
    <time>2016-07-01T10:37:58Z</time>
    </trkpt>
    <trkpt lat="49.81923528" lon="8.45648389">
    <ele>72</ele>
    <time>2016-07-01T10:38:26Z</time>
    </trkpt>
    <trkpt lat="49.81999945" lon="8.45587612">
    <ele>76</ele>
    <time>2016-07-01T10:38:46Z</time>
    </trkpt>
    <trkpt lat="49.81993945" lon="8.45589445">
    <ele>75</ele>
    <time>2016-07-01T10:38:48Z</time>
    </trkpt>
    <trkpt lat="49.82032778" lon="8.45559473">
    <ele>76</ele>
    <time>2016-07-01T10:38:58Z</time>
    </trkpt>
    <trkpt lat="49.82054556" lon="8.45556223">
    <ele>78</ele>
    <time>2016-07-01T10:39:03Z</time>
    </trkpt>
    <trkpt lat="49.8207975" lon="8.45577695">
    <ele>83</ele>
    <time>2016-07-01T10:39:10Z</time>
    </trkpt>
    <trkpt lat="49.821445" lon="8.45643501">
    <ele>89</ele>
    <time>2016-07-01T10:39:28Z</time>
    </trkpt>
    <trkpt lat="49.82334028" lon="8.45831556">
    <ele>80</ele>
    <time>2016-07-01T10:40:21Z</time>
    </trkpt>
    <trkpt lat="49.82468806" lon="8.4597">
    <ele>74</ele>
    <time>2016-07-01T10:40:59Z</time>
    </trkpt>
    <trkpt lat="49.82545445" lon="8.46040973">
    <ele>87</ele>
    <time>2016-07-01T10:41:20Z</time>
    </trkpt>
    <trkpt lat="49.82603278" lon="8.46099112">
    <ele>93</ele>
    <time>2016-07-01T10:41:37Z</time>
    </trkpt>
    <trkpt lat="49.82663306" lon="8.46167751">
    <ele>94</ele>
    <time>2016-07-01T10:41:54Z</time>
    </trkpt>
    <trkpt lat="49.82688889" lon="8.46208556">
    <ele>94</ele>
    <time>2016-07-01T10:42:03Z</time>
    </trkpt>
    <trkpt lat="49.82690334" lon="8.46388112">
    <ele>91</ele>
    <time>2016-07-01T10:42:30Z</time>
    </trkpt>
    <trkpt lat="49.82721889" lon="8.46565445">
    <ele>85</ele>
    <time>2016-07-01T10:42:58Z</time>
    </trkpt>
    <trkpt lat="49.82743445" lon="8.46645056">
    <ele>85</ele>
    <time>2016-07-01T10:43:11Z</time>
    </trkpt>
    <trkpt lat="49.82823278" lon="8.46649695">
    <ele>83</ele>
    <time>2016-07-01T10:43:30Z</time>
    </trkpt>
    <trkpt lat="49.82816473" lon="8.46650473">
    <ele>83</ele>
    <time>2016-07-01T10:43:32Z</time>
    </trkpt>
    <trkpt lat="49.82829556" lon="8.46651251">
    <ele>83</ele>
    <time>2016-07-01T10:43:35Z</time>
    </trkpt>
    <trkpt lat="49.82851639" lon="8.46664806">
    <ele>84</ele>
    <time>2016-07-01T10:43:40Z</time>
    </trkpt>
    <trkpt lat="49.82891695" lon="8.46703">
    <ele>87</ele>
    <time>2016-07-01T10:43:52Z</time>
    </trkpt>
    <trkpt lat="49.8291975" lon="8.46727528">
    <ele>84</ele>
    <time>2016-07-01T10:43:59Z</time>
    </trkpt>
    <trkpt lat="49.82943695" lon="8.46723445">
    <ele>83</ele>
    <time>2016-07-01T10:44:05Z</time>
    </trkpt>
    <trkpt lat="49.82980306" lon="8.46714556">
    <ele>81</ele>
    <time>2016-07-01T10:44:14Z</time>
    </trkpt>
    <trkpt lat="49.83050334" lon="8.46692667">
    <ele>78</ele>
    <time>2016-07-01T10:44:30Z</time>
    </trkpt>
    <trkpt lat="49.83065362" lon="8.46691001">
    <ele>78</ele>
    <time>2016-07-01T10:44:34Z</time>
    </trkpt>
    <trkpt lat="49.83137973" lon="8.46765612">
    <ele>79</ele>
    <time>2016-07-01T10:44:54Z</time>
    </trkpt>
    <trkpt lat="49.83197084" lon="8.46831112">
    <ele>76</ele>
    <time>2016-07-01T10:45:12Z</time>
    </trkpt>
    <trkpt lat="49.83191056" lon="8.46825806">
    <ele>76</ele>
    <time>2016-07-01T10:45:13Z</time>
    </trkpt>
    <trkpt lat="49.83270973" lon="8.46922695">
    <ele>75</ele>
    <time>2016-07-01T10:45:37Z</time>
    </trkpt>
    <trkpt lat="49.83287112" lon="8.46939862">
    <ele>76</ele>
    <time>2016-07-01T10:45:42Z</time>
    </trkpt>
    <trkpt lat="49.83285917" lon="8.46937112">
    <ele>76</ele>
    <time>2016-07-01T10:45:42Z</time>
    </trkpt>
    <trkpt lat="49.83300751" lon="8.46942389">
    <ele>77</ele>
    <time>2016-07-01T10:45:46Z</time>
    </trkpt>
    <trkpt lat="49.83329278" lon="8.46929778">
    <ele>79</ele>
    <time>2016-07-01T10:45:53Z</time>
    </trkpt>
    <trkpt lat="49.83329556" lon="8.46931945">
    <ele>79</ele>
    <time>2016-07-01T10:45:53Z</time>
    </trkpt>
    <trkpt lat="49.83335834" lon="8.46893139">
    <ele>80</ele>
    <time>2016-07-01T10:45:59Z</time>
    </trkpt>
    <trkpt lat="49.83351778" lon="8.46841667">
    <ele>79</ele>
    <time>2016-07-01T10:46:08Z</time>
    </trkpt>
    <trkpt lat="49.83396334" lon="8.46714112">
    <ele>81</ele>
    <time>2016-07-01T10:46:30Z</time>
    </trkpt>
    <trkpt lat="49.83431917" lon="8.46614973">
    <ele>80</ele>
    <time>2016-07-01T10:46:47Z</time>
    </trkpt>
    <trkpt lat="49.83462084" lon="8.46527473">
    <ele>79</ele>
    <time>2016-07-01T10:47:02Z</time>
    </trkpt>
    <trkpt lat="49.83468556" lon="8.46513584">
    <ele>79</ele>
    <time>2016-07-01T10:47:05Z</time>
    </trkpt>
    <trkpt lat="49.83495639" lon="8.4645075">
    <ele>78</ele>
    <time>2016-07-01T10:47:16Z</time>
    </trkpt>
    <trkpt lat="49.83530445" lon="8.46385028">
    <ele>79</ele>
    <time>2016-07-01T10:47:29Z</time>
    </trkpt>
    <trkpt lat="49.83564695" lon="8.46330389">
    <ele>79</ele>
    <time>2016-07-01T10:47:41Z</time>
    </trkpt>
    <trkpt lat="49.83561556" lon="8.46335278">
    <ele>79</ele>
    <time>2016-07-01T10:47:42Z</time>
    </trkpt>
    <trkpt lat="49.83593362" lon="8.46298973">
    <ele>80</ele>
    <time>2016-07-01T10:47:51Z</time>
    </trkpt>
    <trkpt lat="49.83726528" lon="8.46180889">
    <ele>79</ele>
    <time>2016-07-01T10:48:28Z</time>
    </trkpt>
    <trkpt lat="49.83798112" lon="8.46107917">
    <ele>76</ele>
    <time>2016-07-01T10:48:48Z</time>
    </trkpt>
    <trkpt lat="49.83852556" lon="8.46045667">
    <ele>75</ele>
    <time>2016-07-01T10:49:04Z</time>
    </trkpt>
    <trkpt lat="49.83865251" lon="8.46032139">
    <ele>75</ele>
    <time>2016-07-01T10:49:07Z</time>
    </trkpt>
    <trkpt lat="49.83864334" lon="8.46001612">
    <ele>77</ele>
    <time>2016-07-01T10:49:12Z</time>
    </trkpt>
    <trkpt lat="49.83844584" lon="8.45870223">
    <ele>78</ele>
    <time>2016-07-01T10:49:32Z</time>
    </trkpt>
    <trkpt lat="49.83842" lon="8.45819445">
    <ele>79</ele>
    <time>2016-07-01T10:49:40Z</time>
    </trkpt>
    <trkpt lat="49.83852584" lon="8.45716473">
    <ele>78</ele>
    <time>2016-07-01T10:49:56Z</time>
    </trkpt>
    <trkpt lat="49.83870889" lon="8.45637">
    <ele>79</ele>
    <time>2016-07-01T10:50:09Z</time>
    </trkpt>
    <trkpt lat="49.83877056" lon="8.45589889">
    <ele>79</ele>
    <time>2016-07-01T10:50:16Z</time>
    </trkpt>
    <trkpt lat="49.83876139" lon="8.45452334">
    <ele>80</ele>
    <time>2016-07-01T10:50:37Z</time>
    </trkpt>
    <trkpt lat="49.83862056" lon="8.45352945">
    <ele>82</ele>
    <time>2016-07-01T10:50:53Z</time>
    </trkpt>
    <trkpt lat="49.83863251" lon="8.45298334">
    <ele>82</ele>
    <time>2016-07-01T10:51:01Z</time>
    </trkpt>
    <trkpt lat="49.83882334" lon="8.45163973">
    <ele>80</ele>
    <time>2016-07-01T10:51:22Z</time>
    </trkpt>
    <trkpt lat="49.83885584" lon="8.45127973">
    <ele>80</ele>
    <time>2016-07-01T10:51:28Z</time>
    </trkpt>
    <trkpt lat="49.83915195" lon="8.44940973">
    <ele>78</ele>
    <time>2016-07-01T10:51:57Z</time>
    </trkpt>
    <trkpt lat="49.83959501" lon="8.44704917">
    <ele>79</ele>
    <time>2016-07-01T10:52:34Z</time>
    </trkpt>
    <trkpt lat="49.83970306" lon="8.44534695">
    <ele>80</ele>
    <time>2016-07-01T10:53:00Z</time>
    </trkpt>
    <trkpt lat="49.84005" lon="8.44306973">
    <ele>78</ele>
    <time>2016-07-01T10:53:36Z</time>
    </trkpt>
    <trkpt lat="49.84010195" lon="8.44256973">
    <ele>80</ele>
    <time>2016-07-01T10:53:44Z</time>
    </trkpt>
    <trkpt lat="49.84012584" lon="8.44262445">
    <ele>80</ele>
    <time>2016-07-01T10:53:45Z</time>
    </trkpt>
    <trkpt lat="49.84008028" lon="8.44101417">
    <ele>82</ele>
    <time>2016-07-01T10:54:09Z</time>
    </trkpt>
    <trkpt lat="49.83989612" lon="8.43989223">
    <ele>80</ele>
    <time>2016-07-01T10:54:27Z</time>
    </trkpt>
    <trkpt lat="49.839805" lon="8.43914389">
    <ele>77</ele>
    <time>2016-07-01T10:54:38Z</time>
    </trkpt>
    <trkpt lat="49.83977639" lon="8.43866001">
    <ele>73</ele>
    <time>2016-07-01T10:54:46Z</time>
    </trkpt>
    <trkpt lat="49.83963584" lon="8.43861223">
    <ele>71</ele>
    <time>2016-07-01T10:54:49Z</time>
    </trkpt>
    <trkpt lat="49.83891501" lon="8.43880362">
    <ele>70</ele>
    <time>2016-07-01T10:55:06Z</time>
    </trkpt>
    <trkpt lat="49.8387325" lon="8.43833973">
    <ele>68</ele>
    <time>2016-07-01T10:55:15Z</time>
    </trkpt>
    <trkpt lat="49.83842195" lon="8.437375">
    <ele>65</ele>
    <time>2016-07-01T10:55:31Z</time>
    </trkpt>
    <trkpt lat="49.83774834" lon="8.43523473">
    <ele>78</ele>
    <time>2016-07-01T10:56:07Z</time>
    </trkpt>
    <trkpt lat="49.83742473" lon="8.43419501">
    <ele>77</ele>
    <time>2016-07-01T10:56:25Z</time>
    </trkpt>
    <trkpt lat="49.83737445" lon="8.43269028">
    <ele>74</ele>
    <time>2016-07-01T10:56:48Z</time>
    </trkpt>
    <trkpt lat="49.83654889" lon="8.43276028">
    <ele>73</ele>
    <time>2016-07-01T10:57:07Z</time>
    </trkpt>
    <trkpt lat="49.83580556" lon="8.43278778">
    <ele>71</ele>
    <time>2016-07-01T10:57:25Z</time>
    </trkpt>
    <trkpt lat="49.83547195" lon="8.43278195">
    <ele>74</ele>
    <time>2016-07-01T10:57:33Z</time>
    </trkpt>
    <trkpt lat="49.8349075" lon="8.43260362">
    <ele>77</ele>
    <time>2016-07-01T10:57:46Z</time>
    </trkpt>
    <trkpt lat="49.83396362" lon="8.43215584">
    <ele>78</ele>
    <time>2016-07-01T10:58:10Z</time>
    </trkpt>
    <trkpt lat="49.83365362" lon="8.43195584">
    <ele>77</ele>
    <time>2016-07-01T10:58:18Z</time>
    </trkpt>
    <trkpt lat="49.83333778" lon="8.43171834">
    <ele>78</ele>
    <time>2016-07-01T10:58:26Z</time>
    </trkpt>
    <trkpt lat="49.83331806" lon="8.43158389">
    <ele>79</ele>
    <time>2016-07-01T10:58:28Z</time>
    </trkpt>
    <trkpt lat="49.83338223" lon="8.43127945">
    <ele>76</ele>
    <time>2016-07-01T10:58:33Z</time>
    </trkpt>
    <trkpt lat="49.83341723" lon="8.43115945">
    <ele>76</ele>
    <time>2016-07-01T10:58:35Z</time>
    </trkpt>
    <trkpt lat="49.83335306" lon="8.43102362">
    <ele>75</ele>
    <time>2016-07-01T10:58:37Z</time>
    </trkpt>
    <trkpt lat="49.83253723" lon="8.43011862">
    <ele>80</ele>
    <time>2016-07-01T10:59:01Z</time>
    </trkpt>
    <trkpt lat="49.83207028" lon="8.42952862">
    <ele>79</ele>
    <time>2016-07-01T10:59:15Z</time>
    </trkpt>
    <trkpt lat="49.83163167" lon="8.42889389">
    <ele>82</ele>
    <time>2016-07-01T10:59:29Z</time>
    </trkpt>
    <trkpt lat="49.83128473" lon="8.42825945">
    <ele>83</ele>
    <time>2016-07-01T10:59:42Z</time>
    </trkpt>
    <trkpt lat="49.83109223" lon="8.42780167">
    <ele>84</ele>
    <time>2016-07-01T10:59:50Z</time>
    </trkpt>
    <trkpt lat="49.83056862" lon="8.42668251">
    <ele>85</ele>
    <time>2016-07-01T11:00:11Z</time>
    </trkpt>
    <trkpt lat="49.83008834" lon="8.42551945">
    <ele>84</ele>
    <time>2016-07-01T11:00:32Z</time>
    </trkpt>
    <trkpt lat="49.82996639" lon="8.42516584">
    <ele>83</ele>
    <time>2016-07-01T11:00:38Z</time>
    </trkpt>
    <trkpt lat="49.82974945" lon="8.42463473">
    <ele>82</ele>
    <time>2016-07-01T11:00:48Z</time>
    </trkpt>
    <trkpt lat="49.82961417" lon="8.42394528">
    <ele>80</ele>
    <time>2016-07-01T11:00:59Z</time>
    </trkpt>
    <trkpt lat="49.82941528" lon="8.42230445">
    <ele>77</ele>
    <time>2016-07-01T11:01:24Z</time>
    </trkpt>
    <trkpt lat="49.82917889" lon="8.42160862">
    <ele>76</ele>
    <time>2016-07-01T11:01:36Z</time>
    </trkpt>
    <trkpt lat="49.82928667" lon="8.42129223">
    <ele>76</ele>
    <time>2016-07-01T11:01:42Z</time>
    </trkpt>
    <trkpt lat="49.82961445" lon="8.42023056">
    <ele>77</ele>
    <time>2016-07-01T11:02:00Z</time>
    </trkpt>
    <trkpt lat="49.83006528" lon="8.41874417">
    <ele>81</ele>
    <time>2016-07-01T11:02:25Z</time>
    </trkpt>
    <trkpt lat="49.83028834" lon="8.41814362">
    <ele>85</ele>
    <time>2016-07-01T11:02:35Z</time>
    </trkpt>
    <trkpt lat="49.83027751" lon="8.41810889">
    <ele>84</ele>
    <time>2016-07-01T11:02:36Z</time>
    </trkpt>
    <trkpt lat="49.83017389" lon="8.41793112">
    <ele>84</ele>
    <time>2016-07-01T11:02:40Z</time>
    </trkpt>
    <trkpt lat="49.82967139" lon="8.41744445">
    <ele>80</ele>
    <time>2016-07-01T11:02:54Z</time>
    </trkpt>
    <trkpt lat="49.82903278" lon="8.417285">
    <ele>75</ele>
    <time>2016-07-01T11:03:09Z</time>
    </trkpt>
    <trkpt lat="49.82802834" lon="8.41696389">
    <ele>87</ele>
    <time>2016-07-01T11:03:33Z</time>
    </trkpt>
    <trkpt lat="49.82784417" lon="8.41634862">
    <ele>95</ele>
    <time>2016-07-01T11:03:43Z</time>
    </trkpt>
    <trkpt lat="49.82754612" lon="8.41524417">
    <ele>99</ele>
    <time>2016-07-01T11:04:01Z</time>
    </trkpt>
    <trkpt lat="49.82751639" lon="8.415235">
    <ele>99</ele>
    <time>2016-07-01T11:04:02Z</time>
    </trkpt>
    <trkpt lat="49.82700195" lon="8.41417278">
    <ele>100</ele>
    <time>2016-07-01T11:04:22Z</time>
    </trkpt>
    <trkpt lat="49.82636389" lon="8.41277334">
    <ele>101</ele>
    <time>2016-07-01T11:04:48Z</time>
    </trkpt>
    <trkpt lat="49.82580195" lon="8.41154917">
    <ele>98</ele>
    <time>2016-07-01T11:05:11Z</time>
    </trkpt>
    <trkpt lat="49.82517278" lon="8.41020306">
    <ele>82</ele>
    <time>2016-07-01T11:05:37Z</time>
    </trkpt>
    <trkpt lat="49.82319667" lon="8.40607612">
    <ele>104</ele>
    <time>2016-07-01T11:06:55Z</time>
    </trkpt>
    <trkpt lat="49.82205639" lon="8.40356139">
    <ele>94</ele>
    <time>2016-07-01T11:07:42Z</time>
    </trkpt>
    <trkpt lat="49.82205445" lon="8.40355334">
    <ele>94</ele>
    <time>2016-07-01T11:07:42Z</time>
    </trkpt>
    <trkpt lat="49.82314195" lon="8.40170195">
    <ele>96</ele>
    <time>2016-07-01T11:08:20Z</time>
    </trkpt>
    <trkpt lat="49.82532473" lon="8.39806056">
    <ele>90</ele>
    <time>2016-07-01T11:09:36Z</time>
    </trkpt>
    <trkpt lat="49.82613417" lon="8.39676528">
    <ele>95</ele>
    <time>2016-07-01T11:10:03Z</time>
    </trkpt>
    <trkpt lat="49.82660528" lon="8.39601223">
    <ele>97</ele>
    <time>2016-07-01T11:10:19Z</time>
    </trkpt>
    <trkpt lat="49.82691084" lon="8.39558639">
    <ele>99</ele>
    <time>2016-07-01T11:10:29Z</time>
    </trkpt>
    <trkpt lat="49.82717389" lon="8.39551751">
    <ele>101</ele>
    <time>2016-07-01T11:10:35Z</time>
    </trkpt>
    <trkpt lat="49.82833889" lon="8.39570445">
    <ele>101</ele>
    <time>2016-07-01T11:11:02Z</time>
    </trkpt>
    <trkpt lat="49.82978778" lon="8.39594584">
    <ele>92</ele>
    <time>2016-07-01T11:11:37Z</time>
    </trkpt>
    <trkpt lat="49.83076612" lon="8.39635584">
    <ele>84</ele>
    <time>2016-07-01T11:12:01Z</time>
    </trkpt>
    <trkpt lat="49.83191139" lon="8.39689362">
    <ele>86</ele>
    <time>2016-07-01T11:12:29Z</time>
    </trkpt>
    <trkpt lat="49.83223334" lon="8.39700917">
    <ele>90</ele>
    <time>2016-07-01T11:12:37Z</time>
    </trkpt>
    <trkpt lat="49.83312112" lon="8.39738389">
    <ele>91</ele>
    <time>2016-07-01T11:12:58Z</time>
    </trkpt>
    <trkpt lat="49.83411112" lon="8.39769417">
    <ele>81</ele>
    <time>2016-07-01T11:13:22Z</time>
    </trkpt>
    <trkpt lat="49.83520695" lon="8.39800445">
    <ele>78</ele>
    <time>2016-07-01T11:13:48Z</time>
    </trkpt>
    <trkpt lat="49.83580889" lon="8.39810528">
    <ele>77</ele>
    <time>2016-07-01T11:14:03Z</time>
    </trkpt>
    <trkpt lat="49.83604084" lon="8.39806584">
    <ele>79</ele>
    <time>2016-07-01T11:14:08Z</time>
    </trkpt>
    <trkpt lat="49.83668195" lon="8.39780945">
    <ele>82</ele>
    <time>2016-07-01T11:14:24Z</time>
    </trkpt>
    <trkpt lat="49.83700945" lon="8.39782362">
    <ele>83</ele>
    <time>2016-07-01T11:14:31Z</time>
    </trkpt>
    <trkpt lat="49.83742112" lon="8.39804862">
    <ele>86</ele>
    <time>2016-07-01T11:14:42Z</time>
    </trkpt>
    <trkpt lat="49.837725" lon="8.39813695">
    <ele>87</ele>
    <time>2016-07-01T11:14:49Z</time>
    </trkpt>
    <trkpt lat="49.83810556" lon="8.39807695">
    <ele>84</ele>
    <time>2016-07-01T11:14:58Z</time>
    </trkpt>
    <trkpt lat="49.83812362" lon="8.39813195">
    <ele>85</ele>
    <time>2016-07-01T11:14:59Z</time>
    </trkpt>
    <trkpt lat="49.83843862" lon="8.39804528">
    <ele>80</ele>
    <time>2016-07-01T11:15:06Z</time>
    </trkpt>
    <trkpt lat="49.8388425" lon="8.39791139">
    <ele>77</ele>
    <time>2016-07-01T11:15:16Z</time>
    </trkpt>
    <trkpt lat="49.83960417" lon="8.39794778">
    <ele>70</ele>
    <time>2016-07-01T11:15:34Z</time>
    </trkpt>
    <trkpt lat="49.84074695" lon="8.39806389">
    <ele>67</ele>
    <time>2016-07-01T11:16:01Z</time>
    </trkpt>
    <trkpt lat="49.84247556" lon="8.39822695">
    <ele>66</ele>
    <time>2016-07-01T11:16:42Z</time>
    </trkpt>
    <trkpt lat="49.84319501" lon="8.39849223">
    <ele>71</ele>
    <time>2016-07-01T11:16:59Z</time>
    </trkpt>
    <trkpt lat="49.84366084" lon="8.39872695">
    <ele>73</ele>
    <time>2016-07-01T11:17:11Z</time>
    </trkpt>
    <trkpt lat="49.8436125" lon="8.39869862">
    <ele>73</ele>
    <time>2016-07-01T11:17:12Z</time>
    </trkpt>
    <trkpt lat="49.84385112" lon="8.39882445">
    <ele>73</ele>
    <time>2016-07-01T11:17:18Z</time>
    </trkpt>
    <trkpt lat="49.84431028" lon="8.39898445">
    <ele>67</ele>
    <time>2016-07-01T11:17:29Z</time>
    </trkpt>
    <trkpt lat="49.84457223" lon="8.39902723">
    <ele>66</ele>
    <time>2016-07-01T11:17:35Z</time>
    </trkpt>
    <trkpt lat="49.84476723" lon="8.39903751">
    <ele>67</ele>
    <time>2016-07-01T11:17:40Z</time>
    </trkpt>
    <trkpt lat="49.84561945" lon="8.39901417">
    <ele>67</ele>
    <time>2016-07-01T11:18:00Z</time>
    </trkpt>
    <trkpt lat="49.84591695" lon="8.39901973">
    <ele>67</ele>
    <time>2016-07-01T11:18:07Z</time>
    </trkpt>
    <trkpt lat="49.84621945" lon="8.39922417">
    <ele>68</ele>
    <time>2016-07-01T11:18:15Z</time>
    </trkpt>
    <trkpt lat="49.84667473" lon="8.3999075">
    <ele>74</ele>
    <time>2016-07-01T11:18:30Z</time>
    </trkpt>
    <trkpt lat="49.84667112" lon="8.39990278">
    <ele>74</ele>
    <time>2016-07-01T11:18:30Z</time>
    </trkpt>
    <trkpt lat="49.84685445" lon="8.39968889">
    <ele>73</ele>
    <time>2016-07-01T11:18:35Z</time>
    </trkpt>
    <trkpt lat="49.84715" lon="8.39930806">
    <ele>70</ele>
    <time>2016-07-01T11:18:44Z</time>
    </trkpt>
    <trkpt lat="49.84735695" lon="8.39906612">
    <ele>67</ele>
    <time>2016-07-01T11:18:50Z</time>
    </trkpt>
    <trkpt lat="49.84746417" lon="8.39906501">
    <ele>67</ele>
    <time>2016-07-01T11:18:53Z</time>
    </trkpt>
    <trkpt lat="49.84780945" lon="8.39911584">
    <ele>66</ele>
    <time>2016-07-01T11:19:01Z</time>
    </trkpt>
    <trkpt lat="49.84803556" lon="8.39908528">
    <ele>66</ele>
    <time>2016-07-01T11:19:06Z</time>
    </trkpt>
    <trkpt lat="49.84848862" lon="8.39896195">
    <ele>66</ele>
    <time>2016-07-01T11:19:17Z</time>
    </trkpt>
    <trkpt lat="49.84893278" lon="8.39888112">
    <ele>66</ele>
    <time>2016-07-01T11:19:28Z</time>
    </trkpt>
    <trkpt lat="49.84960417" lon="8.39868862">
    <ele>68</ele>
    <time>2016-07-01T11:19:44Z</time>
    </trkpt>
    <trkpt lat="49.85009167" lon="8.39857223">
    <ele>69</ele>
    <time>2016-07-01T11:19:55Z</time>
    </trkpt>
    <trkpt lat="49.85011862" lon="8.39857195">
    <ele>69</ele>
    <time>2016-07-01T11:19:56Z</time>
    </trkpt>
    <trkpt lat="49.85059862" lon="8.39845001">
    <ele>71</ele>
    <time>2016-07-01T11:20:08Z</time>
    </trkpt>
    <trkpt lat="49.85095945" lon="8.39839584">
    <ele>72</ele>
    <time>2016-07-01T11:20:16Z</time>
    </trkpt>
    <trkpt lat="49.85116112" lon="8.39829195">
    <ele>72</ele>
    <time>2016-07-01T11:20:21Z</time>
    </trkpt>
    <trkpt lat="49.85169973" lon="8.39772389">
    <ele>74</ele>
    <time>2016-07-01T11:20:36Z</time>
    </trkpt>
    <trkpt lat="49.85224278" lon="8.39691667">
    <ele>77</ele>
    <time>2016-07-01T11:20:54Z</time>
    </trkpt>
    <trkpt lat="49.85263195" lon="8.39625834">
    <ele>81</ele>
    <time>2016-07-01T11:21:08Z</time>
    </trkpt>
    <trkpt lat="49.85279723" lon="8.39597112">
    <ele>82</ele>
    <time>2016-07-01T11:21:14Z</time>
    </trkpt>
    <trkpt lat="49.85279723" lon="8.39597112">
    <ele>82</ele>
    <time>2016-07-01T11:21:14Z</time>
    </trkpt>
    <trkpt lat="49.85290334" lon="8.39576723">
    <ele>81</ele>
    <time>2016-07-01T11:21:18Z</time>
    </trkpt>
    <trkpt lat="49.85309778" lon="8.39541528">
    <ele>79</ele>
    <time>2016-07-01T11:21:25Z</time>
    </trkpt>
    <trkpt lat="49.85317417" lon="8.39522084">
    <ele>77</ele>
    <time>2016-07-01T11:21:28Z</time>
    </trkpt>
    <trkpt lat="49.85337889" lon="8.39458334">
    <ele>75</ele>
    <time>2016-07-01T11:21:39Z</time>
    </trkpt>
    <trkpt lat="49.85370167" lon="8.39371417">
    <ele>74</ele>
    <time>2016-07-01T11:21:54Z</time>
    </trkpt>
    <trkpt lat="49.85392473" lon="8.39311334">
    <ele>77</ele>
    <time>2016-07-01T11:22:05Z</time>
    </trkpt>
    <trkpt lat="49.85421112" lon="8.39211584">
    <ele>80</ele>
    <time>2016-07-01T11:22:21Z</time>
    </trkpt>
    <trkpt lat="49.85447417" lon="8.39124751">
    <ele>80</ele>
    <time>2016-07-01T11:22:36Z</time>
    </trkpt>
    <trkpt lat="49.85461473" lon="8.39082223">
    <ele>80</ele>
    <time>2016-07-01T11:22:43Z</time>
    </trkpt>
    <trkpt lat="49.85472139" lon="8.39071056">
    <ele>80</ele>
    <time>2016-07-01T11:22:46Z</time>
    </trkpt>
    <trkpt lat="49.85494639" lon="8.39053278">
    <ele>79</ele>
    <time>2016-07-01T11:22:52Z</time>
    </trkpt>
    <trkpt lat="49.85518195" lon="8.39028056">
    <ele>78</ele>
    <time>2016-07-01T11:22:59Z</time>
    </trkpt>
    <trkpt lat="49.85623" lon="8.38910862">
    <ele>77</ele>
    <time>2016-07-01T11:23:29Z</time>
    </trkpt>
    <trkpt lat="49.85671556" lon="8.38855695">
    <ele>78</ele>
    <time>2016-07-01T11:23:44Z</time>
    </trkpt>
    <trkpt lat="49.85756806" lon="8.38754639">
    <ele>77</ele>
    <time>2016-07-01T11:24:09Z</time>
    </trkpt>
    <trkpt lat="49.85864889" lon="8.38613556">
    <ele>78</ele>
    <time>2016-07-01T11:24:42Z</time>
    </trkpt>
    <trkpt lat="49.85896056" lon="8.38562251">
    <ele>79</ele>
    <time>2016-07-01T11:24:53Z</time>
    </trkpt>
    <trkpt lat="49.85928334" lon="8.38477362">
    <ele>78</ele>
    <time>2016-07-01T11:25:08Z</time>
    </trkpt>
    <trkpt lat="49.86025306" lon="8.38214889">
    <ele>77</ele>
    <time>2016-07-01T11:25:54Z</time>
    </trkpt>
    <trkpt lat="49.86077889" lon="8.38070278">
    <ele>76</ele>
    <time>2016-07-01T11:26:19Z</time>
    </trkpt>
    <trkpt lat="49.86141639" lon="8.37903223">
    <ele>75</ele>
    <time>2016-07-01T11:26:49Z</time>
    </trkpt>
    <trkpt lat="49.86151862" lon="8.37882501">
    <ele>74</ele>
    <time>2016-07-01T11:26:53Z</time>
    </trkpt>
    <trkpt lat="49.86194056" lon="8.37816528">
    <ele>74</ele>
    <time>2016-07-01T11:27:07Z</time>
    </trkpt>
    <trkpt lat="49.86294501" lon="8.37686223">
    <ele>73</ele>
    <time>2016-07-01T11:27:38Z</time>
    </trkpt>
    <trkpt lat="49.86332695" lon="8.37641528">
    <ele>73</ele>
    <time>2016-07-01T11:27:49Z</time>
    </trkpt>
    <trkpt lat="49.86378278" lon="8.37608973">
    <ele>73</ele>
    <time>2016-07-01T11:28:01Z</time>
    </trkpt>
    <trkpt lat="49.86431112" lon="8.37557862">
    <ele>73</ele>
    <time>2016-07-01T11:28:16Z</time>
    </trkpt>
    <trkpt lat="49.8647" lon="8.37518501">
    <ele>73</ele>
    <time>2016-07-01T11:28:26Z</time>
    </trkpt>
    <trkpt lat="49.86507889" lon="8.37461223">
    <ele>75</ele>
    <time>2016-07-01T11:28:39Z</time>
    </trkpt>
    <trkpt lat="49.86576723" lon="8.37335834">
    <ele>77</ele>
    <time>2016-07-01T11:29:04Z</time>
    </trkpt>
    <trkpt lat="49.86632195" lon="8.37250362">
    <ele>77</ele>
    <time>2016-07-01T11:29:22Z</time>
    </trkpt>
    <trkpt lat="49.86686389" lon="8.37163417">
    <ele>76</ele>
    <time>2016-07-01T11:29:41Z</time>
    </trkpt>
    <trkpt lat="49.86703445" lon="8.37110445">
    <ele>75</ele>
    <time>2016-07-01T11:29:50Z</time>
    </trkpt>
    <trkpt lat="49.86714028" lon="8.37090834">
    <ele>74</ele>
    <time>2016-07-01T11:29:54Z</time>
    </trkpt>
    <trkpt lat="49.86740584" lon="8.37049223">
    <ele>71</ele>
    <time>2016-07-01T11:30:03Z</time>
    </trkpt>
    <trkpt lat="49.86774778" lon="8.369985">
    <ele>72</ele>
    <time>2016-07-01T11:30:14Z</time>
    </trkpt>
    <trkpt lat="49.86827528" lon="8.36947834">
    <ele>78</ele>
    <time>2016-07-01T11:30:28Z</time>
    </trkpt>
    <trkpt lat="49.86880945" lon="8.36939778">
    <ele>82</ele>
    <time>2016-07-01T11:30:41Z</time>
    </trkpt>
    <trkpt lat="49.86874473" lon="8.36931889">
    <ele>82</ele>
    <time>2016-07-01T11:30:43Z</time>
    </trkpt>
    <trkpt lat="49.86916639" lon="8.36925417">
    <ele>81</ele>
    <time>2016-07-01T11:30:53Z</time>
    </trkpt>
    <trkpt lat="49.86943362" lon="8.36917695">
    <ele>78</ele>
    <time>2016-07-01T11:30:59Z</time>
    </trkpt>
    <trkpt lat="49.86999612" lon="8.36909723">
    <ele>75</ele>
    <time>2016-07-01T11:31:13Z</time>
    </trkpt>
    <trkpt lat="49.87070556" lon="8.36883306">
    <ele>69</ele>
    <time>2016-07-01T11:31:30Z</time>
    </trkpt>
    <trkpt lat="49.87161306" lon="8.36855473">
    <ele>75</ele>
    <time>2016-07-01T11:31:52Z</time>
    </trkpt>
    <trkpt lat="49.87240501" lon="8.36849389">
    <ele>72</ele>
    <time>2016-07-01T11:32:10Z</time>
    </trkpt>
    <trkpt lat="49.87257723" lon="8.36843639">
    <ele>72</ele>
    <time>2016-07-01T11:32:14Z</time>
    </trkpt>
    <trkpt lat="49.87315917" lon="8.36833112">
    <ele>76</ele>
    <time>2016-07-01T11:32:28Z</time>
    </trkpt>
    <trkpt lat="49.8741175" lon="8.36764306">
    <ele>75</ele>
    <time>2016-07-01T11:32:53Z</time>
    </trkpt>
    <trkpt lat="49.87470112" lon="8.36725695">
    <ele>76</ele>
    <time>2016-07-01T11:33:08Z</time>
    </trkpt>
    <trkpt lat="49.87486112" lon="8.36717278">
    <ele>75</ele>
    <time>2016-07-01T11:33:12Z</time>
    </trkpt>
    <trkpt lat="49.87531306" lon="8.36671278">
    <ele>74</ele>
    <time>2016-07-01T11:33:25Z</time>
    </trkpt>
    <trkpt lat="49.87646612" lon="8.36621584">
    <ele>68</ele>
    <time>2016-07-01T11:33:53Z</time>
    </trkpt>
    <trkpt lat="49.87693834" lon="8.36608723">
    <ele>70</ele>
    <time>2016-07-01T11:34:04Z</time>
    </trkpt>
    <trkpt lat="49.87882945" lon="8.36529917">
    <ele>73</ele>
    <time>2016-07-01T11:34:50Z</time>
    </trkpt>
    <trkpt lat="49.87942167" lon="8.36498612">
    <ele>75</ele>
    <time>2016-07-01T11:35:05Z</time>
    </trkpt>
    <trkpt lat="49.87978028" lon="8.36506223">
    <ele>72</ele>
    <time>2016-07-01T11:35:14Z</time>
    </trkpt>
    <trkpt lat="49.88003445" lon="8.36503389">
    <ele>69</ele>
    <time>2016-07-01T11:35:20Z</time>
    </trkpt>
    <trkpt lat="49.88021584" lon="8.36494806">
    <ele>67</ele>
    <time>2016-07-01T11:35:24Z</time>
    </trkpt>
    <trkpt lat="49.8803875" lon="8.36476167">
    <ele>67</ele>
    <time>2016-07-01T11:35:29Z</time>
    </trkpt>
    <trkpt lat="49.88049417" lon="8.36470501">
    <ele>68</ele>
    <time>2016-07-01T11:35:32Z</time>
    </trkpt>
    <trkpt lat="49.88099306" lon="8.36453278">
    <ele>66</ele>
    <time>2016-07-01T11:35:44Z</time>
    </trkpt>
    <trkpt lat="49.88143278" lon="8.36436112">
    <ele>67</ele>
    <time>2016-07-01T11:35:54Z</time>
    </trkpt>
    <trkpt lat="49.88197695" lon="8.36399139">
    <ele>71</ele>
    <time>2016-07-01T11:36:08Z</time>
    </trkpt>
    <trkpt lat="49.88228612" lon="8.36377001">
    <ele>72</ele>
    <time>2016-07-01T11:36:16Z</time>
    </trkpt>
    <trkpt lat="49.88282223" lon="8.36309417">
    <ele>71</ele>
    <time>2016-07-01T11:36:33Z</time>
    </trkpt>
    <trkpt lat="49.88363139" lon="8.36239445">
    <ele>71</ele>
    <time>2016-07-01T11:36:55Z</time>
    </trkpt>
    <trkpt lat="49.88498362" lon="8.361175">
    <ele>69</ele>
    <time>2016-07-01T11:37:31Z</time>
    </trkpt>
    <trkpt lat="49.88633167" lon="8.35978806">
    <ele>67</ele>
    <time>2016-07-01T11:38:10Z</time>
    </trkpt>
    <trkpt lat="49.88678473" lon="8.35950195">
    <ele>68</ele>
    <time>2016-07-01T11:38:21Z</time>
    </trkpt>
    <trkpt lat="49.88726889" lon="8.35909834">
    <ele>68</ele>
    <time>2016-07-01T11:38:34Z</time>
    </trkpt>
    <trkpt lat="49.88823056" lon="8.35868806">
    <ele>70</ele>
    <time>2016-07-01T11:38:57Z</time>
    </trkpt>
    <trkpt lat="49.88878556" lon="8.35832417">
    <ele>72</ele>
    <time>2016-07-01T11:39:12Z</time>
    </trkpt>
    <trkpt lat="49.88964917" lon="8.35779723">
    <ele>76</ele>
    <time>2016-07-01T11:39:34Z</time>
    </trkpt>
    <trkpt lat="49.89038584" lon="8.35723834">
    <ele>76</ele>
    <time>2016-07-01T11:39:53Z</time>
    </trkpt>
    <trkpt lat="49.89053834" lon="8.35720528">
    <ele>75</ele>
    <time>2016-07-01T11:39:56Z</time>
    </trkpt>
    <trkpt lat="49.89100723" lon="8.35724945">
    <ele>74</ele>
    <time>2016-07-01T11:40:08Z</time>
    </trkpt>
    <trkpt lat="49.89223195" lon="8.35682639">
    <ele>68</ele>
    <time>2016-07-01T11:40:37Z</time>
    </trkpt>
    <trkpt lat="49.89306751" lon="8.35650723">
    <ele>65</ele>
    <time>2016-07-01T11:40:57Z</time>
    </trkpt>
    <trkpt lat="49.89351501" lon="8.35643806">
    <ele>61</ele>
    <time>2016-07-01T11:41:08Z</time>
    </trkpt>
    <trkpt lat="49.89429389" lon="8.35636056">
    <ele>69</ele>
    <time>2016-07-01T11:41:26Z</time>
    </trkpt>
    <trkpt lat="49.89477862" lon="8.35633112">
    <ele>73</ele>
    <time>2016-07-01T11:41:38Z</time>
    </trkpt>
    <trkpt lat="49.89520251" lon="8.35631889">
    <ele>77</ele>
    <time>2016-07-01T11:41:48Z</time>
    </trkpt>
    <trkpt lat="49.89527584" lon="8.35636862">
    <ele>77</ele>
    <time>2016-07-01T11:41:50Z</time>
    </trkpt>
    <trkpt lat="49.89521889" lon="8.35633917">
    <ele>77</ele>
    <time>2016-07-01T11:41:51Z</time>
    </trkpt>
    <trkpt lat="49.89628389" lon="8.35673028">
    <ele>82</ele>
    <time>2016-07-01T11:42:17Z</time>
    </trkpt>
    <trkpt lat="49.897625" lon="8.35719251">
    <ele>76</ele>
    <time>2016-07-01T11:42:49Z</time>
    </trkpt>
    <trkpt lat="49.89785723" lon="8.35730139">
    <ele>76</ele>
    <time>2016-07-01T11:42:55Z</time>
    </trkpt>
    <trkpt lat="49.89820917" lon="8.35742584">
    <ele>77</ele>
    <time>2016-07-01T11:43:03Z</time>
    </trkpt>
    <trkpt lat="49.89864973" lon="8.35749362">
    <ele>78</ele>
    <time>2016-07-01T11:43:14Z</time>
    </trkpt>
    <trkpt lat="49.89905473" lon="8.35766362">
    <ele>78</ele>
    <time>2016-07-01T11:43:24Z</time>
    </trkpt>
    <trkpt lat="49.90009945" lon="8.35819278">
    <ele>75</ele>
    <time>2016-07-01T11:43:50Z</time>
    </trkpt>
    <trkpt lat="49.90061834" lon="8.35842556">
    <ele>73</ele>
    <time>2016-07-01T11:44:02Z</time>
    </trkpt>
    <trkpt lat="49.90144195" lon="8.35871889">
    <ele>72</ele>
    <time>2016-07-01T11:44:22Z</time>
    </trkpt>
    <trkpt lat="49.90261528" lon="8.35909001">
    <ele>74</ele>
    <time>2016-07-01T11:44:50Z</time>
    </trkpt>
    <trkpt lat="49.9035775" lon="8.35945501">
    <ele>81</ele>
    <time>2016-07-01T11:45:14Z</time>
    </trkpt>
    <trkpt lat="49.90375139" lon="8.35954639">
    <ele>82</ele>
    <time>2016-07-01T11:45:18Z</time>
    </trkpt>
    <trkpt lat="49.90401139" lon="8.35977167">
    <ele>83</ele>
    <time>2016-07-01T11:45:25Z</time>
    </trkpt>
    <trkpt lat="49.90450139" lon="8.36008889">
    <ele>80</ele>
    <time>2016-07-01T11:45:38Z</time>
    </trkpt>
    <trkpt lat="49.90468556" lon="8.36011278">
    <ele>79</ele>
    <time>2016-07-01T11:45:42Z</time>
    </trkpt>
    <trkpt lat="49.90556306" lon="8.36059862">
    <ele>80</ele>
    <time>2016-07-01T11:46:04Z</time>
    </trkpt>
    <trkpt lat="49.90593167" lon="8.36083667">
    <ele>81</ele>
    <time>2016-07-01T11:46:13Z</time>
    </trkpt>
    <trkpt lat="49.90650612" lon="8.36114806">
    <ele>86</ele>
    <time>2016-07-01T11:46:28Z</time>
    </trkpt>
    <trkpt lat="49.90728167" lon="8.36149723">
    <ele>85</ele>
    <time>2016-07-01T11:46:47Z</time>
    </trkpt>
    <trkpt lat="49.90839834" lon="8.36221945">
    <ele>88</ele>
    <time>2016-07-01T11:47:15Z</time>
    </trkpt>
    <trkpt lat="49.90922945" lon="8.36279528">
    <ele>97</ele>
    <time>2016-07-01T11:47:37Z</time>
    </trkpt>
    <trkpt lat="49.90975251" lon="8.36323751">
    <ele>98</ele>
    <time>2016-07-01T11:47:51Z</time>
    </trkpt>
    <trkpt lat="49.91012556" lon="8.36361556">
    <ele>95</ele>
    <time>2016-07-01T11:48:01Z</time>
    </trkpt>
    <trkpt lat="49.91084917" lon="8.36385306">
    <ele>87</ele>
    <time>2016-07-01T11:48:19Z</time>
    </trkpt>
    <trkpt lat="49.91129917" lon="8.36420334">
    <ele>85</ele>
    <time>2016-07-01T11:48:30Z</time>
    </trkpt>
    <trkpt lat="49.91161778" lon="8.36428973">
    <ele>89</ele>
    <time>2016-07-01T11:48:38Z</time>
    </trkpt>
    <trkpt lat="49.91231" lon="8.36463556">
    <ele>82</ele>
    <time>2016-07-01T11:48:55Z</time>
    </trkpt>
    <trkpt lat="49.91248195" lon="8.36476417">
    <ele>81</ele>
    <time>2016-07-01T11:49:00Z</time>
    </trkpt>
    <trkpt lat="49.9127775" lon="8.36477362">
    <ele>78</ele>
    <time>2016-07-01T11:49:07Z</time>
    </trkpt>
    <trkpt lat="49.91323445" lon="8.36501751">
    <ele>78</ele>
    <time>2016-07-01T11:49:18Z</time>
    </trkpt>
    <trkpt lat="49.91407945" lon="8.36562056">
    <ele>84</ele>
    <time>2016-07-01T11:49:40Z</time>
    </trkpt>
    <trkpt lat="49.91429056" lon="8.36579084">
    <ele>83</ele>
    <time>2016-07-01T11:49:46Z</time>
    </trkpt>
    <trkpt lat="49.91462445" lon="8.36606167">
    <ele>82</ele>
    <time>2016-07-01T11:49:54Z</time>
    </trkpt>
    <trkpt lat="49.91486389" lon="8.36619778">
    <ele>83</ele>
    <time>2016-07-01T11:50:00Z</time>
    </trkpt>
    <trkpt lat="49.91503112" lon="8.36631556">
    <ele>83</ele>
    <time>2016-07-01T11:50:05Z</time>
    </trkpt>
    <trkpt lat="49.91517473" lon="8.3664425">
    <ele>82</ele>
    <time>2016-07-01T11:50:09Z</time>
    </trkpt>
    <trkpt lat="49.91546695" lon="8.36656778">
    <ele>81</ele>
    <time>2016-07-01T11:50:16Z</time>
    </trkpt>
    <trkpt lat="49.91589056" lon="8.36680195">
    <ele>76</ele>
    <time>2016-07-01T11:50:26Z</time>
    </trkpt>
    <trkpt lat="49.91666556" lon="8.36709584">
    <ele>78</ele>
    <time>2016-07-01T11:50:45Z</time>
    </trkpt>
    <trkpt lat="49.91683334" lon="8.36727778">
    <ele>78</ele>
    <time>2016-07-01T11:50:50Z</time>
    </trkpt>
    <trkpt lat="49.917055" lon="8.36755139">
    <ele>78</ele>
    <time>2016-07-01T11:50:57Z</time>
    </trkpt>
    <trkpt lat="49.91752639" lon="8.36779417">
    <ele>79</ele>
    <time>2016-07-01T11:51:08Z</time>
    </trkpt>
    <trkpt lat="49.91789028" lon="8.36796445">
    <ele>79</ele>
    <time>2016-07-01T11:51:17Z</time>
    </trkpt>
    <trkpt lat="49.91791695" lon="8.36797167">
    <ele>79</ele>
    <time>2016-07-01T11:51:18Z</time>
    </trkpt>
    <trkpt lat="49.91820862" lon="8.36800473">
    <ele>75</ele>
    <time>2016-07-01T11:51:25Z</time>
    </trkpt>
    <trkpt lat="49.91842278" lon="8.36798362">
    <ele>72</ele>
    <time>2016-07-01T11:51:30Z</time>
    </trkpt>
    <trkpt lat="49.91857667" lon="8.36793278">
    <ele>71</ele>
    <time>2016-07-01T11:51:34Z</time>
    </trkpt>
    <trkpt lat="49.91915195" lon="8.36732778">
    <ele>67</ele>
    <time>2016-07-01T11:51:50Z</time>
    </trkpt>
    <trkpt lat="49.9199475" lon="8.36719584">
    <ele>67</ele>
    <time>2016-07-01T11:52:09Z</time>
    </trkpt>
    <trkpt lat="49.92053584" lon="8.36688945">
    <ele>68</ele>
    <time>2016-07-01T11:52:23Z</time>
    </trkpt>
    <trkpt lat="49.92105278" lon="8.36663084">
    <ele>68</ele>
    <time>2016-07-01T11:52:36Z</time>
    </trkpt>
    <trkpt lat="49.92240473" lon="8.36578167">
    <ele>66</ele>
    <time>2016-07-01T11:53:11Z</time>
    </trkpt>
    <trkpt lat="49.92384195" lon="8.36530639">
    <ele>72</ele>
    <time>2016-07-01T11:53:45Z</time>
    </trkpt>
    <trkpt lat="49.92438195" lon="8.36481334">
    <ele>66</ele>
    <time>2016-07-01T11:54:00Z</time>
    </trkpt>
    <trkpt lat="49.92512028" lon="8.36428945">
    <ele>66</ele>
    <time>2016-07-01T11:54:19Z</time>
    </trkpt>
    <trkpt lat="49.92586195" lon="8.36393223">
    <ele>67</ele>
    <time>2016-07-01T11:54:37Z</time>
    </trkpt>
    <trkpt lat="49.92616445" lon="8.36377167">
    <ele>66</ele>
    <time>2016-07-01T11:54:45Z</time>
    </trkpt>
    <trkpt lat="49.92652862" lon="8.3636825">
    <ele>68</ele>
    <time>2016-07-01T11:54:54Z</time>
    </trkpt>
    <trkpt lat="49.92669389" lon="8.3637275">
    <ele>71</ele>
    <time>2016-07-01T11:54:58Z</time>
    </trkpt>
    <trkpt lat="49.92677889" lon="8.36381084">
    <ele>71</ele>
    <time>2016-07-01T11:55:00Z</time>
    </trkpt>
    <trkpt lat="49.92688889" lon="8.36395139">
    <ele>72</ele>
    <time>2016-07-01T11:55:03Z</time>
    </trkpt>
    <trkpt lat="49.92694001" lon="8.36412084">
    <ele>73</ele>
    <time>2016-07-01T11:55:06Z</time>
    </trkpt>
    <trkpt lat="49.92703084" lon="8.36441473">
    <ele>78</ele>
    <time>2016-07-01T11:55:11Z</time>
    </trkpt>
    <trkpt lat="49.92721001" lon="8.36458195">
    <ele>80</ele>
    <time>2016-07-01T11:55:16Z</time>
    </trkpt>
    <trkpt lat="49.92764445" lon="8.36459084">
    <ele>81</ele>
    <time>2016-07-01T11:55:26Z</time>
    </trkpt>
    <trkpt lat="49.92807389" lon="8.36450723">
    <ele>82</ele>
    <time>2016-07-01T11:55:36Z</time>
    </trkpt>
    <trkpt lat="49.92832778" lon="8.36442528">
    <ele>81</ele>
    <time>2016-07-01T11:55:42Z</time>
    </trkpt>
    <trkpt lat="49.92843528" lon="8.36418306">
    <ele>81</ele>
    <time>2016-07-01T11:55:47Z</time>
    </trkpt>
    <trkpt lat="49.92845306" lon="8.36377556">
    <ele>78</ele>
    <time>2016-07-01T11:55:53Z</time>
    </trkpt>
    <trkpt lat="49.92849056" lon="8.36368556">
    <ele>77</ele>
    <time>2016-07-01T11:55:55Z</time>
    </trkpt>
    <trkpt lat="49.92859973" lon="8.36360056">
    <ele>76</ele>
    <time>2016-07-01T11:55:58Z</time>
    </trkpt>
    <trkpt lat="49.92884167" lon="8.36351556">
    <ele>77</ele>
    <time>2016-07-01T11:56:03Z</time>
    </trkpt>
    <trkpt lat="49.92903223" lon="8.36334223">
    <ele>76</ele>
    <time>2016-07-01T11:56:09Z</time>
    </trkpt>
    <trkpt lat="49.92955084" lon="8.36283306">
    <ele>74</ele>
    <time>2016-07-01T11:56:23Z</time>
    </trkpt>
    <trkpt lat="49.93019028" lon="8.36225306">
    <ele>73</ele>
    <time>2016-07-01T11:56:41Z</time>
    </trkpt>
    <trkpt lat="49.93088389" lon="8.36163389">
    <ele>73</ele>
    <time>2016-07-01T11:56:59Z</time>
    </trkpt>
    <trkpt lat="49.93165389" lon="8.36164973">
    <ele>77</ele>
    <time>2016-07-01T11:57:18Z</time>
    </trkpt>
    <trkpt lat="49.93180084" lon="8.36150584">
    <ele>78</ele>
    <time>2016-07-01T11:57:22Z</time>
    </trkpt>
    <trkpt lat="49.93218889" lon="8.36106528">
    <ele>79</ele>
    <time>2016-07-01T11:57:33Z</time>
    </trkpt>
    <trkpt lat="49.93333" lon="8.35974112">
    <ele>79</ele>
    <time>2016-07-01T11:58:07Z</time>
    </trkpt>
    <trkpt lat="49.93394556" lon="8.35906584">
    <ele>73</ele>
    <time>2016-07-01T11:58:24Z</time>
    </trkpt>
    <trkpt lat="49.93439612" lon="8.35888834">
    <ele>71</ele>
    <time>2016-07-01T11:58:35Z</time>
    </trkpt>
    <trkpt lat="49.93461528" lon="8.35869167">
    <ele>71</ele>
    <time>2016-07-01T11:58:41Z</time>
    </trkpt>
    <trkpt lat="49.93478139" lon="8.35859751">
    <ele>71</ele>
    <time>2016-07-01T11:58:45Z</time>
    </trkpt>
    <trkpt lat="49.93495389" lon="8.35858584">
    <ele>71</ele>
    <time>2016-07-01T11:58:49Z</time>
    </trkpt>
    <trkpt lat="49.93520889" lon="8.358545">
    <ele>72</ele>
    <time>2016-07-01T11:58:56Z</time>
    </trkpt>
    <trkpt lat="49.93664612" lon="8.35796417">
    <ele>63</ele>
    <time>2016-07-01T11:59:31Z</time>
    </trkpt>
    <trkpt lat="49.93887167" lon="8.35707667">
    <ele>68</ele>
    <time>2016-07-01T12:00:25Z</time>
    </trkpt>
    <trkpt lat="49.93916973" lon="8.35703639">
    <ele>72</ele>
    <time>2016-07-01T12:00:32Z</time>
    </trkpt>
    <trkpt lat="49.94108084" lon="8.35705973">
    <ele>70</ele>
    <time>2016-07-01T12:01:17Z</time>
    </trkpt>
    <trkpt lat="49.94110028" lon="8.35706695">
    <ele>70</ele>
    <time>2016-07-01T12:01:17Z</time>
    </trkpt>
    <trkpt lat="49.94198306" lon="8.35715362">
    <ele>69</ele>
    <time>2016-07-01T12:01:38Z</time>
    </trkpt>
    <trkpt lat="49.94287889" lon="8.35747556">
    <ele>75</ele>
    <time>2016-07-01T12:02:00Z</time>
    </trkpt>
    <trkpt lat="49.94442889" lon="8.35801751">
    <ele>75</ele>
    <time>2016-07-01T12:02:37Z</time>
    </trkpt>
    <trkpt lat="49.94581389" lon="8.35852973">
    <ele>72</ele>
    <time>2016-07-01T12:03:11Z</time>
    </trkpt>
    <trkpt lat="49.94708223" lon="8.359015">
    <ele>79</ele>
    <time>2016-07-01T12:03:41Z</time>
    </trkpt>
    <trkpt lat="49.94872667" lon="8.35959139">
    <ele>72</ele>
    <time>2016-07-01T12:04:21Z</time>
    </trkpt>
    <trkpt lat="49.94897973" lon="8.35957028">
    <ele>72</ele>
    <time>2016-07-01T12:04:27Z</time>
    </trkpt>
    <trkpt lat="49.94921417" lon="8.35937389">
    <ele>75</ele>
    <time>2016-07-01T12:04:33Z</time>
    </trkpt>
    <trkpt lat="49.94972889" lon="8.35880445">
    <ele>75</ele>
    <time>2016-07-01T12:04:48Z</time>
    </trkpt>
    <trkpt lat="49.94989417" lon="8.35860695">
    <ele>78</ele>
    <time>2016-07-01T12:04:53Z</time>
    </trkpt>
    <trkpt lat="49.95021667" lon="8.35852667">
    <ele>75</ele>
    <time>2016-07-01T12:05:01Z</time>
    </trkpt>
    <trkpt lat="49.9511725" lon="8.35834139">
    <ele>71</ele>
    <time>2016-07-01T12:05:24Z</time>
    </trkpt>
    <trkpt lat="49.95113139" lon="8.35834223">
    <ele>71</ele>
    <time>2016-07-01T12:05:24Z</time>
    </trkpt>
    <trkpt lat="49.95218056" lon="8.3581325">
    <ele>68</ele>
    <time>2016-07-01T12:05:49Z</time>
    </trkpt>
    <trkpt lat="49.95280139" lon="8.35786362">
    <ele>66</ele>
    <time>2016-07-01T12:06:05Z</time>
    </trkpt>
    <trkpt lat="49.95368445" lon="8.3574975">
    <ele>69</ele>
    <time>2016-07-01T12:06:26Z</time>
    </trkpt>
    <trkpt lat="49.95489945" lon="8.35716389">
    <ele>69</ele>
    <time>2016-07-01T12:06:55Z</time>
    </trkpt>
    <trkpt lat="49.95621139" lon="8.35704195">
    <ele>70</ele>
    <time>2016-07-01T12:07:26Z</time>
    </trkpt>
    <trkpt lat="49.95631112" lon="8.35695556">
    <ele>71</ele>
    <time>2016-07-01T12:07:29Z</time>
    </trkpt>
    <trkpt lat="49.95651778" lon="8.35668556">
    <ele>75</ele>
    <time>2016-07-01T12:07:35Z</time>
    </trkpt>
    <trkpt lat="49.95692667" lon="8.356385">
    <ele>77</ele>
    <time>2016-07-01T12:07:46Z</time>
    </trkpt>
    <trkpt lat="49.95712917" lon="8.35641917">
    <ele>79</ele>
    <time>2016-07-01T12:07:51Z</time>
    </trkpt>
    <trkpt lat="49.95722528" lon="8.35654695">
    <ele>79</ele>
    <time>2016-07-01T12:07:54Z</time>
    </trkpt>
    <trkpt lat="49.95733362" lon="8.35678528">
    <ele>79</ele>
    <time>2016-07-01T12:07:58Z</time>
    </trkpt>
    <trkpt lat="49.95745473" lon="8.35718945">
    <ele>79</ele>
    <time>2016-07-01T12:08:05Z</time>
    </trkpt>
    <trkpt lat="49.95746056" lon="8.35716167">
    <ele>79</ele>
    <time>2016-07-01T12:08:05Z</time>
    </trkpt>
    <trkpt lat="49.95764417" lon="8.35699334">
    <ele>78</ele>
    <time>2016-07-01T12:08:10Z</time>
    </trkpt>
    <trkpt lat="49.95793945" lon="8.35662028">
    <ele>80</ele>
    <time>2016-07-01T12:08:19Z</time>
    </trkpt>
    <trkpt lat="49.95834778" lon="8.3562">
    <ele>82</ele>
    <time>2016-07-01T12:08:31Z</time>
    </trkpt>
    <trkpt lat="49.95876778" lon="8.35563751">
    <ele>82</ele>
    <time>2016-07-01T12:08:44Z</time>
    </trkpt>
    <trkpt lat="49.95919778" lon="8.35498973">
    <ele>79</ele>
    <time>2016-07-01T12:08:58Z</time>
    </trkpt>
    <trkpt lat="49.95968139" lon="8.35420862">
    <ele>78</ele>
    <time>2016-07-01T12:09:14Z</time>
    </trkpt>
    <trkpt lat="49.95981084" lon="8.35398251">
    <ele>77</ele>
    <time>2016-07-01T12:09:19Z</time>
    </trkpt>
    <trkpt lat="49.96009473" lon="8.35348723">
    <ele>77</ele>
    <time>2016-07-01T12:09:29Z</time>
    </trkpt>
    <trkpt lat="49.96033556" lon="8.35306473">
    <ele>76</ele>
    <time>2016-07-01T12:09:38Z</time>
    </trkpt>
    <trkpt lat="49.96061112" lon="8.35250223">
    <ele>78</ele>
    <time>2016-07-01T12:09:48Z</time>
    </trkpt>
    <trkpt lat="49.96090612" lon="8.35190584">
    <ele>80</ele>
    <time>2016-07-01T12:10:00Z</time>
    </trkpt>
    <trkpt lat="49.96114139" lon="8.35137612">
    <ele>84</ele>
    <time>2016-07-01T12:10:10Z</time>
    </trkpt>
    <trkpt lat="49.96135306" lon="8.35093028">
    <ele>84</ele>
    <time>2016-07-01T12:10:18Z</time>
    </trkpt>
    <trkpt lat="49.96162139" lon="8.35026639">
    <ele>85</ele>
    <time>2016-07-01T12:10:30Z</time>
    </trkpt>
    <trkpt lat="49.96159001" lon="8.35030167">
    <ele>85</ele>
    <time>2016-07-01T12:10:31Z</time>
    </trkpt>
    <trkpt lat="49.96211195" lon="8.34898889">
    <ele>86</ele>
    <time>2016-07-01T12:10:54Z</time>
    </trkpt>
    <trkpt lat="49.96216556" lon="8.34884528">
    <ele>85</ele>
    <time>2016-07-01T12:10:57Z</time>
    </trkpt>
    <trkpt lat="49.96214612" lon="8.34856001">
    <ele>85</ele>
    <time>2016-07-01T12:11:01Z</time>
    </trkpt>
    <trkpt lat="49.96220167" lon="8.34786723">
    <ele>84</ele>
    <time>2016-07-01T12:11:12Z</time>
    </trkpt>
    <trkpt lat="49.96228528" lon="8.34699612">
    <ele>84</ele>
    <time>2016-07-01T12:11:25Z</time>
    </trkpt>
    <trkpt lat="49.96252084" lon="8.34585112">
    <ele>86</ele>
    <time>2016-07-01T12:11:43Z</time>
    </trkpt>
    <trkpt lat="49.96307278" lon="8.34416195">
    <ele>85</ele>
    <time>2016-07-01T12:12:12Z</time>
    </trkpt>
    <trkpt lat="49.96350389" lon="8.34306556">
    <ele>81</ele>
    <time>2016-07-01T12:12:32Z</time>
    </trkpt>
    <trkpt lat="49.96356695" lon="8.34307973">
    <ele>82</ele>
    <time>2016-07-01T12:12:33Z</time>
    </trkpt>
    <trkpt lat="49.96368806" lon="8.34314889">
    <ele>85</ele>
    <time>2016-07-01T12:12:36Z</time>
    </trkpt>
    <trkpt lat="49.96394501" lon="8.34253389">
    <ele>82</ele>
    <time>2016-07-01T12:12:47Z</time>
    </trkpt>
    <trkpt lat="49.96422945" lon="8.34198973">
    <ele>81</ele>
    <time>2016-07-01T12:12:58Z</time>
    </trkpt>
    <trkpt lat="49.96423501" lon="8.34200806">
    <ele>81</ele>
    <time>2016-07-01T12:12:58Z</time>
    </trkpt>
    <trkpt lat="49.96445778" lon="8.34168417">
    <ele>82</ele>
    <time>2016-07-01T12:13:05Z</time>
    </trkpt>
    <trkpt lat="49.96466417" lon="8.34146945">
    <ele>81</ele>
    <time>2016-07-01T12:13:11Z</time>
    </trkpt>
    <trkpt lat="49.96492139" lon="8.34101778">
    <ele>80</ele>
    <time>2016-07-01T12:13:20Z</time>
    </trkpt>
    <trkpt lat="49.96591389" lon="8.33937667">
    <ele>80</ele>
    <time>2016-07-01T12:13:55Z</time>
    </trkpt>
    <trkpt lat="49.96648" lon="8.33848195">
    <ele>79</ele>
    <time>2016-07-01T12:14:14Z</time>
    </trkpt>
    <trkpt lat="49.96708834" lon="8.33761667">
    <ele>75</ele>
    <time>2016-07-01T12:14:33Z</time>
    </trkpt>
    <trkpt lat="49.96745112" lon="8.33716778">
    <ele>74</ele>
    <time>2016-07-01T12:14:44Z</time>
    </trkpt>
    <trkpt lat="49.96834528" lon="8.33639">
    <ele>79</ele>
    <time>2016-07-01T12:15:08Z</time>
    </trkpt>
    <trkpt lat="49.96941612" lon="8.33550556">
    <ele>78</ele>
    <time>2016-07-01T12:15:37Z</time>
    </trkpt>
    <trkpt lat="49.96937473" lon="8.33553362">
    <ele>78</ele>
    <time>2016-07-01T12:15:38Z</time>
    </trkpt>
    <trkpt lat="49.96966473" lon="8.33532389">
    <ele>80</ele>
    <time>2016-07-01T12:15:45Z</time>
    </trkpt>
    <trkpt lat="49.97080195" lon="8.33440917">
    <ele>82</ele>
    <time>2016-07-01T12:16:15Z</time>
    </trkpt>
    <trkpt lat="49.97118278" lon="8.33407834">
    <ele>78</ele>
    <time>2016-07-01T12:16:26Z</time>
    </trkpt>
    <trkpt lat="49.97212834" lon="8.3331275">
    <ele>77</ele>
    <time>2016-07-01T12:16:52Z</time>
    </trkpt>
    <trkpt lat="49.97243001" lon="8.33279112">
    <ele>79</ele>
    <time>2016-07-01T12:17:01Z</time>
    </trkpt>
    <trkpt lat="49.97265167" lon="8.33251195">
    <ele>78</ele>
    <time>2016-07-01T12:17:08Z</time>
    </trkpt>
    <trkpt lat="49.97264862" lon="8.33251139">
    <ele>78</ele>
    <time>2016-07-01T12:17:08Z</time>
    </trkpt>
    <trkpt lat="49.97300389" lon="8.33222973">
    <ele>76</ele>
    <time>2016-07-01T12:17:17Z</time>
    </trkpt>
    <trkpt lat="49.97365445" lon="8.33155639">
    <ele>76</ele>
    <time>2016-07-01T12:17:36Z</time>
    </trkpt>
    <trkpt lat="49.97437612" lon="8.33082695">
    <ele>80</ele>
    <time>2016-07-01T12:17:56Z</time>
    </trkpt>
    <trkpt lat="49.97462501" lon="8.33062056">
    <ele>81</ele>
    <time>2016-07-01T12:18:03Z</time>
    </trkpt>
    <trkpt lat="49.97484473" lon="8.33057139">
    <ele>81</ele>
    <time>2016-07-01T12:18:08Z</time>
    </trkpt>
    <trkpt lat="49.97515362" lon="8.33046556">
    <ele>80</ele>
    <time>2016-07-01T12:18:15Z</time>
    </trkpt>
    <trkpt lat="49.97533139" lon="8.33035223">
    <ele>78</ele>
    <time>2016-07-01T12:18:20Z</time>
    </trkpt>
    <trkpt lat="49.97558556" lon="8.33011417">
    <ele>77</ele>
    <time>2016-07-01T12:18:27Z</time>
    </trkpt>
    <trkpt lat="49.97578751" lon="8.33001389">
    <ele>77</ele>
    <time>2016-07-01T12:18:32Z</time>
    </trkpt>
    <trkpt lat="49.97616751" lon="8.32983334">
    <ele>78</ele>
    <time>2016-07-01T12:18:41Z</time>
    </trkpt>
    <trkpt lat="49.97660084" lon="8.32966112">
    <ele>80</ele>
    <time>2016-07-01T12:18:52Z</time>
    </trkpt>
    <trkpt lat="49.97687889" lon="8.32939889">
    <ele>81</ele>
    <time>2016-07-01T12:18:59Z</time>
    </trkpt>
    <trkpt lat="49.97715667" lon="8.32907223">
    <ele>82</ele>
    <time>2016-07-01T12:19:08Z</time>
    </trkpt>
    <trkpt lat="49.97741667" lon="8.32870945">
    <ele>84</ele>
    <time>2016-07-01T12:19:16Z</time>
    </trkpt>
    <trkpt lat="49.97740834" lon="8.32870306">
    <ele>84</ele>
    <time>2016-07-01T12:19:16Z</time>
    </trkpt>
    <trkpt lat="49.97758556" lon="8.32842917">
    <ele>84</ele>
    <time>2016-07-01T12:19:22Z</time>
    </trkpt>
    <trkpt lat="49.97789917" lon="8.32806612">
    <ele>83</ele>
    <time>2016-07-01T12:19:31Z</time>
    </trkpt>
    <trkpt lat="49.97813084" lon="8.32774834">
    <ele>80</ele>
    <time>2016-07-01T12:19:38Z</time>
    </trkpt>
    <trkpt lat="49.97816612" lon="8.32771112">
    <ele>80</ele>
    <time>2016-07-01T12:19:39Z</time>
    </trkpt>
    <trkpt lat="49.97838445" lon="8.32739445">
    <ele>81</ele>
    <time>2016-07-01T12:19:46Z</time>
    </trkpt>
    <trkpt lat="49.97849001" lon="8.32714362">
    <ele>81</ele>
    <time>2016-07-01T12:19:51Z</time>
    </trkpt>
    <trkpt lat="49.97864917" lon="8.32687389">
    <ele>81</ele>
    <time>2016-07-01T12:19:57Z</time>
    </trkpt>
    <trkpt lat="49.97909723" lon="8.32613889">
    <ele>79</ele>
    <time>2016-07-01T12:20:12Z</time>
    </trkpt>
    <trkpt lat="49.97917389" lon="8.32602695">
    <ele>80</ele>
    <time>2016-07-01T12:20:14Z</time>
    </trkpt>
    <trkpt lat="49.97932167" lon="8.32584945">
    <ele>80</ele>
    <time>2016-07-01T12:20:19Z</time>
    </trkpt>
    <trkpt lat="49.97956278" lon="8.32539417">
    <ele>81</ele>
    <time>2016-07-01T12:20:28Z</time>
    </trkpt>
    <trkpt lat="49.97966945" lon="8.32530028">
    <ele>81</ele>
    <time>2016-07-01T12:20:31Z</time>
    </trkpt>
    <trkpt lat="49.98008417" lon="8.32499">
    <ele>85</ele>
    <time>2016-07-01T12:20:41Z</time>
    </trkpt>
    <trkpt lat="49.98058778" lon="8.32461389">
    <ele>86</ele>
    <time>2016-07-01T12:20:55Z</time>
    </trkpt>
    <trkpt lat="49.98098473" lon="8.32433167">
    <ele>86</ele>
    <time>2016-07-01T12:21:05Z</time>
    </trkpt>
    <trkpt lat="49.98127473" lon="8.32405056">
    <ele>87</ele>
    <time>2016-07-01T12:21:13Z</time>
    </trkpt>
    <trkpt lat="49.9815225" lon="8.323715">
    <ele>88</ele>
    <time>2016-07-01T12:21:21Z</time>
    </trkpt>
    <trkpt lat="49.98163445" lon="8.32350112">
    <ele>87</ele>
    <time>2016-07-01T12:21:25Z</time>
    </trkpt>
    <trkpt lat="49.98176528" lon="8.32332556">
    <ele>85</ele>
    <time>2016-07-01T12:21:29Z</time>
    </trkpt>
    <trkpt lat="49.98195973" lon="8.32320139">
    <ele>84</ele>
    <time>2016-07-01T12:21:34Z</time>
    </trkpt>
    <trkpt lat="49.98240556" lon="8.32312139">
    <ele>86</ele>
    <time>2016-07-01T12:21:44Z</time>
    </trkpt>
    <trkpt lat="49.98257306" lon="8.32307556">
    <ele>86</ele>
    <time>2016-07-01T12:21:48Z</time>
    </trkpt>
    <trkpt lat="49.98267834" lon="8.32296973">
    <ele>85</ele>
    <time>2016-07-01T12:21:51Z</time>
    </trkpt>
    <trkpt lat="49.98281389" lon="8.32272806">
    <ele>85</ele>
    <time>2016-07-01T12:21:56Z</time>
    </trkpt>
    <trkpt lat="49.98300778" lon="8.32231">
    <ele>85</ele>
    <time>2016-07-01T12:22:04Z</time>
    </trkpt>
    <trkpt lat="49.98328473" lon="8.32184473">
    <ele>83</ele>
    <time>2016-07-01T12:22:14Z</time>
    </trkpt>
    <trkpt lat="49.98363028" lon="8.32139362">
    <ele>83</ele>
    <time>2016-07-01T12:22:24Z</time>
    </trkpt>
    <trkpt lat="49.98379834" lon="8.32116389">
    <ele>83</ele>
    <time>2016-07-01T12:22:30Z</time>
    </trkpt>
    <trkpt lat="49.98403445" lon="8.32081917">
    <ele>82</ele>
    <time>2016-07-01T12:22:37Z</time>
    </trkpt>
    <trkpt lat="49.98434695" lon="8.32037167">
    <ele>82</ele>
    <time>2016-07-01T12:22:47Z</time>
    </trkpt>
    <trkpt lat="49.984545" lon="8.32008334">
    <ele>83</ele>
    <time>2016-07-01T12:22:54Z</time>
    </trkpt>
    <trkpt lat="49.98469417" lon="8.31973028">
    <ele>83</ele>
    <time>2016-07-01T12:23:00Z</time>
    </trkpt>
    <trkpt lat="49.98481112" lon="8.31933028">
    <ele>84</ele>
    <time>2016-07-01T12:23:07Z</time>
    </trkpt>
    <trkpt lat="49.98492917" lon="8.31917334">
    <ele>84</ele>
    <time>2016-07-01T12:23:10Z</time>
    </trkpt>
    <trkpt lat="49.985285" lon="8.31897445">
    <ele>83</ele>
    <time>2016-07-01T12:23:19Z</time>
    </trkpt>
    <trkpt lat="49.98580639" lon="8.31863473">
    <ele>84</ele>
    <time>2016-07-01T12:23:33Z</time>
    </trkpt>
    <trkpt lat="49.98635167" lon="8.31826723">
    <ele>84</ele>
    <time>2016-07-01T12:23:47Z</time>
    </trkpt>
    <trkpt lat="49.98661139" lon="8.31791278">
    <ele>84</ele>
    <time>2016-07-01T12:23:55Z</time>
    </trkpt>
    <trkpt lat="49.98661751" lon="8.31792195">
    <ele>84</ele>
    <time>2016-07-01T12:23:55Z</time>
    </trkpt>
    <trkpt lat="49.98695973" lon="8.31742806">
    <ele>86</ele>
    <time>2016-07-01T12:24:06Z</time>
    </trkpt>
    <trkpt lat="49.98728362" lon="8.31687889">
    <ele>85</ele>
    <time>2016-07-01T12:24:17Z</time>
    </trkpt>
    <trkpt lat="49.98750084" lon="8.31635917">
    <ele>84</ele>
    <time>2016-07-01T12:24:27Z</time>
    </trkpt>
    <trkpt lat="49.98757889" lon="8.31614945">
    <ele>84</ele>
    <time>2016-07-01T12:24:30Z</time>
    </trkpt>
    <trkpt lat="49.98757889" lon="8.31614945">
    <ele>84</ele>
    <time>2016-07-01T12:24:30Z</time>
    </trkpt>
    <trkpt lat="49.98786584" lon="8.31551028">
    <ele>87</ele>
    <time>2016-07-01T12:24:42Z</time>
    </trkpt>
    <trkpt lat="49.98784556" lon="8.31543639">
    <ele>87</ele>
    <time>2016-07-01T12:24:43Z</time>
    </trkpt>
    <trkpt lat="49.98991612" lon="8.31854501">
    <ele>84</ele>
    <time>2016-07-01T12:25:51Z</time>
    </trkpt>
    <trkpt lat="49.99083889" lon="8.31988389">
    <ele>87</ele>
    <time>2016-07-01T12:26:21Z</time>
    </trkpt>
    <trkpt lat="49.99083389" lon="8.31988806">
    <ele>87</ele>
    <time>2016-07-01T12:26:21Z</time>
    </trkpt>
    <trkpt lat="49.99105612" lon="8.31966834">
    <ele>87</ele>
    <time>2016-07-01T12:26:27Z</time>
    </trkpt>
    <trkpt lat="49.99137528" lon="8.31958056">
    <ele>86</ele>
    <time>2016-07-01T12:26:35Z</time>
    </trkpt>
    <trkpt lat="49.99187556" lon="8.31964723">
    <ele>88</ele>
    <time>2016-07-01T12:26:47Z</time>
    </trkpt>
    <trkpt lat="49.99245973" lon="8.31975556">
    <ele>91</ele>
    <time>2016-07-01T12:27:01Z</time>
    </trkpt>
    <trkpt lat="49.99324278" lon="8.31995278">
    <ele>92</ele>
    <time>2016-07-01T12:27:19Z</time>
    </trkpt>
    <trkpt lat="49.99372417" lon="8.32032528">
    <ele>87</ele>
    <time>2016-07-01T12:27:32Z</time>
    </trkpt>
    <trkpt lat="49.99397917" lon="8.32051056">
    <ele>88</ele>
    <time>2016-07-01T12:27:39Z</time>
    </trkpt>
    <trkpt lat="49.99412973" lon="8.32055695">
    <ele>88</ele>
    <time>2016-07-01T12:27:42Z</time>
    </trkpt>
    <trkpt lat="49.99477917" lon="8.32043223">
    <ele>87</ele>
    <time>2016-07-01T12:27:58Z</time>
    </trkpt>
    <trkpt lat="49.99476445" lon="8.32026862">
    <ele>87</ele>
    <time>2016-07-01T12:28:00Z</time>
    </trkpt>
    <trkpt lat="49.99473362" lon="8.31949278">
    <ele>85</ele>
    <time>2016-07-01T12:28:12Z</time>
    </trkpt>
    <trkpt lat="49.99465834" lon="8.31779723">
    <ele>86</ele>
    <time>2016-07-01T12:28:38Z</time>
    </trkpt>
    <trkpt lat="49.99464195" lon="8.31689278">
    <ele>88</ele>
    <time>2016-07-01T12:28:52Z</time>
    </trkpt>
    <trkpt lat="49.99461528" lon="8.31610139">
    <ele>91</ele>
    <time>2016-07-01T12:29:04Z</time>
    </trkpt>
    <trkpt lat="49.99462223" lon="8.31531973">
    <ele>89</ele>
    <time>2016-07-01T12:29:15Z</time>
    </trkpt>
    <trkpt lat="49.99463667" lon="8.31411695">
    <ele>83</ele>
    <time>2016-07-01T12:29:34Z</time>
    </trkpt>
    <trkpt lat="49.99467501" lon="8.31408639">
    <ele>82</ele>
    <time>2016-07-01T12:29:35Z</time>
    </trkpt>
    <trkpt lat="49.99533917" lon="8.31401528">
    <ele>82</ele>
    <time>2016-07-01T12:29:50Z</time>
    </trkpt>
    <trkpt lat="49.99631473" lon="8.31387251">
    <ele>84</ele>
    <time>2016-07-01T12:30:13Z</time>
    </trkpt>
    <trkpt lat="49.99628" lon="8.31388389">
    <ele>84</ele>
    <time>2016-07-01T12:30:14Z</time>
    </trkpt>
    <trkpt lat="49.99660501" lon="8.31384556">
    <ele>86</ele>
    <time>2016-07-01T12:30:22Z</time>
    </trkpt>
    <trkpt lat="49.99702667" lon="8.31379362">
    <ele>88</ele>
    <time>2016-07-01T12:30:32Z</time>
    </trkpt>
    <trkpt lat="49.99699973" lon="8.31381751">
    <ele>88</ele>
    <time>2016-07-01T12:30:33Z</time>
    </trkpt>
    <trkpt lat="49.99712528" lon="8.31392417">
    <ele>89</ele>
    <time>2016-07-01T12:30:36Z</time>
    </trkpt>
    <trkpt lat="49.99725056" lon="8.31388223">
    <ele>90</ele>
    <time>2016-07-01T12:30:39Z</time>
    </trkpt>
    <trkpt lat="49.99724306" lon="8.31372862">
    <ele>89</ele>
    <time>2016-07-01T12:30:41Z</time>
    </trkpt>
    <trkpt lat="49.99714834" lon="8.31361473">
    <ele>88</ele>
    <time>2016-07-01T12:30:44Z</time>
    </trkpt>
    <trkpt lat="49.99715695" lon="8.31326112">
    <ele>86</ele>
    <time>2016-07-01T12:30:50Z</time>
    </trkpt>
    <trkpt lat="49.99744" lon="8.31266584">
    <ele>86</ele>
    <time>2016-07-01T12:31:01Z</time>
    </trkpt>
    <trkpt lat="49.99827639" lon="8.31162362">
    <ele>85</ele>
    <time>2016-07-01T12:31:26Z</time>
    </trkpt>
    <trkpt lat="49.99874417" lon="8.31103445">
    <ele>84</ele>
    <time>2016-07-01T12:31:40Z</time>
    </trkpt>
    <trkpt lat="50.00009334" lon="8.30943695">
    <ele>86</ele>
    <time>2016-07-01T12:32:20Z</time>
    </trkpt>
    <trkpt lat="50.00061945" lon="8.30882639">
    <ele>91</ele>
    <time>2016-07-01T12:32:36Z</time>
    </trkpt>
    <trkpt lat="50.00068639" lon="8.30896084">
    <ele>91</ele>
    <time>2016-07-01T12:32:38Z</time>
    </trkpt>
    <trkpt lat="50.00042695" lon="8.30932">
    <ele>90</ele>
    <time>2016-07-01T12:32:46Z</time>
    </trkpt>
    <trkpt lat="50.00034278" lon="8.30950473">
    <ele>88</ele>
    <time>2016-07-01T12:32:50Z</time>
    </trkpt>
    <trkpt lat="50.00048723" lon="8.30974251">
    <ele>88</ele>
    <time>2016-07-01T12:32:55Z</time>
    </trkpt>
    <trkpt lat="50.00014889" lon="8.30906278">
    <ele>88</ele>
    <time>2016-07-01T12:33:08Z</time>
    </trkpt>
    <trkpt lat="49.99999778" lon="8.30876973">
    <ele>86</ele>
    <time>2016-07-01T12:33:14Z</time>
    </trkpt>
    <trkpt lat="49.99998612" lon="8.30872362">
    <ele>87</ele>
    <time>2016-07-01T12:33:14Z</time>
    </trkpt>
    <trkpt lat="49.99982973" lon="8.30844889">
    <ele>91</ele>
    <time>2016-07-01T12:33:20Z</time>
    </trkpt>
    <trkpt lat="49.99957778" lon="8.30808334">
    <ele>90</ele>
    <time>2016-07-01T12:33:28Z</time>
    </trkpt>
    <trkpt lat="49.99939612" lon="8.30755973">
    <ele>92</ele>
    <time>2016-07-01T12:33:37Z</time>
    </trkpt>
    <trkpt lat="49.99927806" lon="8.30673973">
    <ele>95</ele>
    <time>2016-07-01T12:33:50Z</time>
    </trkpt>
    <trkpt lat="49.99924334" lon="8.30590973">
    <ele>91</ele>
    <time>2016-07-01T12:34:02Z</time>
    </trkpt>
    <trkpt lat="49.99925584" lon="8.30500473">
    <ele>86</ele>
    <time>2016-07-01T12:34:16Z</time>
    </trkpt>
    <trkpt lat="49.99928723" lon="8.30476889">
    <ele>85</ele>
    <time>2016-07-01T12:34:20Z</time>
    </trkpt>
    <trkpt lat="49.99859001" lon="8.30443">
    <ele>84</ele>
    <time>2016-07-01T12:34:37Z</time>
    </trkpt>
    <trkpt lat="49.9983875" lon="8.30406667">
    <ele>84</ele>
    <time>2016-07-01T12:34:44Z</time>
    </trkpt>
    <trkpt lat="49.99801417" lon="8.30348917">
    <ele>87</ele>
    <time>2016-07-01T12:34:57Z</time>
    </trkpt>
    <trkpt lat="49.99757445" lon="8.30252778">
    <ele>87</ele>
    <time>2016-07-01T12:35:15Z</time>
    </trkpt>
    <trkpt lat="49.99711806" lon="8.30155306">
    <ele>88</ele>
    <time>2016-07-01T12:35:33Z</time>
    </trkpt>
    <trkpt lat="49.99672112" lon="8.30054473">
    <ele>93</ele>
    <time>2016-07-01T12:35:51Z</time>
    </trkpt>
    <trkpt lat="49.99616278" lon="8.29906417">
    <ele>84</ele>
    <time>2016-07-01T12:36:17Z</time>
    </trkpt>
    <trkpt lat="49.99579445" lon="8.29832612">
    <ele>82</ele>
    <time>2016-07-01T12:36:31Z</time>
    </trkpt>
    <trkpt lat="49.99564917" lon="8.29793112">
    <ele>82</ele>
    <time>2016-07-01T12:36:38Z</time>
    </trkpt>
    <trkpt lat="49.99541584" lon="8.29672556">
    <ele>87</ele>
    <time>2016-07-01T12:36:57Z</time>
    </trkpt>
    <trkpt lat="49.99524889" lon="8.29568501">
    <ele>86</ele>
    <time>2016-07-01T12:37:13Z</time>
    </trkpt>
    <trkpt lat="49.99525056" lon="8.29570528">
    <ele>86</ele>
    <time>2016-07-01T12:37:14Z</time>
    </trkpt>
    <trkpt lat="49.99520139" lon="8.29493056">
    <ele>82</ele>
    <time>2016-07-01T12:37:25Z</time>
    </trkpt>
    <trkpt lat="49.9952525" lon="8.29416584">
    <ele>78</ele>
    <time>2016-07-01T12:37:37Z</time>
    </trkpt>
    <trkpt lat="49.99541862" lon="8.29324778">
    <ele>76</ele>
    <time>2016-07-01T12:37:52Z</time>
    </trkpt>
    <trkpt lat="49.99575917" lon="8.29214667">
    <ele>77</ele>
    <time>2016-07-01T12:38:10Z</time>
    </trkpt>
    <trkpt lat="49.99602695" lon="8.29157528">
    <ele>75</ele>
    <time>2016-07-01T12:38:21Z</time>
    </trkpt>
    <trkpt lat="49.99644723" lon="8.29086889">
    <ele>75</ele>
    <time>2016-07-01T12:38:35Z</time>
    </trkpt>
    <trkpt lat="49.99748917" lon="8.28941528">
    <ele>73</ele>
    <time>2016-07-01T12:39:08Z</time>
    </trkpt>
    <trkpt lat="49.99900973" lon="8.28767223">
    <ele>71</ele>
    <time>2016-07-01T12:39:53Z</time>
    </trkpt>
    <trkpt lat="49.99954028" lon="8.28716695">
    <ele>72</ele>
    <time>2016-07-01T12:40:08Z</time>
    </trkpt>
    <trkpt lat="49.99978251" lon="8.28686778">
    <ele>72</ele>
    <time>2016-07-01T12:40:15Z</time>
    </trkpt>
    <trkpt lat="49.99990695" lon="8.28677362">
    <ele>73</ele>
    <time>2016-07-01T12:40:18Z</time>
    </trkpt>
    <trkpt lat="50.00039195" lon="8.28631417">
    <ele>72</ele>
    <time>2016-07-01T12:40:32Z</time>
    </trkpt>
    <trkpt lat="50.00038695" lon="8.28628584">
    <ele>72</ele>
    <time>2016-07-01T12:40:32Z</time>
    </trkpt>
    <trkpt lat="50.00138612" lon="8.28544112">
    <ele>71</ele>
    <time>2016-07-01T12:40:59Z</time>
    </trkpt>
    <trkpt lat="50.00279223" lon="8.2842975">
    <ele>75</ele>
    <time>2016-07-01T12:41:36Z</time>
    </trkpt>
    <trkpt lat="50.00279223" lon="8.2842975">
    <ele>75</ele>
    <time>2016-07-01T12:41:36Z</time>
    </trkpt>
    <trkpt lat="50.00312889" lon="8.28401945">
    <ele>75</ele>
    <time>2016-07-01T12:41:45Z</time>
    </trkpt>
    <trkpt lat="50.00350334" lon="8.28373667">
    <ele>77</ele>
    <time>2016-07-01T12:41:55Z</time>
    </trkpt>
    <trkpt lat="50.00378" lon="8.28354056">
    <ele>79</ele>
    <time>2016-07-01T12:42:02Z</time>
    </trkpt>
    <trkpt lat="50.00430167" lon="8.28393889">
    <ele>82</ele>
    <time>2016-07-01T12:42:16Z</time>
    </trkpt>
    <trkpt lat="50.00446112" lon="8.28379112">
    <ele>82</ele>
    <time>2016-07-01T12:42:20Z</time>
    </trkpt>
    <trkpt lat="50.00466278" lon="8.28423723">
    <ele>83</ele>
    <time>2016-07-01T12:42:29Z</time>
    </trkpt>
    <trkpt lat="50.00477306" lon="8.28449751">
    <ele>83</ele>
    <time>2016-07-01T12:42:33Z</time>
    </trkpt>
    <trkpt lat="50.00484028" lon="8.28463667">
    <ele>82</ele>
    <time>2016-07-01T12:42:36Z</time>
    </trkpt>
    <trkpt lat="50.00483389" lon="8.28459945">
    <ele>83</ele>
    <time>2016-07-01T12:42:36Z</time>
    </trkpt>
    <trkpt lat="50.00468862" lon="8.28448945">
    <ele>83</ele>
    <time>2016-07-01T12:42:40Z</time>
    </trkpt>
    <trkpt lat="50.00460278" lon="8.2842475">
    <ele>83</ele>
    <time>2016-07-01T12:42:44Z</time>
    </trkpt>
    <trkpt lat="50.00446806" lon="8.28391278">
    <ele>82</ele>
    <time>2016-07-01T12:42:50Z</time>
    </trkpt>
    <trkpt lat="50.00446195" lon="8.28391278">
    <ele>82</ele>
    <time>2016-07-01T12:42:51Z</time>
    </trkpt>
    <trkpt lat="50.00447862" lon="8.28366917">
    <ele>82</ele>
    <time>2016-07-01T12:42:54Z</time>
    </trkpt>
    <trkpt lat="50.00447751" lon="8.28371556">
    <ele>82</ele>
    <time>2016-07-01T12:42:55Z</time>
    </trkpt>
    <trkpt lat="50.00457473" lon="8.28327417">
    <ele>80</ele>
    <time>2016-07-01T12:43:02Z</time>
    </trkpt>
    <trkpt lat="50.00530223" lon="8.28201306">
    <ele>76</ele>
    <time>2016-07-01T12:43:28Z</time>
    </trkpt>
    <trkpt lat="50.00557417" lon="8.28150167">
    <ele>74</ele>
    <time>2016-07-01T12:43:38Z</time>
    </trkpt>
    <trkpt lat="50.00563389" lon="8.28158389">
    <ele>75</ele>
    <time>2016-07-01T12:43:40Z</time>
    </trkpt>
  </trkseg>
</trk>
</gpx>
